Provisional Data: Chest Creek near Patton, PA


Please select a monitoring station.
Please select start date.
Please select start date.

Toggle Unit: C/F Toggle Unit: C/F
Sample Time Temperature (C) Temperature (F) Specific Conductivity (mS/cm) pH   Turbidity (NTU+) DO (mg/L)
10/22/2021 12:00:00 AM 12.65 54.77 0.244 7.4 6.66 9.6
10/22/2021 12:15:00 AM 12.6 54.68 0.244 7.4 6.81 9.61
10/22/2021 12:30:00 AM 12.53 54.554 0.243 7.4 6.54 9.62
10/22/2021 12:45:00 AM 12.45 54.41 0.244 7.4 6 9.62
10/22/2021 1:00:00 AM 12.4 54.32 0.244 7.4 6.04 9.63
10/22/2021 1:15:00 AM 12.35 54.23 0.243 7.41 5.87 9.64
10/22/2021 1:30:00 AM 12.31 54.158 0.243 7.4 8.05 9.65
10/22/2021 1:45:00 AM 12.28 54.104 0.243 7.41 6.06 9.66
10/22/2021 2:00:00 AM 12.25 54.05 0.244 7.41 6.3 9.66
10/22/2021 2:15:00 AM 12.23 54.014 0.244 7.41 6.07 9.67
10/22/2021 2:30:00 AM 12.2 53.96 0.244 7.41 6.07 9.67
10/22/2021 2:45:00 AM 12.18 53.924 0.245 7.41 5.84 9.67
10/22/2021 3:00:00 AM 12.16 53.888 0.245 7.41 6.03 9.68
10/22/2021 3:15:00 AM 12.13 53.834 0.245 7.41 6.3 9.68
10/22/2021 3:30:00 AM 12.11 53.798 0.245 7.41 6.25 9.68
10/22/2021 3:45:00 AM 12.1 53.78 0.245 7.42 5.92 9.68
10/22/2021 4:00:00 AM 12.06 53.708 0.246 7.42 6.24 9.68
10/22/2021 4:15:00 AM 12.01 53.618 0.246 7.42 6 9.69
10/22/2021 4:30:00 AM 11.96 53.528 0.245 7.41 7.13 9.69
10/22/2021 4:45:00 AM 11.92 53.456 0.246 7.42 5.99 9.7
10/22/2021 5:00:00 AM 11.9 53.42 0.246 7.41 6.6 9.71
10/22/2021 5:15:00 AM 11.89 53.402 0.246 7.42 5.99 9.71
10/22/2021 5:30:00 AM 11.86 53.348 0.246 7.42 6.46 9.72
10/22/2021 5:45:00 AM 11.86 53.348 0.246 7.42 6.3 9.72
10/22/2021 6:00:00 AM 11.86 53.348 0.246 7.42 6.13 9.72
10/22/2021 6:15:00 AM 11.85 53.33 0.246 7.43 5.83 9.73
10/22/2021 6:30:00 AM 11.84 53.312 0.246 7.42 6.19 9.73
10/22/2021 6:45:00 AM 11.84 53.312 0.245 7.42 6.55 9.73
10/22/2021 7:00:00 AM 11.84 53.312 0.245 7.42 5.86 9.72
10/22/2021 7:15:00 AM 11.83 53.294 0.245 7.43 6.04 9.73
10/22/2021 7:30:00 AM 11.84 53.312 0.245 7.42 5.93 9.73
10/22/2021 7:45:00 AM 11.82 53.276 0.246 7.43 6 9.74
10/22/2021 8:00:00 AM 11.81 53.258 0.248 7.44 5.93 9.76
10/22/2021 8:15:00 AM 11.8 53.24 0.25 7.44 5.58 9.78
10/22/2021 8:30:00 AM 11.79 53.222 0.25 7.44 5.4 9.8
10/22/2021 8:45:00 AM 11.79 53.222 0.25 7.44 5.64 9.83
10/22/2021 9:00:00 AM 11.79 53.222 0.25 7.44 5.37 9.86
10/22/2021 9:15:00 AM 11.79 53.222 0.249 7.44 5.23 9.9
10/22/2021 9:30:00 AM 11.8 53.24 0.249 7.45 5.39 9.96
10/22/2021 9:45:00 AM 11.81 53.258 0.248 7.46 5.25 10
10/22/2021 10:00:00 AM 11.82 53.276 0.248 7.45 5.36 10.07
10/22/2021 10:15:00 AM 11.84 53.312 0.248 7.46 5.29 10.16
10/22/2021 10:30:00 AM 11.87 53.366 0.246 7.47 5.18 10.27
10/22/2021 10:45:00 AM 11.9 53.42 0.246 7.48 5.25 10.35
10/22/2021 11:00:00 AM 11.92 53.456 0.245 7.49 5.31 10.39
10/22/2021 11:15:00 AM 11.96 53.528 0.244 7.5 5.4 10.47
10/22/2021 11:30:00 AM 12.02 53.636 0.244 7.51 5.32 10.59
10/22/2021 11:45:00 AM 12.05 53.69 0.243 7.52 5.14 10.65
10/22/2021 12:00:00 PM 12.09 53.762 0.243 7.52 5.32 10.69
10/22/2021 12:15:00 PM 12.13 53.834 0.242 7.53 5.41 10.73
10/22/2021 12:30:00 PM 12.15 53.87 0.241 7.53 5.5 10.71
10/22/2021 12:45:00 PM 12.16 53.888 0.241 7.53 5.3 10.72
10/22/2021 1:00:00 PM 12.23 54.014 0.241 7.54 5.17 10.83
10/22/2021 1:15:00 PM 12.3 54.14 0.241 7.55 5.09 10.93
10/22/2021 1:30:00 PM 12.39 54.302 0.24 7.56 5.18 11.02
10/22/2021 1:45:00 PM 12.44 54.392 0.239 7.56 5.81 11.05
10/22/2021 2:00:00 PM 12.48 54.464 0.238 7.56 5.28 11
10/22/2021 2:15:00 PM 12.55 54.59 0.237 7.57 5.77 11.02
10/22/2021 2:30:00 PM 12.6 54.68 0.235 7.58 5.52 11.03
10/22/2021 2:45:00 PM 12.57 54.626 0.234 7.58 5.68 10.94
10/22/2021 3:00:00 PM 12.62 54.716 0.234 7.58 5.79 11.01
10/22/2021 3:15:00 PM 12.64 54.752 0.233 7.59 5.74 11.01
10/22/2021 3:30:00 PM 12.66 54.788 0.232 7.6 5.95 11.02
10/22/2021 3:45:00 PM 12.66 54.788 0.231 7.6 5.91 10.99
10/22/2021 4:00:00 PM 12.61 54.698 0.229 7.6 6.22 10.83
10/22/2021 4:15:00 PM 12.58 54.644 0.229 7.59 6.17 10.8
10/22/2021 4:30:00 PM 12.56 54.608 0.228 7.59 6.1 10.77
10/22/2021 4:45:00 PM 12.49 54.482 0.227 7.59 6 10.65
10/22/2021 5:00:00 PM 12.44 54.392 0.226 7.58 6.51 10.57
10/22/2021 5:15:00 PM 12.38 54.284 0.226 7.57 6.36 10.48
10/22/2021 5:30:00 PM 12.33 54.194 0.226 7.56 6.47 10.43
10/22/2021 5:45:00 PM 12.28 54.104 0.225 7.57 7.07 10.36
10/22/2021 6:00:00 PM 12.24 54.032 0.225 7.56 6.92 10.3
10/22/2021 6:15:00 PM 12.2 53.96 0.225 7.55 7.01 10.25
10/22/2021 6:30:00 PM 12.15 53.87 0.225 7.54 6.99 10.2
10/22/2021 6:45:00 PM 12.12 53.816 0.226 7.54 6.74 10.16
10/22/2021 7:00:00 PM 12.08 53.744 0.226 7.53 6.66 10.13
10/22/2021 7:15:00 PM 12.05 53.69 0.226 7.53 6.9 10.1
10/22/2021 7:30:00 PM 12.03 53.654 0.226 7.52 7.46 10.09
10/22/2021 7:45:00 PM 12 53.6 0.227 7.51 7.72 10.07
10/22/2021 8:00:00 PM 11.97 53.546 0.227 7.51 6.91 10.06
10/22/2021 8:15:00 PM 11.95 53.51 0.227 7.51 7.39 10.05
10/22/2021 8:30:00 PM 11.92 53.456 0.227 7.5 6.89 10.05
10/22/2021 8:45:00 PM 11.9 53.42 0.228 7.5 6.92 10.04
10/22/2021 9:00:00 PM 11.88 53.384 0.228 7.5 7.5 10.04
10/22/2021 9:15:00 PM 11.86 53.348 0.228 7.5 6.84 10.04
10/22/2021 9:30:00 PM 11.84 53.312 0.228 7.5 6.85 10.04
10/22/2021 9:45:00 PM 11.82 53.276 0.228 7.5 6.58 10.04
10/22/2021 10:00:00 PM 11.8 53.24 0.229 7.51 6.9 10.03
10/22/2021 10:15:00 PM 11.79 53.222 0.229 7.49 6.78 10.03
10/22/2021 10:30:00 PM 11.77 53.186 0.23 7.5 7.23 10.03
10/22/2021 10:45:00 PM 11.76 53.168 0.23 7.5 7.19 10.02
10/22/2021 11:00:00 PM 11.75 53.15 0.231 7.5 6.45 10.02
10/22/2021 11:15:00 PM 11.74 53.132 0.231 7.49 6.64 10.01
10/22/2021 11:30:00 PM 11.73 53.114 0.231 7.48 7.36 10
10/22/2021 11:45:00 PM 11.72 53.096 0.232 7.48 6.67 9.99
10/23/2021 12:00:00 AM 11.71 53.078 0.232 7.48 7.23 9.99
10/23/2021 12:15:00 AM 11.7 53.06 0.232 7.49 6.47 9.98
10/23/2021 12:30:00 AM 11.69 53.042 0.233 7.48 6.54 9.98
10/23/2021 12:45:00 AM 11.67 53.006 0.233 7.47 6.54 9.97
10/23/2021 1:00:00 AM 11.66 52.988 0.233 7.47 6.49 9.97
10/23/2021 1:15:00 AM 11.64 52.952 0.233 7.48 6.71 9.97
10/23/2021 1:30:00 AM 11.62 52.916 0.234 7.48 7.07 9.97
10/23/2021 1:45:00 AM 11.6 52.88 0.234 7.47 6.64 9.97
10/23/2021 2:00:00 AM 11.59 52.862 0.234 7.47 6.44 9.97
10/23/2021 2:15:00 AM 11.57 52.826 0.234 7.47 6.61 9.97
10/23/2021 2:30:00 AM 11.55 52.79 0.235 7.48 6.83 9.97
10/23/2021 2:45:00 AM 11.54 52.772 0.235 7.47 6.82 9.98
10/23/2021 3:00:00 AM 11.53 52.754 0.235 7.48 6.69 9.98
10/23/2021 3:15:00 AM 11.51 52.718 0.235 7.48 6.31 9.98
10/23/2021 3:30:00 AM 11.5 52.7 0.235 7.48 6.82 9.98
10/23/2021 3:45:00 AM 11.48 52.664 0.236 7.48 6.92 9.98
10/23/2021 4:00:00 AM 11.47 52.646 0.236 7.48 7 9.99
10/23/2021 4:15:00 AM 11.45 52.61 0.236 7.48 6.34 9.99
10/23/2021 4:30:00 AM 11.42 52.556 0.236 7.48 6.91 9.99
10/23/2021 4:45:00 AM 11.4 52.52 0.236 7.48 6.4 10
10/23/2021 5:00:00 AM 11.37 52.466 0.236 7.48 6.54 10
10/23/2021 5:15:00 AM 11.35 52.43 0.237 7.48 6.4 10.01
10/23/2021 5:30:00 AM 11.34 52.412 0.237 7.48 6.21 10
10/23/2021 5:45:00 AM 11.32 52.376 0.237 7.48 6.47 10.01
10/23/2021 6:00:00 AM 11.3 52.34 0.237 7.48 8.13 10.01
10/23/2021 6:15:00 AM 11.28 52.304 0.237 7.48 6.61 10.01
10/23/2021 6:30:00 AM 11.26 52.268 0.238 7.48 8.55 10.01
10/23/2021 6:45:00 AM 11.25 52.25 0.238 7.48 7.01 10.01
10/23/2021 7:00:00 AM 11.24 52.232 0.238 7.48 6.56 10.02
10/23/2021 7:15:00 AM 11.22 52.196 0.238 7.48 6.2 10.02
10/23/2021 7:30:00 AM 11.21 52.178 0.238 7.48 7.54 10.02
10/23/2021 7:45:00 AM 11.2 52.16 0.238 7.48 6.57 10.03
10/23/2021 8:00:00 AM 11.18 52.124 0.238 7.48 6.65 10.04
10/23/2021 8:15:00 AM 11.17 52.106 0.238 7.48 6.53 10.06
10/23/2021 8:30:00 AM 11.16 52.088 0.238 7.48 6.15 10.07
10/23/2021 8:45:00 AM 11.14 52.052 0.238 7.49 6.96 10.1
10/23/2021 9:00:00 AM 11.13 52.034 0.238 7.49 6.11 10.14
10/23/2021 9:15:00 AM 11.11 51.998 0.238 7.5 5.81 10.2
10/23/2021 9:30:00 AM 11.12 52.016 0.238 7.5 5.64 10.28
10/23/2021 9:45:00 AM 11.14 52.052 0.238 7.51 5.72 10.36
10/23/2021 10:00:00 AM 11.16 52.088 0.238 7.52 5.75 10.46
10/23/2021 10:15:00 AM 11.17 52.106 0.238 7.53 5.64 10.52
10/23/2021 10:30:00 AM 11.2 52.16 0.239 7.54 5.69 10.59
10/23/2021 10:45:00 AM 11.2 52.16 0.239 7.53 5.5 10.59
10/23/2021 11:00:00 AM 11.19 52.142 0.239 7.54 5.56 10.56
10/23/2021 11:15:00 AM 11.19 52.142 0.239 7.53 5.3 10.56
10/23/2021 11:30:00 AM 11.19 52.142 0.238 7.54 5.48 10.61
10/23/2021 11:45:00 AM 11.19 52.142 0.238 7.55 5.49 10.68
10/23/2021 12:00:00 PM 11.2 52.16 0.238 7.56 5.15 10.76
10/23/2021 12:15:00 PM 11.24 52.232 0.238 7.57 5.14 10.84
10/23/2021 12:30:00 PM 11.27 52.286 0.238 7.58 5.34 10.92
10/23/2021 12:45:00 PM 11.32 52.376 0.238 7.58 5.14 10.98
10/23/2021 1:00:00 PM 11.39 52.502 0.238 7.59 5.13 11.07
10/23/2021 1:15:00 PM 11.47 52.646 0.238 7.6 5.11 11.17
10/23/2021 1:30:00 PM 11.53 52.754 0.238 7.61 5.38 11.23
10/23/2021 1:45:00 PM 11.58 52.844 0.238 7.62 5.13 11.26
10/23/2021 2:00:00 PM 11.6 52.88 0.238 7.62 5.16 11.26
10/23/2021 2:15:00 PM 11.64 52.952 0.238 7.62 5.23 11.29
10/23/2021 2:30:00 PM 11.7 53.06 0.238 7.63 5.31 11.34
10/23/2021 2:45:00 PM 11.7 53.06 0.238 7.64 5.01 11.34
10/23/2021 3:00:00 PM 11.65 52.97 0.239 7.64 5.3 11.24
10/23/2021 3:15:00 PM 11.62 52.916 0.238 7.63 5.25 11.17
10/23/2021 3:30:00 PM 11.61 52.898 0.239 7.64 5.14 11.19
10/23/2021 3:45:00 PM 11.6 52.88 0.238 7.63 5.15 11.21
10/23/2021 4:00:00 PM 11.59 52.862 0.238 7.63 5.35 11.21
10/23/2021 4:15:00 PM 11.56 52.808 0.239 7.63 5.04 11.2
10/23/2021 4:30:00 PM 11.55 52.79 0.238 7.63 5.31 11.17
10/23/2021 4:45:00 PM 11.54 52.772 0.238 7.63 5.4 11.14
10/23/2021 5:00:00 PM 11.51 52.718 0.238 7.63 5.33 11.11
10/23/2021 5:15:00 PM 11.47 52.646 0.239 7.62 5.22 11.1
10/23/2021 5:30:00 PM 11.41 52.538 0.239 7.62 5.32 11.04
10/23/2021 5:45:00 PM 11.36 52.448 0.238 7.61 5.11 10.96
10/23/2021 6:00:00 PM 11.3 52.34 0.238 7.6 5.36 10.87
10/23/2021 6:15:00 PM 11.24 52.232 0.238 7.6 5.29 10.78
10/23/2021 6:30:00 PM 11.16 52.088 0.238 7.58 5.46 10.69
10/23/2021 6:45:00 PM 11.1 51.98 0.238 7.57 5.63 10.62
10/23/2021 7:00:00 PM 11.06 51.908 0.238 7.56 5.93 10.56
10/23/2021 7:15:00 PM 10.99 51.782 0.238 7.56 5.98 10.51
10/23/2021 7:30:00 PM 10.93 51.674 0.238 7.55 6.22 10.47
10/23/2021 7:45:00 PM 10.87 51.566 0.238 7.54 5.93 10.43
10/23/2021 8:00:00 PM 10.8 51.44 0.238 7.54 6.96 10.41
10/23/2021 8:15:00 PM 10.73 51.314 0.238 7.53 5.82 10.39
10/23/2021 8:30:00 PM 10.67 51.206 0.238 7.53 6.27 10.39
10/23/2021 8:45:00 PM 10.6 51.08 0.238 7.53 5.9 10.39
10/23/2021 9:00:00 PM 10.54 50.972 0.238 7.53 6.01 10.39
10/23/2021 9:15:00 PM 10.48 50.864 0.237 7.53 6.01 10.39
10/23/2021 9:30:00 PM 10.42 50.756 0.237 7.53 5.99 10.39
10/23/2021 9:45:00 PM 10.37 50.666 0.237 7.53 6.63 10.39
10/23/2021 10:00:00 PM 10.31 50.558 0.237 7.53 6.3 10.4
10/23/2021 10:15:00 PM 10.26 50.468 0.237 7.53 5.86 10.41
10/23/2021 10:30:00 PM 10.21 50.378 0.237 7.52 5.66 10.41
10/23/2021 10:45:00 PM 10.16 50.288 0.237 7.52 6.1 10.42
10/23/2021 11:00:00 PM 10.12 50.216 0.237 7.52 5.86 10.42
10/23/2021 11:15:00 PM 10.07 50.126 0.237 7.52 10.32 10.43
10/23/2021 11:30:00 PM 10.02 50.036 0.238 7.52 6.25 10.44
10/23/2021 11:45:00 PM 9.98 49.964 0.237 7.52 5.88 10.45
10/24/2021 12:00:00 AM 9.94 49.892 0.237 7.53 6.16 10.46
10/24/2021 12:15:00 AM 9.9 49.82 0.237 7.52 5.9 10.47
10/24/2021 12:30:00 AM 9.86 49.748 0.237 7.52 6.33 10.48
10/24/2021 12:45:00 AM 9.83 49.694 0.236 7.53 5.81 10.49
10/24/2021 1:00:00 AM 9.81 49.658 0.237 7.53 5.85 10.5
10/24/2021 1:15:00 AM 9.79 49.622 0.237 7.52 5.97 10.5
10/24/2021 1:30:00 AM 9.77 49.586 0.236 7.51 5.93 10.51
10/24/2021 1:45:00 AM 9.76 49.568 0.236 7.52 5.98 10.51
10/24/2021 2:00:00 AM 9.76 49.568 0.235 7.51 5.75 10.51
10/24/2021 2:15:00 AM 9.75 49.55 0.236 7.52 6.01 10.51
10/24/2021 2:30:00 AM 9.75 49.55 0.233 7.51 6.23 10.51
10/24/2021 2:45:00 AM 9.75 49.55 0.235 7.51 6.5 10.51
10/24/2021 3:00:00 AM 9.75 49.55 0.235 7.51 6.25 10.51
10/24/2021 3:15:00 AM 9.75 49.55 0.234 7.51 6.32 10.51
10/24/2021 3:30:00 AM 9.75 49.55 0.234 7.52 6.31 10.51
10/24/2021 3:45:00 AM 9.75 49.55 0.234 7.5 6.21 10.51
10/24/2021 4:00:00 AM 9.75 49.55 0.234 7.5 6.03 10.52
10/24/2021 4:15:00 AM 9.75 49.55 0.233 7.5 6.37 10.52
10/24/2021 4:30:00 AM 9.75 49.55 0.233 7.5 6.43 10.52
10/24/2021 4:45:00 AM 9.74 49.532 0.233 7.51 5.98 10.52
10/24/2021 5:00:00 AM 9.74 49.532 0.233 7.51 6.13 10.52
10/24/2021 5:15:00 AM 9.74 49.532 0.232 7.5 6.08 10.52
10/24/2021 5:30:00 AM 9.74 49.532 0.233 7.52 6.44 10.52
10/24/2021 5:45:00 AM 9.73 49.514 0.232 7.51 6.18 10.52
10/24/2021 6:00:00 AM 9.72 49.496 0.232 7.51 6.23 10.53
10/24/2021 6:15:00 AM 9.71 49.478 0.232 7.5 5.85 10.52
10/24/2021 6:30:00 AM 9.71 49.478 0.232 7.5 6.49 10.52
10/24/2021 6:45:00 AM 9.7 49.46 0.232 7.5 6.52 10.53
10/24/2021 7:00:00 AM 9.7 49.46 0.232 7.5 6.4 10.53
10/24/2021 7:15:00 AM 9.69 49.442 0.232 7.5 6.15 10.53
10/24/2021 7:30:00 AM 9.68 49.424 0.232 7.5 5.9 10.54
10/24/2021 7:45:00 AM 9.67 49.406 0.232 7.5 5.9 10.54
10/24/2021 8:00:00 AM 9.67 49.406 0.232 7.51 5.89 10.56
10/24/2021 8:15:00 AM 9.67 49.406 0.232 7.5 5.68 10.57
10/24/2021 8:30:00 AM 9.68 49.424 0.232 7.5 5.62 10.61
10/24/2021 8:45:00 AM 9.69 49.442 0.232 7.5 5.56 10.64
10/24/2021 9:00:00 AM 9.71 49.478 0.232 7.51 5.46 10.68
10/24/2021 9:15:00 AM 9.73 49.514 0.232 7.52 5.29 10.74
10/24/2021 9:30:00 AM 9.78 49.604 0.232 7.53 5.41 10.84
10/24/2021 9:45:00 AM 9.82 49.676 0.232 7.54 5.89 10.91
10/24/2021 10:00:00 AM 9.89 49.802 0.232 7.55 5.52 11.03
10/24/2021 10:15:00 AM 9.95 49.91 0.232 7.56 5.87 11.11
10/24/2021 10:30:00 AM 9.99 49.982 0.232 7.56 5.7 11.15
10/24/2021 10:45:00 AM 10.08 50.144 0.232 7.57 5.38 11.24
10/24/2021 11:00:00 AM 10.12 50.216 0.232 7.58 6.06 11.28
10/24/2021 11:15:00 AM 10.14 50.252 0.232 7.57 5.07 11.25
10/24/2021 11:30:00 AM 10.19 50.342 0.232 7.59 5.16 11.3
10/24/2021 11:45:00 AM 10.26 50.468 0.232 7.6 5.17 11.38
10/24/2021 12:00:00 PM 10.28 50.504 0.232 7.6 5.19 11.4
10/24/2021 12:15:00 PM 10.3 50.54 0.232 7.6 5.15 11.35
10/24/2021 12:30:00 PM 10.39 50.702 0.232 7.61 5.07 11.42
10/24/2021 12:45:00 PM 10.53 50.954 0.232 7.61 5.39 11.54
10/24/2021 1:00:00 PM 10.58 51.044 0.232 7.63 5.04 11.57
10/24/2021 1:15:00 PM 10.64 51.152 0.232 7.62 5.43 11.56
10/24/2021 1:30:00 PM 10.69 51.242 0.232 7.61 4.98 11.5
10/24/2021 1:45:00 PM 10.7 51.26 0.232 7.62 5.05 11.46
10/24/2021 2:00:00 PM 10.86 51.548 0.233 7.63 5.3 11.59
10/24/2021 2:15:00 PM 10.99 51.782 0.231 7.64 5.01 11.69
10/24/2021 2:30:00 PM 11.08 51.944 0.232 7.65 5.05 11.71
10/24/2021 2:45:00 PM 11.12 52.016 0.232 7.65 4.84 11.63
10/24/2021 3:00:00 PM 11.1 51.98 0.233 7.63 4.81 11.46
10/24/2021 3:15:00 PM 11.06 51.908 0.232 7.61 4.93 11.33
10/24/2021 3:30:00 PM 11.06 51.908 0.232 7.62 4.93 11.35
10/24/2021 3:45:00 PM 11.04 51.872 0.232 7.6 5.63 11.34
10/24/2021 4:00:00 PM 11.03 51.854 0.232 7.61 5.28 11.34
10/24/2021 4:15:00 PM 10.99 51.782 0.232 7.59 5.02 11.25
10/24/2021 4:30:00 PM 10.96 51.728 0.232 7.59 5.14 11.15
10/24/2021 4:45:00 PM 10.95 51.71 0.232 7.58 5.11 11.1
10/24/2021 5:00:00 PM 10.92 51.656 0.232 7.57 5.24 11.04
10/24/2021 5:15:00 PM 10.9 51.62 0.232 7.57 5.14 10.99
10/24/2021 5:30:00 PM 10.88 51.584 0.232 7.55 5.6 10.94
10/24/2021 5:45:00 PM 10.86 51.548 0.232 7.55 5.2 10.87
10/24/2021 6:00:00 PM 10.84 51.512 0.232 7.55 5.51 10.8
10/24/2021 6:15:00 PM 10.81 51.458 0.232 7.53 5.28 10.75
10/24/2021 6:30:00 PM 10.79 51.422 0.232 7.52 5.64 10.7
10/24/2021 6:45:00 PM 10.77 51.386 0.232 7.52 5.85 10.65
10/24/2021 7:00:00 PM 10.75 51.35 0.232 7.51 5.85 10.61
10/24/2021 7:15:00 PM 10.74 51.332 0.232 7.51 6.07 10.58
10/24/2021 7:30:00 PM 10.74 51.332 0.231 7.5 6.51 10.55
10/24/2021 7:45:00 PM 10.75 51.35 0.229 7.49 6.7 10.53
10/24/2021 8:00:00 PM 10.77 51.386 0.227 7.49 7.17 10.52
10/24/2021 8:15:00 PM 10.83 51.494 0.224 7.49 7.95 10.49
10/24/2021 8:30:00 PM 10.85 51.53 0.225 7.49 8.9 10.49
10/24/2021 8:45:00 PM 10.91 51.638 0.222 7.48 10.08 10.47
10/24/2021 9:00:00 PM 10.9 51.62 0.224 7.47 9.49 10.46
10/24/2021 9:15:00 PM 10.88 51.584 0.227 7.47 9.44 10.44
10/24/2021 9:30:00 PM 10.87 51.566 0.226 7.47 9.31 10.43
10/24/2021 9:45:00 PM 10.87 51.566 0.223 7.46 9.49 10.43
10/24/2021 10:00:00 PM 10.86 51.548 0.22 7.46 10.27 10.42
10/24/2021 10:15:00 PM 10.85 51.53 0.219 7.47 10.01 10.42
10/24/2021 10:30:00 PM 10.85 51.53 0.216 7.47 9.51 10.41
10/24/2021 10:45:00 PM 10.86 51.548 0.217 7.46 9.24 10.4
10/24/2021 11:00:00 PM 10.86 51.548 0.219 7.46 9.39 10.39
10/24/2021 11:15:00 PM 10.87 51.566 0.22 7.47 9.11 10.38
10/24/2021 11:30:00 PM 10.87 51.566 0.222 7.46 8.59 10.38
10/24/2021 11:45:00 PM 10.86 51.548 0.224 7.46 8.67 10.37
10/25/2021 12:00:00 AM 10.85 51.53 0.225 7.46 9 10.36
10/25/2021 12:15:00 AM 10.84 51.512 0.226 7.46 8.56 10.36
10/25/2021 12:30:00 AM 10.85 51.53 0.231 7.47 8.93 10.37
10/25/2021 12:45:00 AM 10.85 51.53 0.235 7.48 9.32 10.38
10/25/2021 1:00:00 AM 10.83 51.494 0.238 7.48 9.31 10.38
10/25/2021 1:15:00 AM 10.79 51.422 0.238 7.48 10.06 10.38
10/25/2021 1:30:00 AM 10.76 51.368 0.238 7.48 9.08 10.39
10/25/2021 1:45:00 AM 10.72 51.296 0.241 7.47 9.55 10.4
10/25/2021 2:00:00 AM 10.69 51.242 0.25 7.48 10.73 10.43
10/25/2021 2:15:00 AM 10.67 51.206 0.251 7.5 10.57 10.43
10/25/2021 2:30:00 AM 10.63 51.134 0.248 7.49 14.19 10.44
10/25/2021 2:45:00 AM 10.6 51.08 0.243 7.5 11.06 10.44
10/25/2021 3:00:00 AM 10.57 51.026 0.24 7.5 10.55 10.44
10/25/2021 3:15:00 AM 10.54 50.972 0.237 7.49 9.3 10.43
10/25/2021 3:30:00 AM 10.52 50.936 0.237 7.49 9.79 10.43
10/25/2021 3:45:00 AM 10.49 50.882 0.232 7.5 10.24 10.43
10/25/2021 4:00:00 AM 10.46 50.828 0.231 7.5 10.68 10.43
10/25/2021 4:15:00 AM 10.44 50.792 0.229 7.5 10.34 10.42
10/25/2021 4:30:00 AM 10.42 50.756 0.228 7.51 11.56 10.42
10/25/2021 4:45:00 AM 10.39 50.702 0.226 7.5 11.57 10.41
10/25/2021 5:00:00 AM 10.37 50.666 0.224 7.51 13.93 10.41
10/25/2021 5:15:00 AM 10.35 50.63 0.222 7.52 16.03 10.41
10/25/2021 5:30:00 AM 10.32 50.576 0.22 7.52 11.02 10.41
10/25/2021 5:45:00 AM 10.29 50.522 0.219 7.52 12 10.43
10/25/2021 6:00:00 AM 10.27 50.486 0.217 7.52 12.14 10.43
10/25/2021 6:15:00 AM 10.24 50.432 0.216 7.52 11.73 10.44
10/25/2021 6:30:00 AM 10.23 50.414 0.214 7.52 12.12 10.45
10/25/2021 6:45:00 AM 10.21 50.378 0.214 7.52 11.81 10.46
10/25/2021 7:00:00 AM 10.2 50.36 0.213 7.52 11.95 10.47
10/25/2021 7:15:00 AM 10.19 50.342 0.211 7.52 11.93 10.47
10/25/2021 7:30:00 AM 10.18 50.324 0.21 7.53 11.02 10.47
10/25/2021 7:45:00 AM 10.16 50.288 0.21 7.52 11.39 10.48
10/25/2021 8:00:00 AM 10.15 50.27 0.208 7.51 12.62 10.49
10/25/2021 8:15:00 AM 10.14 50.252 0.207 7.52 12.32 10.51
10/25/2021 8:30:00 AM 10.13 50.234 0.206 7.53 12.12 10.54
10/25/2021 8:45:00 AM 10.14 50.252 0.205 7.52 12.19 10.57
10/25/2021 9:00:00 AM 10.16 50.288 0.204 7.54 10.73 10.61
10/25/2021 9:15:00 AM 10.17 50.306 0.204 7.53 12.5 10.64
10/25/2021 9:30:00 AM 10.2 50.36 0.204 7.54 11.62 10.68
10/25/2021 9:45:00 AM 10.26 50.468 0.204 7.55 12.31 10.72
10/25/2021 10:00:00 AM 10.35 50.63 0.203 7.55 11.55 10.76
10/25/2021 10:15:00 AM 10.45 50.81 0.203 7.55 12.53 10.8
10/25/2021 10:30:00 AM 10.56 51.008 0.202 7.56 12.26 10.82
10/25/2021 10:45:00 AM 10.67 51.206 0.202 7.57 13.56 10.83
10/25/2021 11:00:00 AM 10.79 51.422 0.201 7.57 12.96 10.85
10/25/2021 11:15:00 AM 10.89 51.602 0.2 7.58 13.05 10.86
10/25/2021 11:30:00 AM 11 51.8 0.2 7.58 13.98 10.87
10/25/2021 11:45:00 AM 11.09 51.962 0.198 7.59 12.51 10.87
10/25/2021 12:00:00 PM 11.17 52.106 0.199 7.57 11.44 10.87
10/25/2021 12:15:00 PM 11.16 52.088 0.198 7.58 13.3 10.84
10/25/2021 12:30:00 PM 11.14 52.052 0.197 7.59 13 10.82
10/25/2021 12:45:00 PM 11.2 52.16 0.197 7.59 13.35 10.85
10/25/2021 1:00:00 PM 11.27 52.286 0.197 7.59 12.24 10.85
10/25/2021 1:15:00 PM 11.37 52.466 0.197 7.59 15.51 10.86
10/25/2021 1:30:00 PM 11.46 52.628 0.196 7.59 13.19 10.86
10/25/2021 1:45:00 PM 11.51 52.718 0.196 7.59 13.01 10.84
10/25/2021 2:00:00 PM 11.56 52.808 0.197 7.6 12.99 10.83
10/25/2021 2:15:00 PM 11.59 52.862 0.198 7.59 13.14 10.81
10/25/2021 2:30:00 PM 11.59 52.862 0.198 7.59 12.65 10.79
10/25/2021 2:45:00 PM 11.58 52.844 0.198 7.59 12.09 10.74
10/25/2021 3:00:00 PM 11.55 52.79 0.199 7.59 13.07 10.7
10/25/2021 3:15:00 PM 11.52 52.736 0.199 7.58 13.01 10.69
10/25/2021 3:30:00 PM 11.52 52.736 0.199 7.59 12.91 10.68
10/25/2021 3:45:00 PM 11.52 52.736 0.2 7.58 13.42 10.64
10/25/2021 4:00:00 PM 11.53 52.754 0.2 7.58 12.58 10.64
10/25/2021 4:15:00 PM 11.54 52.772 0.2 7.58 11.59 10.59
10/25/2021 4:30:00 PM 11.53 52.754 0.2 7.58 12.52 10.55
10/25/2021 4:45:00 PM 11.52 52.736 0.2 7.57 12.09 10.52
10/25/2021 5:00:00 PM 11.51 52.718 0.199 7.56 13.29 10.5
10/25/2021 5:15:00 PM 11.5 52.7 0.199 7.56 12.65 10.48
10/25/2021 5:30:00 PM 11.49 52.682 0.199 7.56 12.85 10.46
10/25/2021 5:45:00 PM 11.48 52.664 0.2 7.56 13.06 10.44
10/25/2021 6:00:00 PM 11.47 52.646 0.199 7.55 13.21 10.42
10/25/2021 6:15:00 PM 11.46 52.628 0.199 7.54 12.39 10.39
10/25/2021 6:30:00 PM 11.45 52.61 0.199 7.54 12.86 10.36
10/25/2021 6:45:00 PM 11.45 52.61 0.199 7.54 12.8 10.35
10/25/2021 7:00:00 PM 11.45 52.61 0.199 7.53 11.95 10.32
10/25/2021 7:15:00 PM 11.45 52.61 0.2 7.53 12.09 10.31
10/25/2021 7:30:00 PM 11.45 52.61 0.199 7.53 12.33 10.29
10/25/2021 7:45:00 PM 11.45 52.61 0.199 7.52 11.96 10.28
10/25/2021 8:00:00 PM 11.44 52.592 0.2 7.52 12.6 10.26
10/25/2021 8:15:00 PM 11.44 52.592 0.201 7.51 12.9 10.25
10/25/2021 8:30:00 PM 11.44 52.592 0.2 7.51 12.35 10.24
10/25/2021 8:45:00 PM 11.45 52.61 0.2 7.5 12.21 10.22
10/25/2021 9:00:00 PM 11.46 52.628 0.2 7.5 11.61 10.21
10/25/2021 9:15:00 PM 11.46 52.628 0.201 7.5 11.93 10.21
10/25/2021 9:30:00 PM 11.46 52.628 0.201 7.5 12.09 10.2
10/25/2021 9:45:00 PM 11.47 52.646 0.201 7.5 12.93 10.19
10/25/2021 10:00:00 PM 11.47 52.646 0.201 7.5 12.08 10.18
10/25/2021 10:15:00 PM 11.47 52.646 0.201 7.49 11.86 10.17
10/25/2021 10:30:00 PM 11.48 52.664 0.201 7.5 11.94 10.16
10/25/2021 10:45:00 PM 11.48 52.664 0.201 7.5 12.11 10.16
10/25/2021 11:00:00 PM 11.48 52.664 0.201 7.49 11.58 10.15
10/25/2021 11:15:00 PM 11.48 52.664 0.201 7.5 11.57 10.14
10/25/2021 11:30:00 PM 11.48 52.664 0.201 7.5 11.82 10.13
10/25/2021 11:45:00 PM 11.48 52.664 0.2 7.48 11.64 10.12
10/26/2021 12:00:00 AM 11.49 52.682 0.2 7.48 11.74 10.11
10/26/2021 12:15:00 AM 11.48 52.664 0.2 7.48 12.12 10.1
10/26/2021 12:30:00 AM 11.47 52.646 0.2 7.48 12.01 10.1
10/26/2021 12:45:00 AM 11.45 52.61 0.2 7.48 12.31 10.09
10/26/2021 1:00:00 AM 11.45 52.61 0.2 7.48 12.32 10.08
10/26/2021 1:15:00 AM 11.46 52.628 0.199 7.47 12.42 10.08
10/26/2021 1:30:00 AM 11.47 52.646 0.199 7.48 12.48 10.07
10/26/2021 1:45:00 AM 11.49 52.682 0.2 7.47 11.44 10.07
10/26/2021 2:00:00 AM 11.5 52.7 0.2 7.47 12.5 10.06
10/26/2021 2:15:00 AM 11.5 52.7 0.199 7.47 12.26 10.05
10/26/2021 2:30:00 AM 11.5 52.7 0.199 7.47 12.84 10.05
10/26/2021 2:45:00 AM 11.5 52.7 0.199 7.47 12.2 10.04
10/26/2021 3:00:00 AM 11.5 52.7 0.199 7.47 12.61 10.04
10/26/2021 3:15:00 AM 11.5 52.7 0.199 7.47 12.7 10.03
10/26/2021 3:30:00 AM 11.5 52.7 0.199 7.47 12.95 10.02
10/26/2021 3:45:00 AM 11.51 52.718 0.199 7.47 11.9 10.02
10/26/2021 4:00:00 AM 11.51 52.718 0.199 7.46 182.95 10.02
10/26/2021 4:15:00 AM 11.51 52.718 0.199 7.46 12.71 10.02
10/26/2021 4:30:00 AM 11.51 52.718 0.199 7.46 12.59 10.01
10/26/2021 4:45:00 AM 11.52 52.736 0.199 7.46 11.81 10.01
10/26/2021 5:00:00 AM 11.52 52.736 0.198 7.47 12.02 10.01
10/26/2021 5:15:00 AM 11.52 52.736 0.199 7.46 12.12 10.01
10/26/2021 5:30:00 AM 11.52 52.736 0.199 7.46 12.17 10.01
10/26/2021 5:45:00 AM 11.52 52.736 0.198 7.46 10.45 10
10/26/2021 6:00:00 AM 11.52 52.736 0.198 7.47 12.81 10
10/26/2021 6:15:00 AM 11.53 52.754 0.199 7.46 12.02 10
10/26/2021 6:30:00 AM 11.53 52.754 0.198 7.47 12.38 10
10/26/2021 6:45:00 AM 11.53 52.754 0.198 7.46 11.89 10
10/26/2021 7:00:00 AM 11.54 52.772 0.198 7.46 12.22 10
10/26/2021 7:15:00 AM 11.54 52.772 0.198 7.46 11.78 10
10/26/2021 7:30:00 AM 11.54 52.772 0.198 7.46 11.19 9.99
10/26/2021 7:45:00 AM 11.54 52.772 0.197 7.46 11.42 9.99
10/26/2021 8:00:00 AM 11.54 52.772 0.198 7.46 11.03 9.99
10/26/2021 8:15:00 AM 11.54 52.772 0.197 7.46 10.55 9.99
10/26/2021 8:30:00 AM 11.52 52.736 0.197 7.45 10.74 10
10/26/2021 8:45:00 AM 11.49 52.682 0.197 7.45 10.88 10
10/26/2021 9:00:00 AM 11.46 52.628 0.196 7.46 10.37 10.02
10/26/2021 9:15:00 AM 11.44 52.592 0.196 7.45 10.4 10.04
10/26/2021 9:30:00 AM 11.42 52.556 0.195 7.46 10.66 10.07
10/26/2021 9:45:00 AM 11.39 52.502 0.195 7.47 10.55 10.1
10/26/2021 10:00:00 AM 11.37 52.466 0.196 7.46 10.26 10.14
10/26/2021 10:15:00 AM 11.37 52.466 0.197 7.47 10.51 10.17
10/26/2021 10:30:00 AM 11.37 52.466 0.197 7.47 10.61 10.23
10/26/2021 10:45:00 AM 11.37 52.466 0.197 7.47 19.59 10.26
10/26/2021 11:00:00 AM 11.38 52.484 0.195 7.48 9.67 10.31
10/26/2021 11:15:00 AM 11.4 52.52 0.195 7.49 9.67 10.36
10/26/2021 11:30:00 AM 11.39 52.502 0.194 7.49 9.49 10.37
10/26/2021 11:45:00 AM 11.39 52.502 0.194 7.49 9.7 10.4
10/26/2021 12:00:00 PM 11.39 52.502 0.194 7.5 9.37 10.44
10/26/2021 12:15:00 PM 11.4 52.52 0.194 7.49 9.61 10.47
10/26/2021 12:30:00 PM 11.4 52.52 0.194 7.51 9.51 10.47
10/26/2021 12:45:00 PM 11.38 52.484 0.194 7.51 9.21 10.46
10/26/2021 1:00:00 PM 11.37 52.466 0.194 7.51 9.53 10.5
10/26/2021 1:15:00 PM 11.38 52.484 0.194 7.52 9.21 10.54
10/26/2021 1:30:00 PM 11.34 52.412 0.194 7.52 9.42 10.5
10/26/2021 1:45:00 PM 11.33 52.394 0.194 7.51 9.55 10.51
10/26/2021 2:00:00 PM 11.31 52.358 0.195 7.52 8.86 10.57
10/26/2021 2:15:00 PM 11.31 52.358 0.196 7.53 9.35 10.62
10/26/2021 2:30:00 PM 11.27 52.286 0.197 7.53 8.89 10.58
10/26/2021 2:45:00 PM 11.24 52.232 0.198 7.54 8.75 10.59
10/26/2021 3:00:00 PM 11.22 52.196 0.199 7.54 8.89 10.64
10/26/2021 3:15:00 PM 11.19 52.142 0.199 7.54 8.59 10.65
10/26/2021 3:30:00 PM 11.16 52.088 0.198 7.54 9.29 10.63
10/26/2021 3:45:00 PM 11.13 52.034 0.197 7.54 8.91 10.61
10/26/2021 4:00:00 PM 11.08 51.944 0.198 7.53 8.63 10.59
10/26/2021 4:15:00 PM 11.05 51.89 0.198 7.53 8.77 10.58
10/26/2021 4:30:00 PM 11 51.8 0.197 7.52 9.6 10.56
10/26/2021 4:45:00 PM 10.95 51.71 0.199 7.52 8.77 10.55
10/26/2021 5:00:00 PM 10.91 51.638 0.2 7.52 9.18 10.55
10/26/2021 5:15:00 PM 10.88 51.584 0.201 7.52 8.37 10.55
10/26/2021 5:30:00 PM 10.84 51.512 0.201 7.51 8.64 10.53
10/26/2021 5:45:00 PM 10.82 51.476 0.199 7.51 10.4 10.52
10/26/2021 6:00:00 PM 10.78 51.404 0.199 7.51 8.12 10.49
10/26/2021 6:15:00 PM 10.75 51.35 0.198 7.5 9.96 10.46
10/26/2021 6:30:00 PM 10.7 51.26 0.197 7.5 8.46 10.44
10/26/2021 6:45:00 PM 10.66 51.188 0.198 7.5 8.33 10.42
10/26/2021 7:00:00 PM 10.62 51.116 0.199 7.5 8.4 10.4
10/26/2021 7:15:00 PM 10.59 51.062 0.199 7.5 9.73 10.4
10/26/2021 7:30:00 PM 10.54 50.972 0.2 7.5 9.22 10.4
10/26/2021 7:45:00 PM 10.51 50.918 0.2 7.49 16.16 10.41
10/26/2021 8:00:00 PM 10.48 50.864 0.2 7.5 8.67 10.41
10/26/2021 8:15:00 PM 10.44 50.792 0.2 7.49 8.98 10.41
10/26/2021 8:30:00 PM 10.41 50.738 0.2 7.5 9.11 10.42
10/26/2021 8:45:00 PM 10.39 50.702 0.2 7.49 9.27 10.42
10/26/2021 9:00:00 PM 10.37 50.666 0.199 7.5 8.84 10.42
10/26/2021 9:15:00 PM 10.34 50.612 0.2 7.49 9.05 10.43
10/26/2021 9:30:00 PM 10.32 50.576 0.199 7.51 9.17 10.44
10/26/2021 9:45:00 PM 10.29 50.522 0.2 7.49 8.99 10.45
10/26/2021 10:00:00 PM 10.26 50.468 0.2 7.5 8.9 10.46
10/26/2021 10:15:00 PM 10.23 50.414 0.2 7.5 9.19 10.47
10/26/2021 10:30:00 PM 10.21 50.378 0.199 7.5 9.46 10.47
10/26/2021 10:45:00 PM 10.19 50.342 0.199 7.5 8.95 10.48
10/26/2021 11:00:00 PM 10.17 50.306 0.198 7.5 9.46 10.48
10/26/2021 11:15:00 PM 10.15 50.27 0.198 7.5 9.05 10.49
10/26/2021 11:30:00 PM 10.13 50.234 0.197 7.5 9.13 10.49
10/26/2021 11:45:00 PM 10.12 50.216 0.197 7.5 8.56 10.5
10/27/2021 12:00:00 AM 10.1 50.18 0.197 7.5 9.3 10.5
10/27/2021 12:15:00 AM 10.09 50.162 0.196 7.5 9.7 10.5
10/27/2021 12:30:00 AM 10.07 50.126 0.196 7.51 9.67 10.51
10/27/2021 12:45:00 AM 10.06 50.108 0.196 7.51 9.92 10.52
10/27/2021 1:00:00 AM 10.05 50.09 0.196 7.5 10.14 10.53
10/27/2021 1:15:00 AM 10.04 50.072 0.196 7.5 10.34 10.54
10/27/2021 1:30:00 AM 10.03 50.054 0.196 7.5 10.03 10.55
10/27/2021 1:45:00 AM 10.02 50.036 0.195 7.5 9.6 10.56
10/27/2021 2:00:00 AM 10.01 50.018 0.196 7.5 9.72 10.56
10/27/2021 2:15:00 AM 10 50 0.195 7.5 9.66 10.57
10/27/2021 2:30:00 AM 9.99 49.982 0.195 7.5 10.33 10.58
10/27/2021 2:45:00 AM 9.98 49.964 0.195 7.51 10.15 10.59
10/27/2021 3:00:00 AM 9.97 49.946 0.194 7.51 11 10.59
10/27/2021 3:15:00 AM 9.96 49.928 0.193 7.51 11.23 10.6
10/27/2021 3:30:00 AM 9.95 49.91 0.193 7.5 10.31 10.61
10/27/2021 3:45:00 AM 9.94 49.892 0.193 7.51 10.55 10.61
10/27/2021 4:00:00 AM 9.94 49.892 0.193 7.5 10.74 10.62
10/27/2021 4:15:00 AM 9.93 49.874 0.192 7.51 10.85 10.63
10/27/2021 4:30:00 AM 9.92 49.856 0.192 7.51 10.61 10.63
10/27/2021 4:45:00 AM 9.91 49.838 0.192 7.51 10.65 10.64
10/27/2021 5:00:00 AM 9.9 49.82 0.192 7.49 10.93 10.64
10/27/2021 5:15:00 AM 9.88 49.784 0.192 7.5 11.6 10.65
10/27/2021 5:30:00 AM 9.87 49.766 0.191 7.51 11.64 10.66
10/27/2021 5:45:00 AM 9.86 49.748 0.191 7.5 12.48 10.66
10/27/2021 6:00:00 AM 9.85 49.73 0.191 7.51 11.16 10.67
10/27/2021 6:15:00 AM 9.85 49.73 0.19 7.51 11.66 10.68
10/27/2021 6:30:00 AM 9.84 49.712 0.19 7.5 11.8 10.68
10/27/2021 6:45:00 AM 9.83 49.694 0.19 7.51 11.53 10.68
10/27/2021 7:00:00 AM 9.82 49.676 0.189 7.5 11.2 10.69
10/27/2021 7:15:00 AM 9.8 49.64 0.189 7.5 12.06 10.69
10/27/2021 7:30:00 AM 9.78 49.604 0.188 7.49 12.1 10.69
10/27/2021 7:45:00 AM 9.77 49.586 0.188 7.5 12.16 10.7
10/27/2021 8:00:00 AM 9.76 49.568 0.188 7.52 11.84 10.71
10/27/2021 8:15:00 AM 9.75 49.55 0.187 7.5 12.36 10.72
10/27/2021 8:30:00 AM 9.74 49.532 0.187 7.51 12.01 10.74
10/27/2021 8:45:00 AM 9.74 49.532 0.187 7.49 11.25 10.76
10/27/2021 9:00:00 AM 9.74 49.532 0.186 7.5 11.88 10.78
10/27/2021 9:15:00 AM 9.74 49.532 0.186 7.5 11.94 10.8
10/27/2021 9:30:00 AM 9.75 49.55 0.186 7.51 12.59 10.82
10/27/2021 9:45:00 AM 9.75 49.55 0.186 7.51 12.43 10.83
10/27/2021 10:00:00 AM 9.76 49.568 0.185 7.51 12.93 10.86
10/27/2021 10:15:00 AM 9.78 49.604 0.185 7.52 10.93 10.89
10/27/2021 10:30:00 AM 9.81 49.658 0.186 7.51 11.27 10.91
10/27/2021 10:45:00 AM 9.83 49.694 0.185 7.51 11.84 10.94
10/27/2021 11:00:00 AM 9.86 49.748 0.185 7.52 12.42 10.97
10/27/2021 11:15:00 AM 9.88 49.784 0.186 7.53 12.73 10.98
10/27/2021 11:30:00 AM 9.92 49.856 0.185 7.53 11.77 11.01
10/27/2021 11:45:00 AM 9.95 49.91 0.185 7.55 12.57 11.03
10/27/2021 12:00:00 PM 9.96 49.928 0.185 7.54 12.34 11.03
10/27/2021 12:15:00 PM 9.98 49.964 0.185 7.54 12.74 11.04
10/27/2021 12:30:00 PM 10 50 0.185 7.52 11.8 11.05
10/27/2021 12:45:00 PM 10.03 50.054 0.185 7.54 12.02 11.06
10/27/2021 1:00:00 PM 10.05 50.09 0.185 7.53 12.25 11.06
10/27/2021 1:15:00 PM 10.03 50.054 0.184 7.54 12.45 11.05
10/27/2021 1:30:00 PM 10.03 50.054 0.185 7.54 11.62 11.05
10/27/2021 1:45:00 PM 10.03 50.054 0.184 7.54 11.55 11.04
10/27/2021 2:00:00 PM 10.04 50.072 0.184 7.53 11.58 11.04
10/27/2021 2:15:00 PM 10.05 50.09 0.185 7.54 11.8 11.05
10/27/2021 2:30:00 PM 10.07 50.126 0.185 7.55 11.9 11.05
10/27/2021 2:45:00 PM 10.11 50.198 0.184 7.53 11.76 11.07
10/27/2021 3:00:00 PM 10.15 50.27 0.184 7.54 11.66 11.08
10/27/2021 3:15:00 PM 10.22 50.396 0.184 7.55 11.4 11.09
10/27/2021 3:30:00 PM 10.21 50.378 0.186 7.55 11.44 11.07
10/27/2021 3:45:00 PM 10.21 50.378 0.185 7.55 11.38 11.07
10/27/2021 4:00:00 PM 10.24 50.432 0.185 7.55 11.45 11.07
10/27/2021 4:15:00 PM 10.29 50.522 0.185 7.56 11.71 11.09
10/27/2021 4:30:00 PM 10.29 50.522 0.185 7.55 11.31 11.06
10/27/2021 4:45:00 PM 10.27 50.486 0.185 7.55 10.78 11.06
10/27/2021 5:00:00 PM 10.28 50.504 0.185 7.55 11.14 11.03
10/27/2021 5:15:00 PM 10.26 50.468 0.185 7.54 10.89 11.01
10/27/2021 5:30:00 PM 10.23 50.414 0.185 7.54 10.78 10.99
10/27/2021 5:45:00 PM 10.19 50.342 0.185 7.53 10.62 10.96
10/27/2021 6:00:00 PM 10.17 50.306 0.185 7.53 10.55 10.93
10/27/2021 6:15:00 PM 10.15 50.27 0.185 7.52 10.42 10.9
10/27/2021 6:30:00 PM 10.13 50.234 0.185 7.52 11 10.88
10/27/2021 6:45:00 PM 10.11 50.198 0.185 7.52 10.81 10.86
10/27/2021 7:00:00 PM 10.1 50.18 0.185 7.51 11.37 10.85
10/27/2021 7:15:00 PM 10.09 50.162 0.185 7.5 11.17 10.84
10/27/2021 7:30:00 PM 10.09 50.162 0.185 7.51 10.84 10.83
10/27/2021 7:45:00 PM 10.09 50.162 0.185 7.51 11.1 10.82
10/27/2021 8:00:00 PM 10.08 50.144 0.185 7.5 11 10.82
10/27/2021 8:15:00 PM 10.06 50.108 0.185 7.49 11.14 10.81
10/27/2021 8:30:00 PM 10.05 50.09 0.185 7.49 11.34 10.8
10/27/2021 8:45:00 PM 10.06 50.108 0.185 7.48 11.05 10.79
10/27/2021 9:00:00 PM 10.08 50.144 0.185 7.49 11.4 10.79
10/27/2021 9:15:00 PM 10.08 50.144 0.185 7.48 11.75 10.78
10/27/2021 9:30:00 PM 10.08 50.144 0.185 7.48 11.2 10.78
10/27/2021 9:45:00 PM 10.08 50.144 0.185 7.48 11.08 10.77
10/27/2021 10:00:00 PM 10.08 50.144 0.185 7.48 11.24 10.77
10/27/2021 10:15:00 PM 10.08 50.144 0.185 7.47 10.78 10.76
10/27/2021 10:30:00 PM 10.08 50.144 0.185 7.47 10.83 10.77
10/27/2021 10:45:00 PM 10.07 50.126 0.184 7.5 10.54 10.76
10/27/2021 11:00:00 PM 10.07 50.126 0.185 7.48 10.58 10.76
10/27/2021 11:15:00 PM 10.06 50.108 0.185 7.48 10.61 10.76
10/27/2021 11:30:00 PM 10.06 50.108 0.184 7.48 10.39 10.76
10/27/2021 11:45:00 PM 10.06 50.108 0.184 7.47 10.58 10.75
10/28/2021 12:00:00 AM 10.06 50.108 0.185 7.47 10.14 10.75
10/28/2021 12:15:00 AM 10.06 50.108 0.185 7.47 10.31 10.75
10/28/2021 12:30:00 AM 10.06 50.108 0.185 7.48 10 10.74
10/28/2021 12:45:00 AM 10.06 50.108 0.184 7.48 10.66 10.74
10/28/2021 1:00:00 AM 10.04 50.072 0.184 7.48 10.14 10.74
10/28/2021 1:15:00 AM 10.02 50.036 0.184 7.48 10.12 10.74
10/28/2021 1:30:00 AM 9.98 49.964 0.184 7.48 10.32 10.74
10/28/2021 1:45:00 AM 9.95 49.91 0.185 7.46 10.01 10.74
10/28/2021 2:00:00 AM 9.93 49.874 0.184 7.46 9.86 10.74
10/28/2021 2:15:00 AM 9.93 49.874 0.184 7.46 9.73 10.74
10/28/2021 2:30:00 AM 9.93 49.874 0.184 7.47 9.96 10.73
10/28/2021 2:45:00 AM 9.93 49.874 0.184 7.46 9.59 10.73
10/28/2021 3:00:00 AM 9.92 49.856 0.184 7.46 9.8 10.73
10/28/2021 3:15:00 AM 9.92 49.856 0.184 7.47 9.59 10.73
10/28/2021 3:30:00 AM 9.9 49.82 0.184 7.47 9.98 10.73
10/28/2021 3:45:00 AM 9.88 49.784 0.184 7.46 10.01 10.73
10/28/2021 4:00:00 AM 9.86 49.748 0.184 7.46 9.94 10.73
10/28/2021 4:15:00 AM 9.85 49.73 0.184 7.46 9.66 10.73
10/28/2021 4:30:00 AM 9.87 49.766 0.184 7.46 9.72 10.73
10/28/2021 4:45:00 AM 9.88 49.784 0.184 7.45 9.72 10.72
10/28/2021 5:00:00 AM 9.89 49.802 0.184 7.46 9.52 10.72
10/28/2021 5:15:00 AM 9.9 49.82 0.184 7.46 9.61 10.72
10/28/2021 5:30:00 AM 9.9 49.82 0.184 7.45 10.57 10.71
10/28/2021 5:45:00 AM 9.89 49.802 0.184 7.44 8.97 10.72
10/28/2021 6:00:00 AM 9.87 49.766 0.184 7.46 9.23 10.72
10/28/2021 6:15:00 AM 9.86 49.748 0.184 7.45 9.07 10.72
10/28/2021 6:30:00 AM 9.84 49.712 0.184 7.46 9.25 10.72
10/28/2021 6:45:00 AM 9.82 49.676 0.183 7.46 8.83 10.72
10/28/2021 7:00:00 AM 9.81 49.658 0.184 7.46 8.84 10.72
10/28/2021 7:15:00 AM 9.81 49.658 0.184 7.45 8.79 10.72
10/28/2021 7:30:00 AM 9.8 49.64 0.184 7.45 8.73 10.72
10/28/2021 7:45:00 AM 9.79 49.622 0.184 7.46 8.58 10.73
10/28/2021 8:00:00 AM 9.77 49.586 0.184 7.45 8.41 10.74
10/28/2021 8:15:00 AM 9.76 49.568 0.183 7.46 8.93 10.77
10/28/2021 8:30:00 AM 9.76 49.568 0.184 7.46 8.04 10.79
10/28/2021 8:45:00 AM 9.76 49.568 0.184 7.47 8.39 10.83
10/28/2021 9:00:00 AM 9.76 49.568 0.184 7.47 8.2 10.87
10/28/2021 9:15:00 AM 9.78 49.604 0.184 7.47 8.26 10.9
10/28/2021 9:30:00 AM 9.79 49.622 0.184 7.48 8.05 10.93
10/28/2021 9:45:00 AM 9.84 49.712 0.184 7.48 8.07 10.97
10/28/2021 10:00:00 AM 9.92 49.856 0.184 7.49 7.74 11.01
10/28/2021 10:15:00 AM 10 50 0.183 7.5 8.05 11.05
10/28/2021 10:30:00 AM 10.08 50.144 0.184 7.5 7.75 11.08
10/28/2021 10:45:00 AM 10.17 50.306 0.184 7.51 7.62 11.1
10/28/2021 11:00:00 AM 10.27 50.486 0.184 7.5 7.8 11.12
10/28/2021 11:15:00 AM 10.36 50.648 0.184 7.51 7.42 11.13
10/28/2021 11:30:00 AM 10.44 50.792 0.184 7.52 7.65 11.15
10/28/2021 11:45:00 AM 10.5 50.9 0.184 7.52 7.53 11.16
10/28/2021 12:00:00 PM 10.57 51.026 0.184 7.53 7.11 11.17
10/28/2021 12:15:00 PM 10.66 51.188 0.184 7.53 7.02 11.19
10/28/2021 12:30:00 PM 10.75 51.35 0.184 7.54 7.38 11.2
10/28/2021 12:45:00 PM 10.8 51.44 0.185 7.52 7.17 11.2
10/28/2021 1:00:00 PM 10.87 51.566 0.185 7.54 7.2 11.22
10/28/2021 1:15:00 PM 10.95 51.71 0.185 7.55 7.1 11.23
10/28/2021 1:30:00 PM 10.96 51.728 0.185 7.55 7.05 11.23
10/28/2021 1:45:00 PM 10.96 51.728 0.185 7.55 7.31 11.22
10/28/2021 2:00:00 PM 10.93 51.674 0.184 7.55 6.89 11.22
10/28/2021 2:15:00 PM 10.91 51.638 0.185 7.57 7.15 11.22
10/28/2021 2:30:00 PM 10.93 51.674 0.185 7.56 7.29 11.23
10/28/2021 2:45:00 PM 11.06 51.908 0.185 7.55 6.96 11.25
10/28/2021 3:00:00 PM 11.23 52.214 0.185 7.57 6.88 11.26
10/28/2021 3:15:00 PM 11.35 52.43 0.185 7.57 6.99 11.26
10/28/2021 3:30:00 PM 11.32 52.376 0.185 7.56 6.89 11.22
10/28/2021 3:45:00 PM 11.24 52.232 0.185 7.57 7 11.18
10/28/2021 4:00:00 PM 11.21 52.178 0.186 7.56 7.17 11.17
10/28/2021 4:15:00 PM 11.17 52.106 0.186 7.55 6.84 11.13
10/28/2021 4:30:00 PM 11.12 52.016 0.185 7.56 6.71 11.1
10/28/2021 4:45:00 PM 11.13 52.034 0.186 7.56 6.74 11.1
10/28/2021 5:00:00 PM 11.09 51.962 0.186 7.55 6.61 11.04
10/28/2021 5:15:00 PM 11.04 51.872 0.186 7.53 6.53 10.96
10/28/2021 5:30:00 PM 11.01 51.818 0.186 7.53 6.71 10.91
10/28/2021 5:45:00 PM 11 51.8 0.186 7.52 6.97 10.87
10/28/2021 6:00:00 PM 10.99 51.782 0.186 7.51 6.76 10.82
10/28/2021 6:15:00 PM 10.98 51.764 0.186 7.5 6.98 10.78
10/28/2021 6:30:00 PM 10.97 51.746 0.186 7.5 6.89 10.76
10/28/2021 6:45:00 PM 10.95 51.71 0.186 7.51 7.59 10.73
10/28/2021 7:00:00 PM 10.93 51.674 0.186 7.49 7.5 10.71
10/28/2021 7:15:00 PM 10.91 51.638 0.187 7.48 7.49 10.69
10/28/2021 7:30:00 PM 10.9 51.62 0.187 7.49 7.18 10.67
10/28/2021 7:45:00 PM 10.9 51.62 0.187 7.48 7.07 10.66
10/28/2021 8:00:00 PM 10.91 51.638 0.187 7.49 7.01 10.65
10/28/2021 8:15:00 PM 10.92 51.656 0.187 7.48 7.07 10.64
10/28/2021 8:30:00 PM 10.92 51.656 0.187 7.48 7.36 10.63
10/28/2021 8:45:00 PM 10.93 51.674 0.187 7.48 7.05 10.62
10/28/2021 9:00:00 PM 10.94 51.692 0.187 7.47 7.29 10.61
10/28/2021 9:15:00 PM 10.95 51.71 0.187 7.48 7.26 10.59
10/28/2021 9:30:00 PM 10.96 51.728 0.187 7.47 7.27 10.58
10/28/2021 9:45:00 PM 10.97 51.746 0.187 7.47 7.33 10.57
10/28/2021 10:00:00 PM 10.98 51.764 0.187 7.47 7.1 10.56
10/28/2021 10:15:00 PM 10.99 51.782 0.187 7.48 7.39 10.56
10/28/2021 10:30:00 PM 10.99 51.782 0.187 7.47 7.19 10.54
10/28/2021 10:45:00 PM 11 51.8 0.187 7.47 7.33 10.53
10/28/2021 11:00:00 PM 11 51.8 0.187 7.47 7.28 10.52
10/28/2021 11:15:00 PM 11 51.8 0.187 7.47 7.42 10.52
10/28/2021 11:30:00 PM 11 51.8 0.188 7.46 6.87 10.51
10/28/2021 11:45:00 PM 10.99 51.782 0.187 7.47 7.1 10.5
10/29/2021 12:00:00 AM 10.99 51.782 0.187 7.46 7.1 10.5
10/29/2021 12:15:00 AM 10.99 51.782 0.188 7.46 7.1 10.49
10/29/2021 12:30:00 AM 10.98 51.764 0.188 7.46 6.72 10.49
10/29/2021 12:45:00 AM 10.98 51.764 0.188 7.46 7.03 10.48
10/29/2021 1:00:00 AM 10.98 51.764 0.188 7.47 6.82 10.48
10/29/2021 1:15:00 AM 10.97 51.746 0.188 7.46 6.81 10.47
10/29/2021 1:30:00 AM 10.97 51.746 0.188 7.46 7.65 10.47
10/29/2021 1:45:00 AM 10.96 51.728 0.187 7.46 6.95 10.46
10/29/2021 2:00:00 AM 10.96 51.728 0.188 7.46 7.29 10.46
10/29/2021 2:15:00 AM 10.95 51.71 0.188 7.46 7.28 10.46
10/29/2021 2:30:00 AM 10.95 51.71 0.188 7.45 7.22 10.46
10/29/2021 2:45:00 AM 10.95 51.71 0.188 7.46 7.06 10.45
10/29/2021 3:00:00 AM 10.94 51.692 0.188 7.44 7.47 10.45
10/29/2021 3:15:00 AM 10.94 51.692 0.188 7.45 7.22 10.46
10/29/2021 3:30:00 AM 10.94 51.692 0.188 7.46 7.46 10.45
10/29/2021 3:45:00 AM 10.94 51.692 0.189 7.45 7.2 10.44
10/29/2021 4:00:00 AM 10.93 51.674 0.19 7.44 6.82 10.43
10/29/2021 4:15:00 AM 10.93 51.674 0.189 7.44 7.44 10.42
10/29/2021 4:30:00 AM 10.92 51.656 0.188 7.44 7.27 10.42
10/29/2021 4:45:00 AM 10.92 51.656 0.188 7.45 7.24 10.42
10/29/2021 5:00:00 AM 10.91 51.638 0.188 7.44 6.93 10.41
10/29/2021 5:15:00 AM 10.91 51.638 0.188 7.44 6.69 10.41
10/29/2021 5:30:00 AM 10.9 51.62 0.188 7.44 7.06 10.4
10/29/2021 5:45:00 AM 10.89 51.602 0.188 7.44 7.03 10.4
10/29/2021 6:00:00 AM 10.89 51.602 0.188 7.44 6.97 10.4
10/29/2021 6:15:00 AM 10.88 51.584 0.188 7.44 7.19 10.41
10/29/2021 6:30:00 AM 10.88 51.584 0.187 7.45 7.78 10.42
10/29/2021 6:45:00 AM 10.87 51.566 0.186 7.44 8.16 10.43
10/29/2021 7:00:00 AM 10.87 51.566 0.188 7.44 8.44 10.41
10/29/2021 7:15:00 AM 10.87 51.566 0.19 7.44 7.99 10.4
10/29/2021 7:30:00 AM 10.86 51.548 0.188 7.43 10.39 10.39
10/29/2021 7:45:00 AM 10.85 51.53 0.187 7.44 7.96 10.39
10/29/2021 8:00:00 AM 10.84 51.512 0.187 7.45 7.53 10.39
10/29/2021 8:15:00 AM 10.83 51.494 0.187 7.44 7.56 10.39
10/29/2021 8:30:00 AM 10.83 51.494 0.187 7.43 6.87 10.4
10/29/2021 8:45:00 AM 10.82 51.476 0.188 7.44 7.06 10.41
10/29/2021 9:00:00 AM 10.82 51.476 0.188 7.44 6.87 10.44
10/29/2021 9:15:00 AM 10.82 51.476 0.188 7.44 6.5 10.46
10/29/2021 9:30:00 AM 10.81 51.458 0.189 7.45 6.9 10.46
10/29/2021 9:45:00 AM 10.81 51.458 0.189 7.45 6.79 10.49
10/29/2021 10:00:00 AM 10.81 51.458 0.189 7.45 6.36 10.51
10/29/2021 10:15:00 AM 10.83 51.494 0.189 7.46 6.61 10.57
10/29/2021 10:30:00 AM 10.83 51.494 0.189 7.47 6.73 10.56
10/29/2021 10:45:00 AM 10.83 51.494 0.189 7.46 6.65 10.58
10/29/2021 11:00:00 AM 10.84 51.512 0.188 7.46 7.37 10.62
10/29/2021 11:15:00 AM 10.84 51.512 0.188 7.47 7.25 10.63
10/29/2021 11:30:00 AM 10.83 51.494 0.188 7.47 7.34 10.62
10/29/2021 11:45:00 AM 10.82 51.476 0.187 7.47 7.51 10.62
10/29/2021 12:00:00 PM 10.8 51.44 0.186 7.46 7.33 10.62
10/29/2021 12:15:00 PM 10.78 51.404 0.185 7.46 8.05 10.61
10/29/2021 12:30:00 PM 10.76 51.368 0.182 7.46 9.1 10.62
10/29/2021 12:45:00 PM 10.77 51.386 0.182 7.46 9.65 10.65
10/29/2021 1:00:00 PM 10.81 51.458 0.181 7.46 10.93 10.69
10/29/2021 1:15:00 PM 10.84 51.512 0.181 7.46 11.68 10.7
10/29/2021 1:30:00 PM 10.86 51.548 0.181 7.47 12.9 10.7
10/29/2021 1:45:00 PM 10.87 51.566 0.183 7.47 12.15 10.69
10/29/2021 2:00:00 PM 10.86 51.548 0.184 7.46 12.82 10.68
10/29/2021 2:15:00 PM 10.86 51.548 0.186 7.47 13.68 10.66
10/29/2021 2:30:00 PM 10.85 51.53 0.189 7.47 14.38 10.65
10/29/2021 2:45:00 PM 10.84 51.512 0.191 7.47 17.82 10.65
10/29/2021 3:00:00 PM 10.84 51.512 0.191 7.47 18.65 10.66
10/29/2021 3:15:00 PM 10.84 51.512 0.192 7.49 18.32 10.66
10/29/2021 3:30:00 PM 10.84 51.512 0.192 7.48 18.48 10.66
10/29/2021 3:45:00 PM 10.85 51.53 0.191 7.48 19.75 10.67
10/29/2021 4:00:00 PM 10.86 51.548 0.189 7.49 17.71 10.67
10/29/2021 4:15:00 PM 10.86 51.548 0.188 7.5 19.6 10.68
10/29/2021 4:30:00 PM 10.85 51.53 0.186 7.5 19.87 10.66
10/29/2021 4:45:00 PM 10.84 51.512 0.185 7.48 21.98 10.64
10/29/2021 5:00:00 PM 10.85 51.53 0.182 7.48 25.03 10.61
10/29/2021 5:15:00 PM 10.86 51.548 0.18 7.48 26.23 10.6
10/29/2021 5:30:00 PM 10.87 51.566 0.179 7.47 23.94 10.58
10/29/2021 5:45:00 PM 10.87 51.566 0.177 7.47 23.71 10.55
10/29/2021 6:00:00 PM 10.84 51.512 0.175 7.43 27.84 10.5
10/29/2021 6:15:00 PM 10.81 51.458 0.174 7.43 27.59 10.47
10/29/2021 6:30:00 PM 10.79 51.422 0.173 7.43 32.47 10.44
10/29/2021 6:45:00 PM 10.77 51.386 0.172 7.4 34.58 10.42
10/29/2021 7:00:00 PM 10.76 51.368 0.171 7.39 38.06 10.4
10/29/2021 7:15:00 PM 10.75 51.35 0.17 7.39 45.5 10.38
10/29/2021 7:30:00 PM 10.75 51.35 0.169 7.38 47.06 10.37
10/29/2021 7:45:00 PM 10.74 51.332 0.169 7.38 49.3 10.36
10/29/2021 8:00:00 PM 10.74 51.332 0.168 7.39 51.79 10.35
10/29/2021 8:15:00 PM 10.73 51.314 0.168 7.37 50.37 10.35
10/29/2021 8:30:00 PM 10.73 51.314 0.167 7.38 50.81 10.34
10/29/2021 8:45:00 PM 10.73 51.314 0.167 7.36 45.31 10.33
10/29/2021 9:00:00 PM 10.72 51.296 0.166 7.35 47.58 10.32
10/29/2021 9:15:00 PM 10.72 51.296 0.165 7.36 44.65 10.32
10/29/2021 9:30:00 PM 10.71 51.278 0.163 7.36 40.76 10.31
10/29/2021 9:45:00 PM 10.7 51.26 0.163 7.35 46.16 10.31
10/29/2021 10:00:00 PM 10.68 51.224 0.163 7.35 44.45 10.31
10/29/2021 10:15:00 PM 10.68 51.224 0.162 7.35 44.48 10.3
10/29/2021 10:30:00 PM 10.67 51.206 0.162 7.35 47.73 10.29
10/29/2021 10:45:00 PM 10.66 51.188 0.161 7.35 47.3 10.29
10/29/2021 11:00:00 PM 10.66 51.188 0.159 7.34 50.1 10.28
10/29/2021 11:15:00 PM 10.65 51.17 0.159 7.35 49.36 10.27
10/29/2021 11:30:00 PM 10.64 51.152 0.159 7.34 51.46 10.27
10/29/2021 11:45:00 PM 10.64 51.152 0.158 7.34 49.03 10.26
10/30/2021 12:00:00 AM 10.63 51.134 0.157 7.35 50.7 10.26
10/30/2021 12:15:00 AM 10.62 51.116 0.156 7.34 50.43 10.26
10/30/2021 12:30:00 AM 10.62 51.116 0.156 7.35 47.6 10.26
10/30/2021 12:45:00 AM 10.61 51.098 0.156 7.34 39.75 10.26
10/30/2021 1:00:00 AM 10.61 51.098 0.156 7.33 44.9 10.27
10/30/2021 1:15:00 AM 10.6 51.08 0.156 7.35 42.91 10.27
10/30/2021 1:30:00 AM 10.6 51.08 0.156 7.36 39.45 10.27
10/30/2021 1:45:00 AM 10.59 51.062 0.156 7.35 43.45 10.27
10/30/2021 2:00:00 AM 10.59 51.062 0.157 7.35 37.77 10.27
10/30/2021 2:15:00 AM 10.58 51.044 0.157 7.36 37.27 10.27
10/30/2021 2:30:00 AM 10.58 51.044 0.157 7.35 35.08 10.28
10/30/2021 2:45:00 AM 10.57 51.026 0.157 7.35 34.54 10.28
10/30/2021 3:00:00 AM 10.56 51.008 0.158 7.35 33.27 10.27
10/30/2021 3:15:00 AM 10.56 51.008 0.157 7.35 33.94 10.27
10/30/2021 3:30:00 AM 10.55 50.99 0.158 7.35 33.74 10.27
10/30/2021 3:45:00 AM 10.55 50.99 0.158 7.35 32.44 10.27
10/30/2021 4:00:00 AM 10.54 50.972 0.158 7.35 31.38 10.27
10/30/2021 4:15:00 AM 10.54 50.972 0.157 7.35 33.76 10.26
10/30/2021 4:30:00 AM 10.53 50.954 0.157 7.35 31.78 10.26
10/30/2021 4:45:00 AM 10.52 50.936 0.157 7.36 33.55 10.26
10/30/2021 5:00:00 AM 10.52 50.936 0.157 7.35 31.34 10.25
10/30/2021 5:15:00 AM 10.51 50.918 0.156 7.34 32.25 10.25
10/30/2021 5:30:00 AM 10.5 50.9 0.156 7.34 31.08 10.25
10/30/2021 5:45:00 AM 10.49 50.882 0.156 7.35 31.33 10.24
10/30/2021 6:00:00 AM 10.49 50.882 0.156 7.35 31.07 10.24
10/30/2021 6:15:00 AM 10.48 50.864 0.156 7.33 32.4 10.24
10/30/2021 6:30:00 AM 10.47 50.846 0.156 7.33 29.39 10.24
10/30/2021 6:45:00 AM 10.47 50.846 0.155 7.34 28.99 10.24
10/30/2021 7:00:00 AM 10.46 50.828 0.155 7.34 27.3 10.24
10/30/2021 7:15:00 AM 10.45 50.81 0.156 7.34 27.85 10.24
10/30/2021 7:30:00 AM 10.45 50.81 0.155 7.33 28.54 10.24
10/30/2021 7:45:00 AM 10.44 50.792 0.155 7.33 26.78 10.24
10/30/2021 8:00:00 AM 10.43 50.774 0.155 7.33 25.47 10.25
10/30/2021 8:15:00 AM 10.43 50.774 0.156 7.34 25.95 10.25
10/30/2021 8:30:00 AM 10.43 50.774 0.155 7.33 25.13 10.26
10/30/2021 8:45:00 AM 10.43 50.774 0.155 7.32 24.73 10.27
10/30/2021 9:00:00 AM 10.44 50.792 0.155 7.33 22.65 10.28
10/30/2021 9:15:00 AM 10.45 50.81 0.155 7.32 22.58 10.29
10/30/2021 9:30:00 AM 10.47 50.846 0.155 7.33 21.3 10.31
10/30/2021 9:45:00 AM 10.5 50.9 0.155 7.31 21.21 10.33
10/30/2021 10:00:00 AM 10.54 50.972 0.155 7.32 20.94 10.35
10/30/2021 10:15:00 AM 10.57 51.026 0.156 7.32 21.34 10.37
10/30/2021 10:30:00 AM 10.61 51.098 0.156 7.33 19.42 10.38
10/30/2021 10:45:00 AM 10.64 51.152 0.156 7.32 22.1 10.39
10/30/2021 11:00:00 AM 10.69 51.242 0.156 7.33 20.1 10.41
10/30/2021 11:15:00 AM 10.73 51.314 0.156 7.32 19.74 10.42
10/30/2021 11:30:00 AM 10.74 51.332 0.157 7.33 18.9 10.43
10/30/2021 11:45:00 AM 10.76 51.368 0.157 7.34 19.02 10.43
10/30/2021 12:00:00 PM 10.77 51.386 0.157 7.34 17.6 10.44
10/30/2021 12:15:00 PM 10.84 51.512 0.157 7.34 17.52 10.46
10/30/2021 12:30:00 PM 10.86 51.548 0.157 7.34 16.44 10.47
10/30/2021 12:45:00 PM 10.87 51.566 0.157 7.35 15.88 10.47
10/30/2021 1:00:00 PM 10.86 51.548 0.158 7.35 16.52 10.46
10/30/2021 1:15:00 PM 10.86 51.548 0.158 7.34 15.15 10.47
10/30/2021 1:30:00 PM 10.87 51.566 0.159 7.34 15.73 10.48
10/30/2021 1:45:00 PM 10.89 51.602 0.158 7.33 15.86 10.49
10/30/2021 2:00:00 PM 10.91 51.638 0.159 7.34 15.41 10.5
10/30/2021 2:15:00 PM 10.94 51.692 0.159 7.35 15.64 10.51
10/30/2021 2:30:00 PM 10.97 51.746 0.159 7.35 14.88 10.52
10/30/2021 2:45:00 PM 11 51.8 0.16 7.35 13.57 10.53
10/30/2021 3:00:00 PM 11.03 51.854 0.16 7.36 13.63 10.54
10/30/2021 3:15:00 PM 11.04 51.872 0.16 7.35 13.33 10.53
10/30/2021 3:30:00 PM 11.04 51.872 0.16 7.36 13.17 10.53
10/30/2021 3:45:00 PM 11.05 51.89 0.16 7.36 12.97 10.53
10/30/2021 4:00:00 PM 11.06 51.908 0.161 7.36 13.66 10.52
10/30/2021 4:15:00 PM 11.06 51.908 0.161 7.36 13.07 10.53
10/30/2021 4:30:00 PM 11.06 51.908 0.162 7.36 12.84 10.52
10/30/2021 4:45:00 PM 11.05 51.89 0.162 7.36 11.23 10.5
10/30/2021 5:00:00 PM 11.04 51.872 0.162 7.36 13.06 10.48
10/30/2021 5:15:00 PM 11.03 51.854 0.162 7.35 12.44 10.46
10/30/2021 5:30:00 PM 11.03 51.854 0.162 7.35 13.35 10.44
10/30/2021 5:45:00 PM 11.02 51.836 0.162 7.36 12.23 10.43
10/30/2021 6:00:00 PM 11.03 51.854 0.163 7.34 11.73 10.42
10/30/2021 6:15:00 PM 11.03 51.854 0.163 7.35 12.09 10.41
10/30/2021 6:30:00 PM 11.03 51.854 0.163 7.34 11.83 10.41
10/30/2021 6:45:00 PM 11.03 51.854 0.163 7.35 11.23 10.4
10/30/2021 7:00:00 PM 11.03 51.854 0.164 7.35 12 10.4
10/30/2021 7:15:00 PM 11.04 51.872 0.164 7.35 12.71 10.39
10/30/2021 7:30:00 PM 11.04 51.872 0.164 7.34 11.27 10.39
10/30/2021 7:45:00 PM 11.04 51.872 0.164 7.35 12.75 10.38
10/30/2021 8:00:00 PM 11.03 51.854 0.164 7.34 12.06 10.38
10/30/2021 8:15:00 PM 11.03 51.854 0.165 7.35 11.88 10.38
10/30/2021 8:30:00 PM 11.03 51.854 0.165 7.35 12.17 10.37
10/30/2021 8:45:00 PM 11.02 51.836 0.165 7.34 12.63 10.37
10/30/2021 9:00:00 PM 11.01 51.818 0.165 7.36 12.69 10.37
10/30/2021 9:15:00 PM 11.01 51.818 0.165 7.35 12.13 10.37
10/30/2021 9:30:00 PM 11.01 51.818 0.165 7.35 12.05 10.37
10/30/2021 9:45:00 PM 11.01 51.818 0.166 7.34 12.12 10.37
10/30/2021 10:00:00 PM 11.01 51.818 0.166 7.34 11.87 10.36
10/30/2021 10:15:00 PM 11.01 51.818 0.166 7.34 11.94 10.36
10/30/2021 10:30:00 PM 11.01 51.818 0.166 7.34 11.9 10.36
10/30/2021 10:45:00 PM 11.01 51.818 0.166 7.35 12.46 10.36
10/30/2021 11:00:00 PM 11.01 51.818 0.167 7.36 11.98 10.36
10/30/2021 11:15:00 PM 11.01 51.818 0.167 7.34 11.67 10.36
10/30/2021 11:30:00 PM 11.01 51.818 0.168 7.35 11.39 10.36
10/30/2021 11:45:00 PM 11 51.8 0.168 7.35 11.36 10.36
10/31/2021 12:00:00 AM 11 51.8 0.167 7.36 11.62 10.36
10/31/2021 12:15:00 AM 11 51.8 0.168 7.35 11.5 10.35
10/31/2021 12:30:00 AM 11 51.8 0.168 7.36 11.46 10.35
10/31/2021 12:45:00 AM 11 51.8 0.168 7.35 10.92 10.35
10/31/2021 1:00:00 AM 11 51.8 0.168 7.35 10.71 10.35
10/31/2021 1:15:00 AM 11 51.8 0.168 7.35 11.32 10.35
10/31/2021 1:30:00 AM 11 51.8 0.168 7.36 11.22 10.35
10/31/2021 1:45:00 AM 10.99 51.782 0.169 7.35 11.2 10.34
10/31/2021 2:00:00 AM 10.98 51.764 0.169 7.35 10.58 10.34
10/31/2021 2:15:00 AM 10.98 51.764 0.169 7.34 10.72 10.34
10/31/2021 2:30:00 AM 10.98 51.764 0.169 7.34 11.35 10.34
10/31/2021 2:45:00 AM 10.98 51.764 0.168 7.35 11.17 10.34
10/31/2021 3:00:00 AM 10.98 51.764 0.169 7.36 10.77 10.34
10/31/2021 3:15:00 AM 10.98 51.764 0.169 7.35 10.45 10.34
10/31/2021 3:30:00 AM 10.98 51.764 0.169 7.35 10.77 10.34
10/31/2021 3:45:00 AM 10.98 51.764 0.169 7.36 11.39 10.34
10/31/2021 4:00:00 AM 10.98 51.764 0.169 7.35 10.67 10.34
10/31/2021 4:15:00 AM 10.98 51.764 0.17 7.34 10.61 10.34
10/31/2021 4:30:00 AM 10.98 51.764 0.169 7.36 10.46 10.34
10/31/2021 4:45:00 AM 10.98 51.764 0.17 7.36 10.94 10.34
10/31/2021 5:00:00 AM 10.98 51.764 0.169 7.36 10.86 10.34
10/31/2021 5:15:00 AM 10.98 51.764 0.169 7.37 11.34 10.34
10/31/2021 5:30:00 AM 10.98 51.764 0.17 7.37 10.94 10.34
10/31/2021 5:45:00 AM 10.98 51.764 0.171 7.36 10.69 10.34
10/31/2021 6:00:00 AM 10.98 51.764 0.17 7.35 10.37 10.34
10/31/2021 6:15:00 AM 10.98 51.764 0.17 7.35 10.63 10.34
10/31/2021 6:30:00 AM 10.97 51.746 0.17 7.35 10.86 10.34
10/31/2021 6:45:00 AM 10.97 51.746 0.17 7.36 10.84 10.34
10/31/2021 7:00:00 AM 10.97 51.746 0.171 7.36 10.4 10.34
10/31/2021 7:15:00 AM 10.97 51.746 0.171 7.35 10.29 10.34
10/31/2021 7:30:00 AM 10.97 51.746 0.169 7.35 10.86 10.35
10/31/2021 7:45:00 AM 10.97 51.746 0.17 7.35 10.5 10.35
10/31/2021 8:00:00 AM 10.96 51.728 0.172 7.36 9.63 10.35
10/31/2021 8:15:00 AM 10.96 51.728 0.171 7.37 10.37 10.35
10/31/2021 8:30:00 AM 10.96 51.728 0.171 7.35 10.32 10.36
10/31/2021 8:45:00 AM 10.97 51.746 0.17 7.36 10.36 10.36
10/31/2021 9:00:00 AM 10.97 51.746 0.171 7.36 8.07 10.38
10/31/2021 9:15:00 AM 10.97 51.746 0.172 7.36 10 10.38
10/31/2021 9:30:00 AM 10.98 51.764 0.171 7.36 9.78 10.41
10/31/2021 9:45:00 AM 10.98 51.764 0.172 7.38 10.55 10.43
10/31/2021 10:00:00 AM 11 51.8 0.172 7.38 9.71 10.45
10/31/2021 10:15:00 AM 11 51.8 0.172 7.38 9.61 10.47
10/31/2021 10:30:00 AM 11 51.8 0.173 7.39 10.31 10.48
10/31/2021 10:45:00 AM 11.01 51.818 0.173 7.39 9.58 10.5
10/31/2021 11:00:00 AM 11.02 51.836 0.173 7.39 9.24 10.5
10/31/2021 11:15:00 AM 11.05 51.89 0.173 7.38 9.3 10.53
10/31/2021 11:30:00 AM 11.08 51.944 0.173 7.39 9.61 10.55
10/31/2021 11:45:00 AM 11.09 51.962 0.174 7.39 9.32 10.57
10/31/2021 12:00:00 PM 11.11 51.998 0.173 7.4 9.09 10.59
10/31/2021 12:15:00 PM 11.13 52.034 0.174 7.39 9.3 10.61
10/31/2021 12:30:00 PM 11.12 52.016 0.174 7.41 9.59 10.6
10/31/2021 12:45:00 PM 11.12 52.016 0.174 7.41 9.97 10.61
10/31/2021 1:00:00 PM 11.12 52.016 0.174 7.42 8.89 10.61
10/31/2021 1:15:00 PM 11.15 52.07 0.175 7.42 9.21 10.64
10/31/2021 1:30:00 PM 11.15 52.07 0.174 7.41 9.48 10.63
10/31/2021 1:45:00 PM 11.14 52.052 0.174 7.41 8.74 10.62
10/31/2021 2:00:00 PM 11.12 52.016 0.174 7.4 8.57 10.61
10/31/2021 2:15:00 PM 11.11 51.998 0.174 7.43 9.33 10.61
10/31/2021 2:30:00 PM 11.11 51.998 0.174 7.42 8.88 10.62
10/31/2021 2:45:00 PM 11.11 51.998 0.174 7.42 9.08 10.63
10/31/2021 3:00:00 PM 11.12 52.016 0.174 7.43 9.11 10.65
10/31/2021 3:15:00 PM 11.13 52.034 0.174 7.42 9.07 10.66
10/31/2021 3:30:00 PM 11.13 52.034 0.174 7.41 9.85 10.66
10/31/2021 3:45:00 PM 11.14 52.052 0.173 7.44 8.98 10.66
10/31/2021 4:00:00 PM 11.14 52.052 0.174 7.42 9.26 10.66
10/31/2021 4:15:00 PM 11.16 52.088 0.174 7.42 9.9 10.67
10/31/2021 4:30:00 PM 11.17 52.106 0.173 7.42 9.54 10.67
10/31/2021 4:45:00 PM 11.15 52.07 0.173 7.43 9.53 10.67
10/31/2021 5:00:00 PM 11.15 52.07 0.173 7.42 10.59 10.66
10/31/2021 5:15:00 PM 11.13 52.034 0.173 7.42 9.81 10.65
10/31/2021 5:30:00 PM 11.1 51.98 0.173 7.42 9.63 10.64
10/31/2021 5:45:00 PM 11.06 51.908 0.173 7.41 9.97 10.62
10/31/2021 6:00:00 PM 11.03 51.854 0.172 7.4 9.67 10.6
10/31/2021 6:15:00 PM 11.01 51.818 0.173 7.41 9.7 10.58
10/31/2021 6:30:00 PM 10.98 51.764 0.173 7.4 9.86 10.56
10/31/2021 6:45:00 PM 10.96 51.728 0.172 7.41 9.95 10.55
10/31/2021 7:00:00 PM 10.95 51.71 0.172 7.4 10.4 10.54
10/31/2021 7:15:00 PM 10.94 51.692 0.172 7.4 10.28 10.54
10/31/2021 7:30:00 PM 10.93 51.674 0.172 7.39 11.13 10.54
10/31/2021 7:45:00 PM 10.92 51.656 0.172 7.41 9.19 10.53
10/31/2021 8:00:00 PM 10.91 51.638 0.172 7.4 10.57 10.53
10/31/2021 8:15:00 PM 10.9 51.62 0.172 7.4 11.09 10.52
10/31/2021 8:30:00 PM 10.89 51.602 0.172 7.39 10.71 10.52
10/31/2021 8:45:00 PM 10.88 51.584 0.172 7.4 11.35 10.52
10/31/2021 9:00:00 PM 10.88 51.584 0.172 7.39 10.77 10.52
10/31/2021 9:15:00 PM 10.87 51.566 0.172 7.39 10.62 10.51
10/31/2021 9:30:00 PM 10.87 51.566 0.172 7.38 10.9 10.51
10/31/2021 9:45:00 PM 10.86 51.548 0.172 7.39 11.6 10.51
10/31/2021 10:00:00 PM 10.85 51.53 0.171 7.39 11.86 10.51
10/31/2021 10:15:00 PM 10.84 51.512 0.172 7.39 11.77 10.51
10/31/2021 10:30:00 PM 10.83 51.494 0.172 7.39 11.18 10.51
10/31/2021 10:45:00 PM 10.82 51.476 0.172 7.39 11.15 10.5
10/31/2021 11:00:00 PM 10.81 51.458 0.172 7.39 10.84 10.51
10/31/2021 11:15:00 PM 10.8 51.44 0.172 7.38 11.38 10.5
10/31/2021 11:30:00 PM 10.8 51.44 0.172 7.41 11.57 10.5
10/31/2021 11:45:00 PM 10.79 51.422 0.172 7.39 11.49 10.5
11/1/2021 12:00:00 AM 10.78 51.404 0.172 7.37 11.19 10.5
11/1/2021 12:15:00 AM 10.78 51.404 0.172 7.38 11.54 10.5
11/1/2021 12:30:00 AM 10.77 51.386 0.171 7.37 11.23 10.5
11/1/2021 12:45:00 AM 10.76 51.368 0.172 7.37 10.98 10.5
11/1/2021 1:00:00 AM 10.75 51.35 0.171 7.39 11.54 10.5
11/1/2021 1:15:00 AM 10.74 51.332 0.171 7.37 11.67 10.5
11/1/2021 1:30:00 AM 10.73 51.314 0.171 7.38 11.16 10.5
11/1/2021 1:45:00 AM 10.71 51.278 0.171 7.38 10.73 10.51
11/1/2021 2:00:00 AM 10.69 51.242 0.171 7.37 11.36 10.51
11/1/2021 2:15:00 AM 10.68 51.224 0.171 7.38 11.4 10.51
11/1/2021 2:30:00 AM 10.66 51.188 0.171 7.39 10.63 10.52
11/1/2021 2:45:00 AM 10.63 51.134 0.171 7.39 11.24 10.52
11/1/2021 3:00:00 AM 10.62 51.116 0.172 7.38 11.31 10.52
11/1/2021 3:15:00 AM 10.61 51.098 0.172 7.38 10.88 10.53
11/1/2021 3:30:00 AM 10.61 51.098 0.171 7.37 11.18 10.53
11/1/2021 3:45:00 AM 10.59 51.062 0.171 7.38 11.29 10.53
11/1/2021 4:00:00 AM 10.56 51.008 0.171 7.38 11.21 10.54
11/1/2021 4:15:00 AM 10.54 50.972 0.171 7.39 11.1 10.54
11/1/2021 4:30:00 AM 10.52 50.936 0.171 7.38 11.35 10.55
11/1/2021 4:45:00 AM 10.49 50.882 0.173 7.39 11.15 10.55
11/1/2021 5:00:00 AM 10.47 50.846 0.172 7.39 11.11 10.56
11/1/2021 5:15:00 AM 10.42 50.756 0.172 7.39 10.51 10.57
11/1/2021 5:30:00 AM 10.37 50.666 0.172 7.38 10.52 10.57
11/1/2021 5:45:00 AM 10.33 50.594 0.173 7.39 10.69 10.59
11/1/2021 6:00:00 AM 10.3 50.54 0.173 7.39 11.06 10.59
11/1/2021 6:15:00 AM 10.27 50.486 0.173 7.39 11.06 10.6
11/1/2021 6:30:00 AM 10.24 50.432 0.173 7.39 10.69 10.61
11/1/2021 6:45:00 AM 10.21 50.378 0.173 7.39 10.36 10.62
11/1/2021 7:00:00 AM 10.17 50.306 0.173 7.38 10.25 10.63
11/1/2021 7:15:00 AM 10.14 50.252 0.173 7.4 10.65 10.64
11/1/2021 7:30:00 AM 10.11 50.198 0.173 7.38 10.91 10.65
11/1/2021 7:45:00 AM 10.08 50.144 0.173 7.39 10.4 10.66
11/1/2021 8:00:00 AM 10.05 50.09 0.174 7.38 10.3 10.68
11/1/2021 8:15:00 AM 10.02 50.036 0.174 7.4 10.31 10.69
11/1/2021 8:30:00 AM 10 50 0.174 7.37 9.96 10.71
11/1/2021 8:45:00 AM 9.98 49.964 0.174 7.39 9.8 10.74
11/1/2021 9:00:00 AM 9.97 49.946 0.174 7.41 10.51 10.76
11/1/2021 9:15:00 AM 9.95 49.91 0.174 7.4 9.65 10.79
11/1/2021 9:30:00 AM 9.95 49.91 0.174 7.39 9.82 10.81
11/1/2021 9:45:00 AM 9.96 49.928 0.174 7.41 9.9 10.85
11/1/2021 10:00:00 AM 9.99 49.982 0.175 7.41 9.55 10.89
11/1/2021 10:15:00 AM 10.04 50.072 0.175 7.42 9.52 10.93
11/1/2021 10:30:00 AM 10.08 50.144 0.174 7.43 9.25 10.96
11/1/2021 10:45:00 AM 10.12 50.216 0.174 7.43 9.52 10.99
11/1/2021 11:00:00 AM 10.14 50.252 0.175 7.43 9.09 11.01
11/1/2021 11:15:00 AM 10.11 50.198 0.175 7.42 8.86 11.01
11/1/2021 11:30:00 AM 10.06 50.108 0.175 7.43 9.15 11.02
11/1/2021 11:45:00 AM 10.02 50.036 0.175 7.43 9.21 11.04
11/1/2021 12:00:00 PM 10.1 50.18 0.174 7.44 9.7 11.07
11/1/2021 12:15:00 PM 10.18 50.324 0.174 7.44 8.75 11.1
11/1/2021 12:30:00 PM 10.29 50.522 0.175 7.43 8.66 11.11
11/1/2021 12:45:00 PM 10.37 50.666 0.174 7.45 8.87 11.12
11/1/2021 1:00:00 PM 10.35 50.63 0.176 7.44 8.32 11.12
11/1/2021 1:15:00 PM 10.26 50.468 0.174 7.45 8.74 11.13
11/1/2021 1:30:00 PM 10.23 50.414 0.175 7.44 8.81 11.12
11/1/2021 1:45:00 PM 10.31 50.558 0.175 7.46 8.44 11.15
11/1/2021 2:00:00 PM 10.37 50.666 0.175 7.46 8.82 11.16
11/1/2021 2:15:00 PM 10.46 50.828 0.176 7.46 8.81 11.19
11/1/2021 2:30:00 PM 10.42 50.756 0.175 7.45 8.39 11.17
11/1/2021 2:45:00 PM 10.34 50.612 0.176 7.45 8.62 11.18
11/1/2021 3:00:00 PM 10.25 50.45 0.176 7.45 8.33 11.17
11/1/2021 3:15:00 PM 10.31 50.558 0.176 7.45 8.42 11.2
11/1/2021 3:30:00 PM 10.38 50.684 0.176 7.45 8.38 11.21
11/1/2021 3:45:00 PM 10.38 50.684 0.176 7.45 7.68 11.22
11/1/2021 4:00:00 PM 10.37 50.666 0.176 7.46 8.42 11.21
11/1/2021 4:15:00 PM 10.33 50.594 0.176 7.44 8.16 11.21
11/1/2021 4:30:00 PM 10.3 50.54 0.176 7.46 8.38 11.21
11/1/2021 4:45:00 PM 10.25 50.45 0.176 7.47 10.79 11.2
11/1/2021 5:00:00 PM 10.22 50.396 0.176 7.45 8.05 11.19
11/1/2021 5:15:00 PM 10.21 50.378 0.177 7.46 7.9 11.18
11/1/2021 5:30:00 PM 10.18 50.324 0.176 7.45 8.33 11.16
11/1/2021 5:45:00 PM 10.15 50.27 0.177 7.45 8.66 11.14
11/1/2021 6:00:00 PM 10.1 50.18 0.177 7.45 8.05 11.11
11/1/2021 6:15:00 PM 10.07 50.126 0.177 7.44 8.12 11.08
11/1/2021 6:30:00 PM 10.04 50.072 0.177 7.43 7.99 11.05
11/1/2021 6:45:00 PM 10.01 50.018 0.177 7.42 8.13 11.03
11/1/2021 7:00:00 PM 9.99 49.982 0.176 7.42 8.21 11.02
11/1/2021 7:15:00 PM 9.96 49.928 0.177 7.41 8.13 11.01
11/1/2021 7:30:00 PM 9.93 49.874 0.177 7.41 7.92 11
11/1/2021 7:45:00 PM 9.9 49.82 0.177 7.42 8.46 11
11/1/2021 8:00:00 PM 9.87 49.766 0.177 7.41 8.41 10.99
11/1/2021 8:15:00 PM 9.84 49.712 0.177 7.41 8.47 10.99
11/1/2021 8:30:00 PM 9.8 49.64 0.178 7.41 8.24 11
11/1/2021 8:45:00 PM 9.77 49.586 0.178 7.41 8.41 11
11/1/2021 9:00:00 PM 9.74 49.532 0.178 7.4 8.17 11.01
11/1/2021 9:15:00 PM 9.7 49.46 0.178 7.41 8.13 11.01
11/1/2021 9:30:00 PM 9.67 49.406 0.178 7.42 8.15 11.01
11/1/2021 9:45:00 PM 9.63 49.334 0.178 7.41 8.06 11.01
11/1/2021 10:00:00 PM 9.6 49.28 0.179 7.39 8.65 11.01
11/1/2021 10:15:00 PM 9.56 49.208 0.178 7.4 8.18 11.02
11/1/2021 10:30:00 PM 9.52 49.136 0.178 7.4 8.21 11.02
11/1/2021 10:45:00 PM 9.48 49.064 0.178 7.4 8.14 11.02
11/1/2021 11:00:00 PM 9.44 48.992 0.179 7.4 8.01 11.03
11/1/2021 11:15:00 PM 9.41 48.938 0.178 7.41 8.33 11.03
11/1/2021 11:30:00 PM 9.38 48.884 0.178 7.4 8.36 11.04
11/1/2021 11:45:00 PM 9.35 48.83 0.179 7.38 7.62 11.05
11/2/2021 12:00:00 AM 9.32 48.776 0.179 7.39 11.44 11.06
11/2/2021 12:15:00 AM 9.29 48.722 0.179 7.39 7.76 11.07
11/2/2021 12:30:00 AM 9.26 48.668 0.179 7.39 7.99 11.07
11/2/2021 12:45:00 AM 9.23 48.614 0.179 7.39 7.83 11.08
11/2/2021 1:00:00 AM 9.2 48.56 0.179 7.39 7.72 11.09
11/2/2021 1:15:00 AM 9.17 48.506 0.18 7.39 7.95 11.09
11/2/2021 1:30:00 AM 9.14 48.452 0.179 7.38 7.75 11.1
11/2/2021 1:45:00 AM 9.12 48.416 0.179 7.38 7.81 11.1
11/2/2021 2:00:00 AM 9.09 48.362 0.18 7.39 7.69 11.1
11/2/2021 2:15:00 AM 9.05 48.29 0.18 7.39 8.51 11.11
11/2/2021 2:30:00 AM 9.02 48.236 0.179 7.39 8.21 11.11
11/2/2021 2:45:00 AM 9 48.2 0.18 7.39 7.91 11.12
11/2/2021 3:00:00 AM 8.98 48.164 0.18 7.4 7.89 11.13
11/2/2021 3:15:00 AM 8.96 48.128 0.179 7.4 7.69 11.13
11/2/2021 3:30:00 AM 8.94 48.092 0.18 7.39 7.94 11.14
11/2/2021 3:45:00 AM 8.91 48.038 0.181 7.39 7.87 11.14
11/2/2021 4:00:00 AM 8.9 48.02 0.18 7.39 7.8 11.15
11/2/2021 4:15:00 AM 8.87 47.966 0.18 7.39 7.77 11.16
11/2/2021 4:30:00 AM 8.84 47.912 0.18 7.41 7.79 11.17
11/2/2021 4:45:00 AM 8.81 47.858 0.181 7.4 7.81 11.18
11/2/2021 5:00:00 AM 8.79 47.822 0.18 7.41 7.7 11.18
11/2/2021 5:15:00 AM 8.77 47.786 0.181 7.4 7.87 11.19
11/2/2021 5:30:00 AM 8.75 47.75 0.181 7.39 7.67 11.19
11/2/2021 5:45:00 AM 8.73 47.714 0.181 7.4 7.85 11.2
11/2/2021 6:00:00 AM 8.71 47.678 0.181 7.4 7.96 11.2
11/2/2021 6:15:00 AM 8.69 47.642 0.18 7.39 7.82 11.21
11/2/2021 6:30:00 AM 8.66 47.588 0.181 7.39 7.79 11.22
11/2/2021 6:45:00 AM 8.63 47.534 0.18 7.4 7.87 11.22
11/2/2021 7:00:00 AM 8.61 47.498 0.181 7.4 8.36 11.23
11/2/2021 7:15:00 AM 8.58 47.444 0.181 7.41 7.54 11.24
11/2/2021 7:30:00 AM 8.56 47.408 0.181 7.39 7.77 11.25
11/2/2021 7:45:00 AM 8.53 47.354 0.182 7.39 7.74 11.26
11/2/2021 8:00:00 AM 8.51 47.318 0.181 7.4 7.49 11.28
11/2/2021 8:15:00 AM 8.48 47.264 0.181 7.4 7.26 11.29
11/2/2021 8:30:00 AM 8.46 47.228 0.181 7.4 7.8 11.31
11/2/2021 8:45:00 AM 8.45 47.21 0.181 7.39 7.15 11.34
11/2/2021 9:00:00 AM 8.44 47.192 0.181 7.4 7.17 11.37
11/2/2021 9:15:00 AM 8.43 47.174 0.181 7.4 7.34 11.4
11/2/2021 9:30:00 AM 8.43 47.174 0.181 7.42 7.03 11.44
11/2/2021 9:45:00 AM 8.43 47.174 0.181 7.42 7.21 11.48
11/2/2021 10:00:00 AM 8.44 47.192 0.181 7.42 6.96 11.52
11/2/2021 10:15:00 AM 8.47 47.246 0.181 7.42 7.28 11.56
11/2/2021 10:30:00 AM 8.5 47.3 0.181 7.43 7.29 11.6
11/2/2021 10:45:00 AM 8.54 47.372 0.182 7.44 7.1 11.63
11/2/2021 11:00:00 AM 8.58 47.444 0.182 7.45 6.86 11.65
11/2/2021 11:15:00 AM 8.63 47.534 0.183 7.44 6.86 11.67
11/2/2021 11:30:00 AM 8.62 47.516 0.182 7.46 7.16 11.68
11/2/2021 11:45:00 AM 8.62 47.516 0.181 7.45 6.86 11.69
11/2/2021 12:00:00 PM 8.61 47.498 0.182 7.44 6.7 11.7
11/2/2021 12:15:00 PM 8.62 47.516 0.182 7.46 7.02 11.72
11/2/2021 12:30:00 PM 8.64 47.552 0.182 7.47 6.78 11.74
11/2/2021 12:45:00 PM 8.7 47.66 0.181 7.45 6.46 11.75
11/2/2021 1:00:00 PM 8.78 47.804 0.182 7.46 6.74 11.78
11/2/2021 1:15:00 PM 8.83 47.894 0.182 7.48 6.64 11.79
11/2/2021 1:30:00 PM 8.84 47.912 0.182 7.47 6.78 11.8
11/2/2021 1:45:00 PM 8.86 47.948 0.182 7.47 6.57 11.81
11/2/2021 2:00:00 PM 8.82 47.876 0.182 7.47 6.62 11.8
11/2/2021 2:15:00 PM 8.83 47.894 0.181 7.48 6.72 11.81
11/2/2021 2:30:00 PM 8.81 47.858 0.182 7.48 6.54 11.79
11/2/2021 2:45:00 PM 8.79 47.822 0.183 7.49 6.44 11.78
11/2/2021 3:00:00 PM 8.78 47.804 0.183 7.48 6.56 11.79
11/2/2021 3:15:00 PM 8.74 47.732 0.183 7.48 6.72 11.79
11/2/2021 3:30:00 PM 8.69 47.642 0.183 7.49 6.69 11.77
11/2/2021 3:45:00 PM 8.67 47.606 0.183 7.47 6.55 11.77
11/2/2021 4:00:00 PM 8.63 47.534 0.183 7.48 6.52 11.78
11/2/2021 4:15:00 PM 8.63 47.534 0.183 7.47 6.49 11.78
11/2/2021 4:30:00 PM 8.61 47.498 0.183 7.47 6.68 11.78
11/2/2021 4:45:00 PM 8.58 47.444 0.182 7.47 6.3 11.76
11/2/2021 5:00:00 PM 8.53 47.354 0.183 7.47 6.37 11.77
11/2/2021 5:15:00 PM 8.49 47.282 0.183 7.49 6.52 11.76
11/2/2021 5:30:00 PM 8.42 47.156 0.183 7.47 5.97 11.74
11/2/2021 5:45:00 PM 8.38 47.084 0.183 7.48 6.31 11.71
11/2/2021 6:00:00 PM 8.34 47.012 0.183 7.46 6.5 11.69
11/2/2021 6:15:00 PM 8.3 46.94 0.183 7.47 6.56 11.66
11/2/2021 6:30:00 PM 8.26 46.868 0.183 7.46 6.57 11.63
11/2/2021 6:45:00 PM 8.23 46.814 0.183 7.45 6.46 11.61
11/2/2021 7:00:00 PM 8.19 46.742 0.184 7.44 6.66 11.59
11/2/2021 7:15:00 PM 8.16 46.688 0.184 7.44 6.87 11.59
11/2/2021 7:30:00 PM 8.13 46.634 0.184 7.44 7.02 11.58
11/2/2021 7:45:00 PM 8.1 46.58 0.184 7.45 6.79 11.58
11/2/2021 8:00:00 PM 8.08 46.544 0.183 7.42 6.78 11.59
11/2/2021 8:15:00 PM 8.05 46.49 0.184 7.44 6.59 11.59
11/2/2021 8:30:00 PM 8.02 46.436 0.183 7.44 6.79 11.59
11/2/2021 8:45:00 PM 7.98 46.364 0.184 7.43 7.11 11.59
11/2/2021 9:00:00 PM 7.94 46.292 0.184 7.43 7.32 11.59
11/2/2021 9:15:00 PM 7.9 46.22 0.184 7.43 7.21 11.59
11/2/2021 9:30:00 PM 7.86 46.148 0.184 7.43 191.4 11.59
11/2/2021 9:45:00 PM 7.83 46.094 0.184 7.43 6.63 11.58
11/2/2021 10:00:00 PM 7.79 46.022 0.184 7.43 6.93 11.59
11/2/2021 10:15:00 PM 7.75 45.95 0.184 7.43 6.82 11.59
11/2/2021 10:30:00 PM 7.71 45.878 0.183 7.43 6.82 11.61
11/2/2021 10:45:00 PM 7.68 45.824 0.184 7.43 6.67 11.61
11/2/2021 11:00:00 PM 7.64 45.752 0.185 7.43 6.85 11.62
11/2/2021 11:15:00 PM 7.61 45.698 0.184 7.42 6.99 11.63
11/2/2021 11:30:00 PM 7.57 45.626 0.184 7.44 7.21 11.64
11/2/2021 11:45:00 PM 7.53 45.554 0.185 7.43 7.4 11.64
11/3/2021 12:00:00 AM 7.49 45.482 0.184 7.42 7.03 11.65
11/3/2021 12:15:00 AM 7.45 45.41 0.185 7.43 6.74 11.66
11/3/2021 12:30:00 AM 7.41 45.338 0.185 7.41 6.75 11.66
11/3/2021 12:45:00 AM 7.37 45.266 0.185 7.43 6.51 11.67
11/3/2021 1:00:00 AM 7.33 45.194 0.186 7.42 6.52 11.68
11/3/2021 1:15:00 AM 7.29 45.122 0.185 7.42 6.64 11.69
11/3/2021 1:30:00 AM 7.25 45.05 0.185 7.43 6.48 11.7
11/3/2021 1:45:00 AM 7.22 44.996 0.185 7.44 6.67 11.71
11/3/2021 2:00:00 AM 7.2 44.96 0.185 7.42 6.55 11.72
11/3/2021 2:15:00 AM 7.16 44.888 0.185 7.43 6.94 11.73
11/3/2021 2:30:00 AM 7.13 44.834 0.185 7.43 6.71 11.74
11/3/2021 2:45:00 AM 7.1 44.78 0.185 7.43 6.74 11.75
11/3/2021 3:00:00 AM 7.06 44.708 0.185 7.43 6.3 11.76
11/3/2021 3:15:00 AM 7.03 44.654 0.186 7.43 6.68 11.76
11/3/2021 3:30:00 AM 6.99 44.582 0.185 7.42 7.12 11.77
11/3/2021 3:45:00 AM 6.96 44.528 0.186 7.42 6.7 11.77
11/3/2021 4:00:00 AM 6.92 44.456 0.186 7.41 7.02 11.78
11/3/2021 4:15:00 AM 6.89 44.402 0.186 7.43 6.98 11.79
11/3/2021 4:30:00 AM 6.86 44.348 0.186 7.41 6.71 11.79
11/3/2021 4:45:00 AM 6.82 44.276 0.187 7.42 6.75 11.81
11/3/2021 5:00:00 AM 6.78 44.204 0.186 7.43 6.68 11.82
11/3/2021 5:15:00 AM 6.75 44.15 0.186 7.42 6.71 11.83
11/3/2021 5:30:00 AM 6.72 44.096 0.186 7.35 6.63 11.84
11/3/2021 5:45:00 AM 6.69 44.042 0.186 7.19 6.4 11.86
11/3/2021 6:00:00 AM 6.65 43.97 0.186 7.18 6.8 11.87
11/3/2021 6:15:00 AM 6.62 43.916 0.186 7.2 6.41 11.88
11/3/2021 6:30:00 AM 6.58 43.844 0.186 7.21 6.91 11.89
11/3/2021 6:45:00 AM 6.55 43.79 0.187 7.23 6.53 11.9
11/3/2021 7:00:00 AM 6.52 43.736 0.186 7.25 6.8 11.91
11/3/2021 7:15:00 AM 6.49 43.682 0.187 7.23 6.7 11.92
11/3/2021 7:30:00 AM 6.45 43.61 0.187 7.24 6.6 11.92
11/3/2021 7:45:00 AM 6.42 43.556 0.186 7.25 6.84 11.93
11/3/2021 8:00:00 AM 6.39 43.502 0.187 7.25 6.48 11.95
11/3/2021 8:15:00 AM 6.35 43.43 0.187 7.27 6.59 11.97
11/3/2021 8:30:00 AM 6.33 43.394 0.186 7.27 6.46 12
11/3/2021 8:45:00 AM 6.31 43.358 0.186 7.26 6.39 12.03
11/3/2021 9:00:00 AM 6.3 43.34 0.187 7.28 6.31 12.08
11/3/2021 9:15:00 AM 6.29 43.322 0.187 7.3 6.16 12.11
11/3/2021 9:30:00 AM 6.29 43.322 0.187 7.29 6.48 12.15
11/3/2021 9:45:00 AM 6.31 43.358 0.187 7.32 6.37 12.18
11/3/2021 10:00:00 AM 6.36 43.448 0.187 7.32 6.18 12.22
11/3/2021 10:15:00 AM 6.42 43.556 0.187 7.32 6.39 12.26
11/3/2021 10:30:00 AM 6.49 43.682 0.186 7.33 6.18 12.29
11/3/2021 10:45:00 AM 6.53 43.754 0.187 7.36 6.14 12.3
11/3/2021 11:00:00 AM 6.58 43.844 0.187 7.37 6.36 12.32
11/3/2021 11:15:00 AM 6.73 44.114 0.187 7.39 6.2 12.35
11/3/2021 11:30:00 AM 6.82 44.276 0.188 7.43 6.15 12.36
11/3/2021 11:45:00 AM 6.83 44.294 0.187 7.45 6.44 12.37
11/3/2021 12:00:00 PM 6.85 44.33 0.187 7.46 5.95 12.38
11/3/2021 12:15:00 PM 6.86 44.348 0.187 7.47 5.92 12.4
11/3/2021 12:30:00 PM 6.92 44.456 0.187 7.49 6.11 12.4
11/3/2021 12:45:00 PM 7.03 44.654 0.188 7.5 6.24 12.41
11/3/2021 1:00:00 PM 7.06 44.708 0.188 7.5 6.13 12.41
11/3/2021 1:15:00 PM 7.12 44.816 0.188 7.5 5.58 12.41
11/3/2021 1:30:00 PM 7.14 44.852 0.187 7.51 5.72 12.42
11/3/2021 1:45:00 PM 7.18 44.924 0.188 7.51 5.78 12.43
11/3/2021 2:00:00 PM 7.15 44.87 0.188 7.51 5.76 12.42
11/3/2021 2:15:00 PM 7.07 44.726 0.188 7.5 5.91 12.4
11/3/2021 2:30:00 PM 7 44.6 0.188 7.51 5.98 12.41
11/3/2021 2:45:00 PM 6.98 44.564 0.188 7.51 6.07 12.43
11/3/2021 3:00:00 PM 6.99 44.582 0.188 7.52 6.15 12.44
11/3/2021 3:15:00 PM 6.99 44.582 0.188 7.5 5.94 12.44
11/3/2021 3:30:00 PM 6.93 44.474 0.188 7.5 6 12.44
11/3/2021 3:45:00 PM 6.94 44.492 0.189 7.5 6.08 12.45
11/3/2021 4:00:00 PM 6.99 44.582 0.189 7.5 6.05 12.46
11/3/2021 4:15:00 PM 7 44.6 0.188 7.51 6.16 12.44
11/3/2021 4:30:00 PM 6.95 44.51 0.188 7.51 6.01 12.42
11/3/2021 4:45:00 PM 6.88 44.384 0.189 7.5 6.04 12.43
11/3/2021 5:00:00 PM 6.85 44.33 0.188 7.49 5.7 12.43
11/3/2021 5:15:00 PM 6.82 44.276 0.188 7.52 5.91 12.4
11/3/2021 5:30:00 PM 6.81 44.258 0.189 7.5 5.75 12.39
11/3/2021 5:45:00 PM 6.79 44.222 0.189 7.49 5.88 12.37
11/3/2021 6:00:00 PM 6.76 44.168 0.189 7.49 5.84 12.33
11/3/2021 6:15:00 PM 6.74 44.132 0.188 7.47 5.74 12.3
11/3/2021 6:30:00 PM 6.72 44.096 0.189 7.47 5.99 12.27
11/3/2021 6:45:00 PM 6.69 44.042 0.189 7.44 6.12 12.24
11/3/2021 7:00:00 PM 6.67 44.006 0.189 7.45 6.15 12.22
11/3/2021 7:15:00 PM 6.65 43.97 0.189 7.45 5.97 12.21
11/3/2021 7:30:00 PM 6.61 43.898 0.189 7.44 6.37 12.2
11/3/2021 7:45:00 PM 6.57 43.826 0.189 7.43 6.54 12.19
11/3/2021 8:00:00 PM 6.53 43.754 0.189 7.42 6.49 12.19
11/3/2021 8:15:00 PM 6.49 43.682 0.189 7.42 6.09 12.19
11/3/2021 8:30:00 PM 6.45 43.61 0.19 7.4 6.57 12.19
11/3/2021 8:45:00 PM 6.41 43.538 0.19 7.4 6.41 12.19
11/3/2021 9:00:00 PM 6.38 43.484 0.19 7.41 6.3 12.2
11/3/2021 9:15:00 PM 6.34 43.412 0.19 7.38 6.35 12.2
11/3/2021 9:30:00 PM 6.31 43.358 0.19 7.4 6.58 12.2
11/3/2021 9:45:00 PM 6.28 43.304 0.19 7.4 6.15 12.21
11/3/2021 10:00:00 PM 6.25 43.25 0.19 7.4 6.36 12.21
11/3/2021 10:15:00 PM 6.22 43.196 0.19 7.4 6.21 12.21
11/3/2021 10:30:00 PM 6.19 43.142 0.19 7.4 6.15 12.21
11/3/2021 10:45:00 PM 6.16 43.088 0.19 7.4 7.37 12.21
11/3/2021 11:00:00 PM 6.12 43.016 0.19 7.4 6.45 12.21
11/3/2021 11:15:00 PM 6.09 42.962 0.19 7.39 6.45 12.21
11/3/2021 11:30:00 PM 6.06 42.908 0.19 7.39 6.4 12.21
11/3/2021 11:45:00 PM 6.02 42.836 0.19 7.39 6.08 12.22
11/4/2021 12:00:00 AM 5.99 42.782 0.19 7.41 6.36 12.22
11/4/2021 12:15:00 AM 5.96 42.728 0.19 7.4 6.25 12.23
11/4/2021 12:30:00 AM 5.92 42.656 0.19 7.41 5.99 12.23
11/4/2021 12:45:00 AM 5.89 42.602 0.191 7.4 6.3 12.24
11/4/2021 1:00:00 AM 5.86 42.548 0.19 7.4 6.36 12.25
11/4/2021 1:15:00 AM 5.83 42.494 0.19 7.4 6.37 12.26
11/4/2021 1:30:00 AM 5.8 42.44 0.191 7.4 6.2 12.27
11/4/2021 1:45:00 AM 5.77 42.386 0.191 7.4 6.18 12.27
11/4/2021 2:00:00 AM 5.74 42.332 0.191 7.41 6.09 12.28
11/4/2021 2:15:00 AM 5.73 42.314 0.191 7.42 6.35 12.29
11/4/2021 2:30:00 AM 5.7 42.26 0.191 7.41 6.22 12.29
11/4/2021 2:45:00 AM 5.68 42.224 0.192 7.41 6.35 12.3
11/4/2021 3:00:00 AM 5.65 42.17 0.191 7.41 6.14 12.31
11/4/2021 3:15:00 AM 5.62 42.116 0.191 7.41 6.03 12.32
11/4/2021 3:30:00 AM 5.59 42.062 0.191 7.42 5.98 12.32
11/4/2021 3:45:00 AM 5.55 41.99 0.192 7.42 6.08 12.33
11/4/2021 4:00:00 AM 5.51 41.918 0.191 7.41 5.76 12.34
11/4/2021 4:15:00 AM 5.47 41.846 0.191 7.41 5.91 12.34
11/4/2021 4:30:00 AM 5.43 41.774 0.192 7.41 6.77 12.35
11/4/2021 4:45:00 AM 5.39 41.702 0.192 7.41 5.86 12.35
11/4/2021 5:00:00 AM 5.35 41.63 0.192 7.4 5.97 12.36
11/4/2021 5:15:00 AM 5.31 41.558 0.192 7.4 6.02 12.38
11/4/2021 5:30:00 AM 5.27 41.486 0.191 7.4 6.01 12.39
11/4/2021 5:45:00 AM 5.24 41.432 0.192 7.4 6.17 12.4
11/4/2021 6:00:00 AM 5.19 41.342 0.192 7.4 6.06 12.42
11/4/2021 6:15:00 AM 5.16 41.288 0.192 7.4 5.43 12.43
11/4/2021 6:30:00 AM 5.12 41.216 0.192 7.4 6.03 12.44
11/4/2021 6:45:00 AM 5.08 41.144 0.192 7.39 6.1 12.46
11/4/2021 7:00:00 AM 5.04 41.072 0.192 7.38 6.19 12.47
11/4/2021 7:15:00 AM 5.01 41.018 0.192 7.39 6.19 12.48
11/4/2021 7:30:00 AM 4.97 40.946 0.192 7.39 6.22 12.49
11/4/2021 7:45:00 AM 4.93 40.874 0.192 7.4 6.26 12.49
11/4/2021 8:00:00 AM 4.9 40.82 0.192 7.4 6.12 12.51
11/4/2021 8:15:00 AM 4.87 40.766 0.192 7.39 5.88 12.53
11/4/2021 8:30:00 AM 4.84 40.712 0.192 7.4 5.93 12.56
11/4/2021 8:45:00 AM 4.82 40.676 0.193 7.41 6.16 12.58
11/4/2021 9:00:00 AM 4.81 40.658 0.193 7.41 5.77 12.62
11/4/2021 9:15:00 AM 4.81 40.658 0.193 7.41 5.75 12.66
11/4/2021 9:30:00 AM 4.82 40.676 0.192 7.42 5.77 12.69
11/4/2021 9:45:00 AM 4.84 40.712 0.192 7.43 5.75 12.72
11/4/2021 10:00:00 AM 4.89 40.802 0.193 7.45 5.56 12.76
11/4/2021 10:15:00 AM 4.97 40.946 0.193 7.46 5.84 12.8
11/4/2021 10:30:00 AM 5.07 41.126 0.192 7.47 5.7 12.83
11/4/2021 10:45:00 AM 5.17 41.306 0.192 7.47 5.7 12.86
11/4/2021 11:00:00 AM 5.28 41.504 0.192 7.49 5.85 12.87
11/4/2021 11:15:00 AM 5.38 41.684 0.193 7.48 5.85 12.87
11/4/2021 11:30:00 AM 5.51 41.918 0.192 7.49 5.71 12.87
11/4/2021 11:45:00 AM 5.6 42.08 0.192 7.49 9.76 12.87
11/4/2021 12:00:00 PM 5.68 42.224 0.193 7.51 5.65 12.87
11/4/2021 12:15:00 PM 5.76 42.368 0.193 7.5 5.69 12.88
11/4/2021 12:30:00 PM 5.84 42.512 0.193 7.51 5.72 12.89
11/4/2021 12:45:00 PM 5.92 42.656 0.193 7.5 5.76 12.9
11/4/2021 1:00:00 PM 6.02 42.836 0.193 7.52 5.53 12.91
11/4/2021 1:15:00 PM 6.07 42.926 0.194 7.5 5.78 12.91
11/4/2021 1:30:00 PM 6.04 42.872 0.193 7.51 5.51 12.89
11/4/2021 1:45:00 PM 6.03 42.854 0.193 7.5 5.39 12.9
11/4/2021 2:00:00 PM 5.96 42.728 0.193 7.49 5.42 12.9
11/4/2021 2:15:00 PM 6 42.8 0.192 7.51 5.53 12.9
11/4/2021 2:30:00 PM 5.99 42.782 0.193 7.51 5.58 12.9
11/4/2021 2:45:00 PM 5.99 42.782 0.193 7.51 5.59 12.9
11/4/2021 3:00:00 PM 5.9 42.62 0.193 7.5 5.51 12.9
11/4/2021 3:15:00 PM 5.9 42.62 0.193 7.51 5.49 12.89
11/4/2021 3:30:00 PM 5.91 42.638 0.194 7.51 5.46 12.9
11/4/2021 3:45:00 PM 5.91 42.638 0.193 7.5 5.39 12.9
11/4/2021 4:00:00 PM 5.93 42.674 0.193 7.5 5.79 12.9
11/4/2021 4:15:00 PM 5.88 42.584 0.193 7.5 5.54 12.88
11/4/2021 4:30:00 PM 5.84 42.512 0.194 7.51 5.29 12.87
11/4/2021 4:45:00 PM 5.78 42.404 0.194 7.53 5.74 12.85
11/4/2021 5:00:00 PM 5.76 42.368 0.194 7.52 5.47 12.84
11/4/2021 5:15:00 PM 5.74 42.332 0.194 7.51 5.56 12.81
11/4/2021 5:30:00 PM 5.72 42.296 0.193 7.49 5.61 12.79
11/4/2021 5:45:00 PM 5.69 42.242 0.195 7.49 5.66 12.76
11/4/2021 6:00:00 PM 5.66 42.188 0.194 7.5 5.4 12.73
11/4/2021 6:15:00 PM 5.63 42.134 0.194 7.5 5.54 12.69
11/4/2021 6:30:00 PM 5.59 42.062 0.194 7.48 5.84 12.65
11/4/2021 6:45:00 PM 5.55 41.99 0.194 7.46 5.63 12.63
11/4/2021 7:00:00 PM 5.53 41.954 0.194 7.47 5.48 12.61
11/4/2021 7:15:00 PM 5.51 41.918 0.194 7.47 5.88 12.6
11/4/2021 7:30:00 PM 5.5 41.9 0.194 7.46 5.76 12.58
11/4/2021 7:45:00 PM 5.49 41.882 0.194 7.46 5.66 12.57
11/4/2021 8:00:00 PM 5.49 41.882 0.195 7.47 5.61 12.57
11/4/2021 8:15:00 PM 5.47 41.846 0.194 7.46 5.92 12.56
11/4/2021 8:30:00 PM 5.47 41.846 0.194 7.48 5.77 12.56
11/4/2021 8:45:00 PM 5.46 41.828 0.195 7.46 5.61 12.55
11/4/2021 9:00:00 PM 5.45 41.81 0.195 7.46 6.31 12.55
11/4/2021 9:15:00 PM 5.44 41.792 0.195 7.46 5.71 12.55
11/4/2021 9:30:00 PM 5.44 41.792 0.195 7.47 5.73 12.54
11/4/2021 9:45:00 PM 5.44 41.792 0.195 7.46 5.81 12.53
11/4/2021 10:00:00 PM 5.44 41.792 0.195 7.45 5.83 12.53
11/4/2021 10:15:00 PM 5.43 41.774 0.195 7.45 5.71 12.52
11/4/2021 10:30:00 PM 5.43 41.774 0.195 7.45 5.7 12.51
11/4/2021 10:45:00 PM 5.42 41.756 0.195 7.45 5.77 12.51
11/4/2021 11:00:00 PM 5.41 41.738 0.195 7.45 6.04 12.5
11/4/2021 11:15:00 PM 5.39 41.702 0.196 7.46 5.89 12.51
11/4/2021 11:30:00 PM 5.38 41.684 0.196 7.45 5.82 12.5
11/4/2021 11:45:00 PM 5.35 41.63 0.195 7.45 5.84 12.51
11/5/2021 12:00:00 AM 5.32 41.576 0.196 7.46 5.78 12.51
11/5/2021 12:15:00 AM 5.28 41.504 0.196 7.45 5.63 12.51
11/5/2021 12:30:00 AM 5.25 41.45 0.196 7.45 5.32 12.51
11/5/2021 12:45:00 AM 5.21 41.378 0.196 7.44 5.62 12.52
11/5/2021 1:00:00 AM 5.18 41.324 0.197 7.44 6.06 12.52
11/5/2021 1:15:00 AM 5.16 41.288 0.195 7.45 5.74 12.52
11/5/2021 1:30:00 AM 5.13 41.234 0.196 7.46 6.25 12.52
11/5/2021 1:45:00 AM 5.1 41.18 0.196 7.44 5.83 12.52
11/5/2021 2:00:00 AM 5.07 41.126 0.196 7.46 6.98 12.52
11/5/2021 2:15:00 AM 5.04 41.072 0.197 7.46 5.67 12.52
11/5/2021 2:30:00 AM 5.01 41.018 0.197 7.47 5.67 12.53
11/5/2021 2:45:00 AM 4.99 40.982 0.196 7.46 5.83 12.53
11/5/2021 3:00:00 AM 4.96 40.928 0.197 7.45 5.81 12.53
11/5/2021 3:15:00 AM 4.94 40.892 0.197 7.46 5.68 12.54
11/5/2021 3:30:00 AM 4.91 40.838 0.196 7.45 5.58 12.55
11/5/2021 3:45:00 AM 4.89 40.802 0.197 7.46 5.68 12.55
11/5/2021 4:00:00 AM 4.86 40.748 0.197 7.46 5.82 12.56
11/5/2021 4:15:00 AM 4.83 40.694 0.197 7.45 5.77 12.57
11/5/2021 4:30:00 AM 4.81 40.658 0.197 7.46 5.49 12.58
11/5/2021 4:45:00 AM 4.78 40.604 0.197 7.45 5.78 12.59
11/5/2021 5:00:00 AM 4.75 40.55 0.197 7.47 6.01 12.6
11/5/2021 5:15:00 AM 4.72 40.496 0.197 7.45 5.76 12.61
11/5/2021 5:30:00 AM 4.69 40.442 0.197 7.46 5.64 12.62
11/5/2021 5:45:00 AM 4.65 40.37 0.197 7.45 5.7 12.63
11/5/2021 6:00:00 AM 4.62 40.316 0.198 7.45 5.91 12.64
11/5/2021 6:15:00 AM 4.59 40.262 0.197 7.45 5.59 12.64
11/5/2021 6:30:00 AM 4.56 40.208 0.197 7.46 5.84 12.65
11/5/2021 6:45:00 AM 4.52 40.136 0.198 7.45 5.93 12.66
11/5/2021 7:00:00 AM 4.49 40.082 0.198 7.43 5.86 12.66
11/5/2021 7:15:00 AM 4.46 40.028 0.198 7.42 7.15 12.67
11/5/2021 7:30:00 AM 4.42 39.956 0.197 7.42 6.04 12.67
11/5/2021 7:45:00 AM 4.38 39.884 0.198 7.41 5.58 12.68
11/5/2021 8:00:00 AM 4.35 39.83 0.198 7.39 5.86 12.71
11/5/2021 8:15:00 AM 4.32 39.776 0.198 7.38 5.78 12.73
11/5/2021 8:30:00 AM 4.3 39.74 0.198 7.37 5.76 12.76
11/5/2021 8:45:00 AM 4.27 39.686 0.198 7.37 5.75 12.8
11/5/2021 9:00:00 AM 4.27 39.686 0.198 7.38 5.5 12.84
11/5/2021 9:15:00 AM 4.26 39.668 0.198 7.38 5.47 12.88
11/5/2021 9:30:00 AM 4.27 39.686 0.198 7.39 5.42 12.91
11/5/2021 9:45:00 AM 4.3 39.74 0.198 7.41 5.53 12.95
11/5/2021 10:00:00 AM 4.37 39.866 0.198 7.42 5.53 12.98
11/5/2021 10:15:00 AM 4.46 40.028 0.198 7.44 5.58 13.01
11/5/2021 10:30:00 AM 4.57 40.226 0.198 7.46 5.65 13.04
11/5/2021 10:45:00 AM 4.69 40.442 0.199 7.48 5.36 13.07
11/5/2021 11:00:00 AM 4.81 40.658 0.198 7.48 5.5 13.09
11/5/2021 11:15:00 AM 4.94 40.892 0.198 7.49 5.41 13.09
11/5/2021 11:30:00 AM 5.1 41.18 0.198 7.49 5.19 13.08
11/5/2021 11:45:00 AM 5.25 41.45 0.198 7.49 5.23 13.07
11/5/2021 12:00:00 PM 5.39 41.702 0.198 7.5 5.29 13.09
11/5/2021 12:15:00 PM 5.37 41.666 0.198 7.5 5.31 13.07
11/5/2021 12:30:00 PM 5.43 41.774 0.198 7.5 5.58 13.06
11/5/2021 12:45:00 PM 5.47 41.846 0.199 7.49 5.36 13.08
11/5/2021 1:00:00 PM 5.54 41.972 0.198 7.51 5.4 13.1
11/5/2021 1:15:00 PM 5.62 42.116 0.199 7.51 5.3 13.1
11/5/2021 1:30:00 PM 5.72 42.296 0.199 7.52 5.1 13.09
11/5/2021 1:45:00 PM 5.81 42.458 0.198 7.53 4.99 13.09
11/5/2021 2:00:00 PM 5.89 42.602 0.199 7.54 5.31 13.08
11/5/2021 2:15:00 PM 5.93 42.674 0.199 7.52 5.4 13.07
11/5/2021 2:30:00 PM 5.97 42.746 0.199 7.53 5.2 13.07
11/5/2021 2:45:00 PM 6.02 42.836 0.199 7.53 5.14 13.07
11/5/2021 3:00:00 PM 6.04 42.872 0.198 7.53 5.15 13.06
11/5/2021 3:15:00 PM 6.03 42.854 0.199 7.53 5.11 13.05
11/5/2021 3:30:00 PM 6.02 42.836 0.199 7.53 5.3 13.05
11/5/2021 3:45:00 PM 5.99 42.782 0.199 7.52 5.46 13.04
11/5/2021 4:00:00 PM 5.94 42.692 0.199 7.53 5.62 13.02
11/5/2021 4:15:00 PM 5.88 42.584 0.199 7.52 5.15 13.01
11/5/2021 4:30:00 PM 5.79 42.422 0.2 7.52 5.21 13
11/5/2021 4:45:00 PM 5.68 42.224 0.199 7.52 5.35 12.98
11/5/2021 5:00:00 PM 5.58 42.044 0.199 7.52 5.43 12.97
11/5/2021 5:15:00 PM 5.5 41.9 0.2 7.52 5.25 12.94
11/5/2021 5:30:00 PM 5.43 41.774 0.2 7.52 5.29 12.91
11/5/2021 5:45:00 PM 5.39 41.702 0.2 7.51 5.16 12.89
11/5/2021 6:00:00 PM 5.36 41.648 0.2 7.5 5.33 12.87
11/5/2021 6:15:00 PM 5.32 41.576 0.2 7.49 5.19 12.84
11/5/2021 6:30:00 PM 5.28 41.504 0.2 7.49 5.22 12.8
11/5/2021 6:45:00 PM 5.24 41.432 0.2 7.48 5.17 12.78
11/5/2021 7:00:00 PM 5.19 41.342 0.2 7.49 5.61 12.76
11/5/2021 7:15:00 PM 5.15 41.27 0.2 7.47 5.68 12.75
11/5/2021 7:30:00 PM 5.1 41.18 0.202 7.47 5.57 12.73
11/5/2021 7:45:00 PM 5.06 41.108 0.201 7.47 5.58 12.72
11/5/2021 8:00:00 PM 5.02 41.036 0.2 7.46 5.76 12.72
11/5/2021 8:15:00 PM 4.99 40.982 0.201 7.47 5.44 12.72
11/5/2021 8:30:00 PM 4.95 40.91 0.201 7.46 5.68 12.72
11/5/2021 8:45:00 PM 4.92 40.856 0.2 7.46 5.36 12.73
11/5/2021 9:00:00 PM 4.89 40.802 0.201 7.47 5.53 12.73
11/5/2021 9:15:00 PM 4.86 40.748 0.201 7.45 5.47 12.73
11/5/2021 9:30:00 PM 4.84 40.712 0.201 7.47 5.52 12.73
11/5/2021 9:45:00 PM 4.81 40.658 0.201 7.46 5.17 12.73
11/5/2021 10:00:00 PM 4.78 40.604 0.201 7.46 5.37 12.74
11/5/2021 10:15:00 PM 4.75 40.55 0.201 7.48 5.48 12.74
11/5/2021 10:30:00 PM 4.72 40.496 0.201 7.45 5.72 12.74
11/5/2021 10:45:00 PM 4.7 40.46 0.201 7.45 5.59 12.74
11/5/2021 11:00:00 PM 4.67 40.406 0.201 7.46 5.43 12.74
11/5/2021 11:15:00 PM 4.65 40.37 0.201 7.47 5.39 12.74
11/5/2021 11:30:00 PM 4.62 40.316 0.201 7.45 5.51 12.74
11/5/2021 11:45:00 PM 4.59 40.262 0.201 7.48 5.54 12.74
11/6/2021 12:00:00 AM 4.57 40.226 0.201 7.45 5.46 12.74
11/6/2021 12:15:00 AM 4.54 40.172 0.201 7.45 5.34 12.74
11/6/2021 12:30:00 AM 4.51 40.118 0.201 7.45 5.16 12.74
11/6/2021 12:45:00 AM 4.48 40.064 0.202 7.45 5.56 12.75
11/6/2021 1:00:00 AM 4.45 40.01 0.201 7.45 5.33 12.75
11/6/2021 1:15:00 AM 4.42 39.956 0.202 7.47 5.28 12.75
11/6/2021 1:30:00 AM 4.39 39.902 0.201 7.44 5.49 12.75
11/6/2021 1:45:00 AM 4.36 39.848 0.201 7.45 5.39 12.76
11/6/2021 2:00:00 AM 4.33 39.794 0.202 7.44 5.41 12.78
11/6/2021 2:15:00 AM 4.29 39.722 0.202 7.45 5.6 12.79
11/6/2021 2:30:00 AM 4.26 39.668 0.202 7.46 5.46 12.8
11/6/2021 2:45:00 AM 4.23 39.614 0.202 7.45 5.56 12.81
11/6/2021 3:00:00 AM 4.2 39.56 0.202 7.47 5.49 12.82
11/6/2021 3:15:00 AM 4.17 39.506 0.203 7.45 5.37 12.83
11/6/2021 3:30:00 AM 4.14 39.452 0.202 7.45 5.69 12.84
11/6/2021 3:45:00 AM 4.11 39.398 0.202 7.45 5.83 12.85
11/6/2021 4:00:00 AM 4.08 39.344 0.202 7.47 5.72 12.85
11/6/2021 4:15:00 AM 4.04 39.272 0.202 7.44 5.4 12.86
11/6/2021 4:30:00 AM 4.01 39.218 0.204 7.44 5.37 12.86
11/6/2021 4:45:00 AM 3.98 39.164 0.203 7.47 5.55 12.86
11/6/2021 5:00:00 AM 3.95 39.11 0.203 7.45 5.37 12.87
11/6/2021 5:15:00 AM 3.91 39.038 0.202 7.45 5.51 12.87
11/6/2021 5:30:00 AM 3.88 38.984 0.203 7.45 5.78 12.88
11/6/2021 5:45:00 AM 3.84 38.912 0.203 7.45 5.27 12.89
11/6/2021 6:00:00 AM 3.81 38.858 0.202 7.45 5.46 12.91
11/6/2021 6:15:00 AM 3.77 38.786 0.203 7.46 5.36 12.91
11/6/2021 6:30:00 AM 3.74 38.732 0.203 7.45 5.52 12.93
11/6/2021 6:45:00 AM 3.71 38.678 0.203 7.45 5.5 12.95
11/6/2021 7:00:00 AM 3.67 38.606 0.203 7.45 5.56 12.97
11/6/2021 7:15:00 AM 3.64 38.552 0.203 7.47 5.41 12.98
11/6/2021 7:30:00 AM 3.61 38.498 0.203 7.46 5.89 13
11/6/2021 7:45:00 AM 3.57 38.426 0.203 7.45 5.51 13.01
11/6/2021 8:00:00 AM 3.54 38.372 0.203 7.45 5.79 13.03
11/6/2021 8:15:00 AM 3.52 38.336 0.204 7.46 6.76 13.05
11/6/2021 8:30:00 AM 3.49 38.282 0.203 7.43 6.76 13.07
11/6/2021 8:45:00 AM 3.48 38.264 0.204 7.42 5.85 13.1
11/6/2021 9:00:00 AM 3.47 38.246 0.204 7.42 5.47 13.14
11/6/2021 9:15:00 AM 3.48 38.264 0.204 7.43 5.46 13.17
11/6/2021 9:30:00 AM 3.49 38.282 0.204 7.42 5.41 13.21
11/6/2021 9:45:00 AM 3.51 38.318 0.204 7.42 5.38 13.24
11/6/2021 10:00:00 AM 3.58 38.444 0.203 7.43 5.53 13.28
11/6/2021 10:15:00 AM 3.68 38.624 0.203 7.44 5.11 13.31
11/6/2021 10:30:00 AM 3.81 38.858 0.204 7.46 5.41 13.33
11/6/2021 10:45:00 AM 3.94 39.092 0.204 7.47 5.27 13.33
11/6/2021 11:00:00 AM 4.08 39.344 0.203 7.47 5.39 13.33
11/6/2021 11:15:00 AM 4.23 39.614 0.204 7.49 5.26 13.34
11/6/2021 11:30:00 AM 4.39 39.902 0.204 7.5 5.28 13.36
11/6/2021 11:45:00 AM 4.54 40.172 0.204 7.49 5.39 13.35
11/6/2021 12:00:00 PM 4.69 40.442 0.204 7.49 5.23 13.32
11/6/2021 12:15:00 PM 4.83 40.694 0.204 7.5 5.26 13.31
11/6/2021 12:30:00 PM 4.96 40.928 0.204 7.49 5.41 13.31
11/6/2021 12:45:00 PM 5.07 41.126 0.204 7.5 5.26 13.31
11/6/2021 1:00:00 PM 5.19 41.342 0.204 7.5 5.12 13.31
11/6/2021 1:15:00 PM 5.28 41.504 0.204 7.5 5.32 13.3
11/6/2021 1:30:00 PM 5.37 41.666 0.204 7.5 5.38 13.28
11/6/2021 1:45:00 PM 5.45 41.81 0.204 7.51 5.29 13.27
11/6/2021 2:00:00 PM 5.51 41.918 0.204 7.5 4.98 13.27
11/6/2021 2:15:00 PM 5.57 42.026 0.204 7.5 5.25 13.26
11/6/2021 2:30:00 PM 5.61 42.098 0.204 7.52 4.99 13.25
11/6/2021 2:45:00 PM 5.63 42.134 0.204 7.51 5.15 13.25
11/6/2021 3:00:00 PM 5.64 42.152 0.203 7.5 5.02 13.24
11/6/2021 3:15:00 PM 5.63 42.134 0.204 7.51 5.24 13.23
11/6/2021 3:30:00 PM 5.61 42.098 0.205 7.51 5.37 13.23
11/6/2021 3:45:00 PM 5.58 42.044 0.204 7.5 5.09 13.21
11/6/2021 4:00:00 PM 5.52 41.936 0.204 7.5 5.16 13.2
11/6/2021 4:15:00 PM 5.45 41.81 0.205 7.5 4.93 13.18
11/6/2021 4:30:00 PM 5.36 41.648 0.205 7.51 5.14 13.16
11/6/2021 4:45:00 PM 5.25 41.45 0.205 7.51 5.05 13.14
11/6/2021 5:00:00 PM 5.13 41.234 0.205 7.5 5.48 13.12
11/6/2021 5:15:00 PM 5.04 41.072 0.205 7.5 5.14 13.1
11/6/2021 5:30:00 PM 4.97 40.946 0.205 7.5 5.4 13.07
11/6/2021 5:45:00 PM 4.92 40.856 0.205 7.5 5.12 13.05
11/6/2021 6:00:00 PM 4.88 40.784 0.205 7.48 5.11 13.02
11/6/2021 6:15:00 PM 4.84 40.712 0.205 7.48 5.29 13
11/6/2021 6:30:00 PM 4.8 40.64 0.205 7.49 5.25 12.97
11/6/2021 6:45:00 PM 4.76 40.568 0.205 7.47 5.25 12.94
11/6/2021 7:00:00 PM 4.72 40.496 0.205 7.46 5.37 12.92
11/6/2021 7:15:00 PM 4.68 40.424 0.206 7.46 5.52 12.9
11/6/2021 7:30:00 PM 4.63 40.334 0.206 7.46 5.4 12.89
11/6/2021 7:45:00 PM 4.59 40.262 0.206 7.47 5.28 12.88
11/6/2021 8:00:00 PM 4.55 40.19 0.206 7.47 5.56 12.87
11/6/2021 8:15:00 PM 4.51 40.118 0.206 7.46 5.74 12.87
11/6/2021 8:30:00 PM 4.47 40.046 0.206 7.47 5.84 12.88
11/6/2021 8:45:00 PM 4.44 39.992 0.206 7.45 5.66 12.88
11/6/2021 9:00:00 PM 4.41 39.938 0.206 7.46 5.51 12.88
11/6/2021 9:15:00 PM 4.39 39.902 0.207 7.45 5.55 12.88
11/6/2021 9:30:00 PM 4.36 39.848 0.206 7.45 5.43 12.89
11/6/2021 9:45:00 PM 4.33 39.794 0.206 7.47 5.59 12.89
11/6/2021 10:00:00 PM 4.3 39.74 0.206 7.45 5.23 12.89
11/6/2021 10:15:00 PM 4.27 39.686 0.206 7.45 5.36 12.89
11/6/2021 10:30:00 PM 4.24 39.632 0.206 7.45 5.35 12.89
11/6/2021 10:45:00 PM 4.21 39.578 0.207 7.45 5.68 12.9
11/6/2021 11:00:00 PM 4.18 39.524 0.207 7.45 5.63 12.9
11/6/2021 11:15:00 PM 4.15 39.47 0.206 7.46 5.43 12.9
11/6/2021 11:30:00 PM 4.12 39.416 0.206 7.45 5.37 12.9
11/6/2021 11:45:00 PM 4.09 39.362 0.207 7.45 5.4 12.89
11/7/2021 12:00:00 AM 4.06 39.308 0.207 7.45 5.52 12.89
11/7/2021 12:15:00 AM 4.03 39.254 0.206 7.47 5.46 12.89
11/7/2021 12:30:00 AM 4 39.2 0.207 7.46 5.4 12.89
11/7/2021 12:45:00 AM 3.97 39.146 0.206 7.45 5.35 12.9
11/7/2021 1:00:00 AM 3.95 39.11 0.207 7.45 5.65 12.9
11/7/2021 1:15:00 AM 3.92 39.056 0.207 7.45 5.47 12.9
11/7/2021 1:30:00 AM 3.89 39.002 0.207 7.46 5.48 12.91
11/7/2021 1:45:00 AM 3.87 38.966 0.207 7.45 5.31 12.91
11/7/2021 2:00:00 AM 3.84 38.912 0.208 7.45 5.35 12.92
11/7/2021 2:15:00 AM 3.81 38.858 0.207 7.45 5.48 12.93
11/7/2021 2:30:00 AM 3.79 38.822 0.208 7.44 5.22 12.93
11/7/2021 2:45:00 AM 3.76 38.768 0.208 7.46 5.41 12.93
11/7/2021 3:00:00 AM 3.73 38.714 0.207 7.47 5.53 12.94
11/7/2021 3:15:00 AM 3.71 38.678 0.206 7.45 5.48 12.96
11/7/2021 3:30:00 AM 3.58 38.444 0.207 7.47 5.16 12.99
11/7/2021 3:45:00 AM 3.55 38.39 0.208 7.44 5.48 12.99
11/7/2021 4:00:00 AM 3.52 38.336 0.208 7.45 5.38 13
11/7/2021 4:15:00 AM 3.5 38.3 0.208 7.44 5.28 13
11/7/2021 4:30:00 AM 3.47 38.246 0.208 7.45 5.38 13
11/7/2021 4:45:00 AM 3.44 38.192 0.208 7.45 5.54 13
11/7/2021 5:00:00 AM 3.41 38.138 0.207 7.45 5.44 13.01
11/7/2021 5:15:00 AM 3.38 38.084 0.209 7.45 5.36 13.01
11/7/2021 5:30:00 AM 3.36 38.048 0.208 7.45 5.39 13.02
11/7/2021 5:45:00 AM 3.33 37.994 0.208 7.45 5.38 13.02
11/7/2021 6:00:00 AM 3.3 37.94 0.208 7.47 5.56 13.04
11/7/2021 6:15:00 AM 3.28 37.904 0.208 7.46 5.49 13.05
11/7/2021 6:30:00 AM 3.25 37.85 0.207 7.45 5.51 13.06
11/7/2021 6:45:00 AM 3.22 37.796 0.208 7.46 5.57 13.07
11/7/2021 7:00:00 AM 3.19 37.742 0.208 7.46 5.41 13.09
11/7/2021 7:15:00 AM 3.17 37.706 0.208 7.45 5.6 13.12
11/7/2021 7:30:00 AM 3.15 37.67 0.208 7.45 5.38 13.15
11/7/2021 7:45:00 AM 3.14 37.652 0.208 7.46 5.3 13.18
11/7/2021 8:00:00 AM 3.14 37.652 0.208 7.46 5.43 13.22
11/7/2021 8:15:00 AM 3.15 37.67 0.208 7.47 5.25 13.25
11/7/2021 8:30:00 AM 3.17 37.706 0.208 7.47 5.4 13.29
11/7/2021 8:45:00 AM 3.2 37.76 0.208 7.48 5.46 13.31
11/7/2021 9:00:00 AM 3.27 37.886 0.208 7.48 5.42 13.34
11/7/2021 9:15:00 AM 3.37 38.066 0.208 7.48 5.44 13.36
11/7/2021 9:30:00 AM 3.5 38.3 0.208 7.47 5.38 13.39
11/7/2021 9:45:00 AM 3.65 38.57 0.209 7.48 5.33 13.42
11/7/2021 10:00:00 AM 3.81 38.858 0.208 7.49 5.32 13.44
11/7/2021 10:15:00 AM 3.97 39.146 0.209 7.49 5.3 13.44
11/7/2021 10:30:00 AM 4.14 39.452 0.208 7.49 5.13 13.42
11/7/2021 10:45:00 AM 4.32 39.776 0.209 7.49 5.4 13.4
11/7/2021 11:00:00 AM 4.49 40.082 0.208 7.5 5.47 13.41
11/7/2021 11:15:00 AM 4.64 40.352 0.208 7.5 5.41 13.41
11/7/2021 11:30:00 AM 4.78 40.604 0.209 7.5 7.02 13.4
11/7/2021 11:45:00 AM 4.92 40.856 0.209 7.5 6.01 13.37
11/7/2021 12:00:00 PM 5.04 41.072 0.209 7.5 5.77 13.36
11/7/2021 12:15:00 PM 5.16 41.288 0.21 7.52 5.73 13.37
11/7/2021 12:30:00 PM 5.25 41.45 0.208 7.51 5.43 13.36
11/7/2021 12:45:00 PM 5.34 41.612 0.208 7.51 5.87 13.34
11/7/2021 1:00:00 PM 5.41 41.738 0.209 7.52 6.03 13.32
11/7/2021 1:15:00 PM 5.48 41.864 0.209 7.51 5.56 13.31
11/7/2021 1:30:00 PM 5.53 41.954 0.21 7.5 5.46 13.29
11/7/2021 1:45:00 PM 5.56 42.008 0.209 7.51 5.42 13.28
11/7/2021 2:00:00 PM 5.57 42.026 0.209 7.51 5.35 13.26
11/7/2021 2:15:00 PM 5.57 42.026 0.21 7.51 5.14 13.25
11/7/2021 2:30:00 PM 5.55 41.99 0.209 7.51 5.16 13.24
11/7/2021 2:45:00 PM 5.52 41.936 0.21 7.51 5.32 13.22
11/7/2021 3:00:00 PM 5.47 41.846 0.209 7.5 5.44 13.2
11/7/2021 3:15:00 PM 5.41 41.738 0.208 7.5 5.34 13.19
11/7/2021 3:30:00 PM 5.33 41.594 0.21 7.51 5.16 13.18
11/7/2021 3:45:00 PM 5.22 41.396 0.21 7.5 5.23 13.16
11/7/2021 4:00:00 PM 5.1 41.18 0.21 7.5 5.19 13.14
11/7/2021 4:15:00 PM 5.01 41.018 0.21 7.49 5.44 13.11
11/7/2021 4:30:00 PM 4.94 40.892 0.21 7.5 5.14 13.07
11/7/2021 4:45:00 PM 4.9 40.82 0.21 7.49 5.17 13.04
11/7/2021 5:00:00 PM 4.86 40.748 0.21 7.48 5.26 13.01
11/7/2021 5:15:00 PM 4.83 40.694 0.21 7.48 5.32 12.98
11/7/2021 5:30:00 PM 4.79 40.622 0.21 7.47 5.49 12.94
11/7/2021 5:45:00 PM 4.76 40.568 0.211 7.47 5.3 12.92
11/7/2021 6:00:00 PM 4.72 40.496 0.211 7.46 5.16 12.9
11/7/2021 6:15:00 PM 4.68 40.424 0.211 7.47 5.38 12.88
11/7/2021 6:30:00 PM 4.64 40.352 0.211 7.46 5.8 12.87
11/7/2021 6:45:00 PM 4.6 40.28 0.211 7.46 5.6 12.87
11/7/2021 7:00:00 PM 4.57 40.226 0.212 7.46 5.87 12.86
11/7/2021 7:15:00 PM 4.53 40.154 0.211 7.45 5.78 12.87
11/7/2021 7:30:00 PM 4.5 40.1 0.21 7.46 6.3 12.87
11/7/2021 7:45:00 PM 4.47 40.046 0.21 7.46 5.71 12.87
11/7/2021 8:00:00 PM 4.44 39.992 0.211 7.47 5.95 12.87
11/7/2021 8:15:00 PM 4.42 39.956 0.21 7.46 5.82 12.87
11/7/2021 8:30:00 PM 4.4 39.92 0.211 7.46 5.86 12.87
11/7/2021 8:45:00 PM 4.39 39.902 0.211 7.46 5.62 12.87
11/7/2021 9:00:00 PM 4.37 39.866 0.211 7.46 5.59 12.87
11/7/2021 9:15:00 PM 4.36 39.848 0.212 7.46 5.5 12.86
11/7/2021 9:30:00 PM 4.35 39.83 0.212 7.46 5.66 12.86
11/7/2021 9:45:00 PM 4.33 39.794 0.211 7.45 5.55 12.86
11/7/2021 10:00:00 PM 4.31 39.758 0.212 7.45 5.54 12.86
11/7/2021 10:15:00 PM 4.3 39.74 0.212 7.46 5.45 12.85
11/7/2021 10:30:00 PM 4.27 39.686 0.213 7.46 5.7 12.85
11/7/2021 10:45:00 PM 4.25 39.65 0.211 7.46 5.65 12.85
11/7/2021 11:00:00 PM 4.23 39.614 0.212 7.45 5.46 12.84
11/7/2021 11:15:00 PM 4.21 39.578 0.212 7.46 5.51 12.84
11/7/2021 11:30:00 PM 4.19 39.542 0.212 7.46 5.78 12.83
11/7/2021 11:45:00 PM 4.17 39.506 0.212 7.46 5.76 12.83
11/8/2021 12:00:00 AM 4.15 39.47 0.212 7.45 5.52 12.82
11/8/2021 12:15:00 AM 4.14 39.452 0.212 7.45 5.59 12.82
11/8/2021 12:30:00 AM 4.12 39.416 0.212 7.44 5.41 12.81
11/8/2021 12:45:00 AM 4.1 39.38 0.212 7.45 5.73 12.82
11/8/2021 1:00:00 AM 4.08 39.344 0.212 7.45 5.53 12.82
11/8/2021 1:15:00 AM 4.06 39.308 0.212 7.45 5.41 12.82
11/8/2021 1:30:00 AM 4.04 39.272 0.212 7.45 5.52 12.82
11/8/2021 1:45:00 AM 4.02 39.236 0.213 7.44 5.62 12.83
11/8/2021 2:00:00 AM 4 39.2 0.213 7.45 5.36 12.83
11/8/2021 2:15:00 AM 3.98 39.164 0.213 7.46 5.75 12.84
11/8/2021 2:30:00 AM 3.97 39.146 0.212 7.45 5.5 12.85
11/8/2021 2:45:00 AM 3.95 39.11 0.212 7.44 5.54 12.85
11/8/2021 3:00:00 AM 3.93 39.074 0.213 7.45 5.67 12.86
11/8/2021 3:15:00 AM 3.91 39.038 0.213 7.45 5.55 12.87
11/8/2021 3:30:00 AM 3.89 39.002 0.213 7.45 5.62 12.87
11/8/2021 3:45:00 AM 3.88 38.984 0.213 7.45 5.6 12.87
11/8/2021 4:00:00 AM 3.86 38.948 0.213 7.45 5.89 12.88
11/8/2021 4:15:00 AM 3.84 38.912 0.213 7.45 5.54 12.89
11/8/2021 4:30:00 AM 3.82 38.876 0.213 7.45 5.65 12.89
11/8/2021 4:45:00 AM 3.8 38.84 0.214 7.45 5.49 12.9
11/8/2021 5:00:00 AM 3.78 38.804 0.214 7.45 5.49 12.91
11/8/2021 5:15:00 AM 3.77 38.786 0.214 7.44 5.5 12.91
11/8/2021 5:30:00 AM 3.75 38.75 0.213 7.44 5.85 12.92
11/8/2021 5:45:00 AM 3.73 38.714 0.212 7.44 5.93 12.92
11/8/2021 6:00:00 AM 3.72 38.696 0.213 7.45 5.83 12.92
11/8/2021 6:15:00 AM 3.7 38.66 0.214 7.45 5.65 12.93
11/8/2021 6:30:00 AM 3.68 38.624 0.214 7.44 5.71 12.93
11/8/2021 6:45:00 AM 3.67 38.606 0.214 7.45 5.68 12.93
11/8/2021 7:00:00 AM 3.65 38.57 0.215 7.44 6.34 12.94
11/8/2021 7:15:00 AM 3.64 38.552 0.213 7.45 5.41 12.96
11/8/2021 7:30:00 AM 3.64 38.552 0.214 7.45 5.52 12.98
11/8/2021 7:45:00 AM 3.63 38.534 0.214 7.45 5.5 13
11/8/2021 8:00:00 AM 3.64 38.552 0.214 7.45 5.46 13.04
11/8/2021 8:15:00 AM 3.67 38.606 0.214 7.45 5.43 13.08
11/8/2021 8:30:00 AM 3.69 38.642 0.215 7.46 5.27 13.12
11/8/2021 8:45:00 AM 3.74 38.732 0.214 7.46 5.3 13.15
11/8/2021 9:00:00 AM 3.81 38.858 0.214 7.46 5.2 13.19
11/8/2021 9:15:00 AM 3.94 39.092 0.214 7.46 5.1 13.23
11/8/2021 9:30:00 AM 4.1 39.38 0.214 7.47 5.01 13.25
11/8/2021 9:45:00 AM 4.26 39.668 0.214 7.48 5.4 13.25
11/8/2021 10:00:00 AM 4.43 39.974 0.214 7.48 5.33 13.26
11/8/2021 10:15:00 AM 4.6 40.28 0.214 7.49 5.38 13.28
11/8/2021 10:30:00 AM 4.79 40.622 0.214 7.5 5.59 13.28
11/8/2021 10:45:00 AM 4.97 40.946 0.214 7.49 5.28 13.25
11/8/2021 11:00:00 AM 5.16 41.288 0.213 7.49 5.16 13.24
11/8/2021 11:15:00 AM 5.33 41.594 0.214 7.49 5.33 13.25
11/8/2021 11:30:00 AM 5.49 41.882 0.214 7.51 5.23 13.24
11/8/2021 11:45:00 AM 5.65 42.17 0.214 7.51 5.34 13.21
11/8/2021 12:00:00 PM 5.8 42.44 0.214 7.5 5.11 13.21
11/8/2021 12:15:00 PM 5.93 42.674 0.214 7.5 5.32 13.2
11/8/2021 12:30:00 PM 6.06 42.908 0.214 7.51 5.26 13.19
11/8/2021 12:45:00 PM 6.18 43.124 0.213 7.52 5.34 13.17
11/8/2021 1:00:00 PM 6.29 43.322 0.214 7.51 5.46 13.15
11/8/2021 1:15:00 PM 6.38 43.484 0.214 7.52 5.34 13.13
11/8/2021 1:30:00 PM 6.44 43.592 0.214 7.51 5.37 13.12
11/8/2021 1:45:00 PM 6.49 43.682 0.214 7.51 5.43 13.11
11/8/2021 2:00:00 PM 6.52 43.736 0.214 7.53 5.3 13.09
11/8/2021 2:15:00 PM 6.53 43.754 0.214 7.51 5.15 13.07
11/8/2021 2:30:00 PM 6.52 43.736 0.214 7.53 5.25 13.06
11/8/2021 2:45:00 PM 6.49 43.682 0.215 7.51 5.22 13.04
11/8/2021 3:00:00 PM 6.45 43.61 0.214 7.53 5.21 13.02
11/8/2021 3:15:00 PM 6.39 43.502 0.214 7.52 5.06 13
11/8/2021 3:30:00 PM 6.29 43.322 0.214 7.51 5.13 12.98
11/8/2021 3:45:00 PM 6.19 43.142 0.214 7.51 5.24 12.94
11/8/2021 4:00:00 PM 6.07 42.926 0.214 7.52 5.39 12.89
11/8/2021 4:15:00 PM 5.97 42.746 0.214 7.5 5.19 12.85
11/8/2021 4:30:00 PM 5.89 42.602 0.215 7.51 5.21 12.81
11/8/2021 4:45:00 PM 5.82 42.476 0.215 7.49 5.58 12.77
11/8/2021 5:00:00 PM 5.78 42.404 0.215 7.48 5.28 12.74
11/8/2021 5:15:00 PM 5.74 42.332 0.215 7.48 5.18 12.71
11/8/2021 5:30:00 PM 5.7 42.26 0.215 7.47 5.37 12.68
11/8/2021 5:45:00 PM 5.67 42.206 0.215 7.47 5.35 12.65
11/8/2021 6:00:00 PM 5.64 42.152 0.215 7.46 5.51 12.63
11/8/2021 6:15:00 PM 5.6 42.08 0.215 7.47 5.89 12.61
11/8/2021 6:30:00 PM 5.57 42.026 0.215 7.45 5.88 12.59
11/8/2021 6:45:00 PM 5.53 41.954 0.215 7.47 5.66 12.58
11/8/2021 7:00:00 PM 5.49 41.882 0.216 7.46 5.61 12.57
11/8/2021 7:15:00 PM 5.46 41.828 0.216 7.46 5.75 12.56
11/8/2021 7:30:00 PM 5.42 41.756 0.216 7.45 5.79 12.55
11/8/2021 7:45:00 PM 5.39 41.702 0.216 7.45 5.71 12.55
11/8/2021 8:00:00 PM 5.36 41.648 0.216 7.46 6.01 12.54
11/8/2021 8:15:00 PM 5.34 41.612 0.217 7.45 5.75 12.53
11/8/2021 8:30:00 PM 5.32 41.576 0.217 7.45 6.15 12.53
11/8/2021 8:45:00 PM 5.3 41.54 0.216 7.45 5.94 12.52
11/8/2021 9:00:00 PM 5.28 41.504 0.216 7.46 5.84 12.52
11/8/2021 9:15:00 PM 5.27 41.486 0.216 7.45 5.7 12.52
11/8/2021 9:30:00 PM 5.26 41.468 0.216 7.45 5.98 12.51
11/8/2021 9:45:00 PM 5.24 41.432 0.217 7.46 5.44 12.51
11/8/2021 10:00:00 PM 5.22 41.396 0.216 7.46 5.94 12.51
11/8/2021 10:15:00 PM 5.2 41.36 0.217 7.45 5.52 12.51
11/8/2021 10:30:00 PM 5.18 41.324 0.216 7.44 5.55 12.51
11/8/2021 10:45:00 PM 5.17 41.306 0.216 7.45 5.73 12.51
11/8/2021 11:00:00 PM 5.14 41.252 0.216 7.45 5.57 12.51
11/8/2021 11:15:00 PM 5.12 41.216 0.216 7.45 5.62 12.52
11/8/2021 11:30:00 PM 5.1 41.18 0.216 7.46 5.73 12.51
11/8/2021 11:45:00 PM 5.08 41.144 0.216 7.44 5.75 12.52
11/9/2021 12:00:00 AM 5.06 41.108 0.217 7.45 5.35 12.52
11/9/2021 12:15:00 AM 5.04 41.072 0.216 7.45 5.61 12.52
11/9/2021 12:30:00 AM 5.03 41.054 0.216 7.46 5.79 12.52
11/9/2021 12:45:00 AM 5.01 41.018 0.217 7.45 5.84 12.52
11/9/2021 1:00:00 AM 4.99 40.982 0.217 7.44 5.79 12.52
11/9/2021 1:15:00 AM 4.98 40.964 0.217 7.45 6.32 12.51
11/9/2021 1:30:00 AM 4.96 40.928 0.216 7.46 5.65 12.51
11/9/2021 1:45:00 AM 4.94 40.892 0.217 7.45 5.65 12.51
11/9/2021 2:00:00 AM 4.93 40.874 0.217 7.47 5.67 12.51
11/9/2021 2:15:00 AM 4.92 40.856 0.217 7.45 8.71 12.51
11/9/2021 2:30:00 AM 4.9 40.82 0.218 7.45 5.7 12.51
11/9/2021 2:45:00 AM 4.89 40.802 0.216 7.45 5.56 12.51
11/9/2021 3:00:00 AM 4.87 40.766 0.217 7.45 5.62 12.51
11/9/2021 3:15:00 AM 4.86 40.748 0.216 7.44 5.56 12.5
11/9/2021 3:30:00 AM 4.85 40.73 0.216 7.44 5.66 12.51
11/9/2021 3:45:00 AM 4.86 40.748 0.217 7.47 5.61 12.5
11/9/2021 4:00:00 AM 4.86 40.748 0.217 7.45 5.83 12.5
11/9/2021 4:15:00 AM 4.87 40.766 0.217 7.45 5.62 12.5
11/9/2021 4:30:00 AM 4.88 40.784 0.217 7.44 5.74 12.5
11/9/2021 4:45:00 AM 4.89 40.802 0.217 7.44 5.65 12.5
11/9/2021 5:00:00 AM 4.89 40.802 0.218 7.45 5.72 12.5
11/9/2021 5:15:00 AM 4.88 40.784 0.218 7.44 5.88 12.49
11/9/2021 5:30:00 AM 4.88 40.784 0.219 7.44 6.07 12.5
11/9/2021 5:45:00 AM 4.88 40.784 0.218 7.45 5.6 12.49
11/9/2021 6:00:00 AM 4.89 40.802 0.217 7.44 5.86 12.49
11/9/2021 6:15:00 AM 4.88 40.784 0.218 7.43 5.77 12.49
11/9/2021 6:30:00 AM 4.88 40.784 0.217 7.44 5.66 12.49
11/9/2021 6:45:00 AM 4.86 40.748 0.217 7.44 5.79 12.48
11/9/2021 7:00:00 AM 4.84 40.712 0.217 7.44 5.64 12.5
11/9/2021 7:15:00 AM 4.83 40.694 0.218 7.44 5.6 12.51
11/9/2021 7:30:00 AM 4.82 40.676 0.218 7.44 5.78 12.53
11/9/2021 7:45:00 AM 4.82 40.676 0.217 7.44 5.71 12.55
11/9/2021 8:00:00 AM 4.83 40.694 0.218 7.45 5.67 12.58
11/9/2021 8:15:00 AM 4.85 40.73 0.218 7.45 5.72 12.63
11/9/2021 8:30:00 AM 4.89 40.802 0.218 7.46 5.57 12.66
11/9/2021 8:45:00 AM 4.94 40.892 0.217 7.45 5.61 12.7
11/9/2021 9:00:00 AM 5.02 41.036 0.218 7.46 5.61 12.74
11/9/2021 9:15:00 AM 5.14 41.252 0.218 7.47 5.57 12.79
11/9/2021 9:30:00 AM 5.29 41.522 0.218 7.48 5.59 12.82
11/9/2021 9:45:00 AM 5.45 41.81 0.218 7.48 5.37 12.84
11/9/2021 10:00:00 AM 5.62 42.116 0.218 7.51 5.45 12.86
11/9/2021 10:15:00 AM 5.8 42.44 0.218 7.49 5.61 12.88
11/9/2021 10:30:00 AM 5.99 42.782 0.218 7.5 5.75 12.88
11/9/2021 10:45:00 AM 6.17 43.106 0.218 7.5 7.04 12.87
11/9/2021 11:00:00 AM 6.36 43.448 0.218 7.51 5.4 12.88
11/9/2021 11:15:00 AM 6.54 43.772 0.219 7.51 5.53 12.88
11/9/2021 11:30:00 AM 6.7 44.06 0.218 7.5 5.32 12.86
11/9/2021 11:45:00 AM 6.87 44.366 0.218 7.51 5.41 12.86
11/9/2021 12:00:00 PM 7.01 44.618 0.218 7.53 5.56 12.85
11/9/2021 12:15:00 PM 7.15 44.87 0.219 7.52 5.57 12.83
11/9/2021 12:30:00 PM 7.28 45.104 0.218 7.51 5.56 12.81
11/9/2021 12:45:00 PM 7.4 45.32 0.219 7.51 5.65 12.8
11/9/2021 1:00:00 PM 7.49 45.482 0.219 7.52 5.63 12.79
11/9/2021 1:15:00 PM 7.57 45.626 0.218 7.53 5.69 12.77
11/9/2021 1:30:00 PM 7.63 45.734 0.219 7.51 5.57 12.74
11/9/2021 1:45:00 PM 7.67 45.806 0.219 7.51 5.68 12.73
11/9/2021 2:00:00 PM 7.69 45.842 0.219 7.52 5.66 12.71
11/9/2021 2:15:00 PM 7.69 45.842 0.219 7.52 5.43 12.7
11/9/2021 2:30:00 PM 7.66 45.788 0.219 7.51 5.51 12.68
11/9/2021 2:45:00 PM 7.65 45.77 0.218 7.52 5.6 12.66
11/9/2021 3:00:00 PM 7.6 45.68 0.219 7.53 5.35 12.65
11/9/2021 3:15:00 PM 7.53 45.554 0.219 7.51 5.35 12.63
11/9/2021 3:30:00 PM 7.45 45.41 0.219 7.52 5.51 12.6
11/9/2021 3:45:00 PM 7.33 45.194 0.219 7.51 5.46 12.56
11/9/2021 4:00:00 PM 7.22 44.996 0.219 7.51 5.57 12.52
11/9/2021 4:15:00 PM 7.14 44.852 0.219 7.5 7.08 12.47
11/9/2021 4:30:00 PM 7.08 44.744 0.219 7.5 5.59 12.42
11/9/2021 4:45:00 PM 7.04 44.672 0.219 7.49 5.47 12.37
11/9/2021 5:00:00 PM 7.01 44.618 0.219 7.48 5.49 12.31
11/9/2021 5:15:00 PM 6.98 44.564 0.22 7.49 5.41 12.25
11/9/2021 5:30:00 PM 6.95 44.51 0.219 7.48 5.51 12.21
11/9/2021 5:45:00 PM 6.92 44.456 0.219 7.47 5.69 12.17
11/9/2021 6:00:00 PM 6.9 44.42 0.219 7.47 5.5 12.14
11/9/2021 6:15:00 PM 6.88 44.384 0.22 7.46 5.62 12.11
11/9/2021 6:30:00 PM 6.85 44.33 0.22 7.45 5.61 12.09
11/9/2021 6:45:00 PM 6.82 44.276 0.22 7.45 6.17 12.07
11/9/2021 7:00:00 PM 6.79 44.222 0.22 7.45 5.84 12.06
11/9/2021 7:15:00 PM 6.75 44.15 0.22 7.44 6.14 12.05
11/9/2021 7:30:00 PM 6.72 44.096 0.22 7.45 5.89 12.05
11/9/2021 7:45:00 PM 6.7 44.06 0.221 7.45 5.82 12.05
11/9/2021 8:00:00 PM 6.67 44.006 0.22 7.45 5.82 12.04
11/9/2021 8:15:00 PM 6.66 43.988 0.22 7.45 5.98 12.04
11/9/2021 8:30:00 PM 6.65 43.97 0.221 7.45 5.88 12.04
11/9/2021 8:45:00 PM 6.64 43.952 0.221 7.45 5.81 12.03
11/9/2021 9:00:00 PM 6.63 43.934 0.221 7.45 5.88 12.02
11/9/2021 9:15:00 PM 6.62 43.916 0.221 7.44 5.72 12.02
11/9/2021 9:30:00 PM 6.6 43.88 0.221 7.44 5.68 12.02
11/9/2021 9:45:00 PM 6.58 43.844 0.221 7.44 6.05 12.01
11/9/2021 10:00:00 PM 6.56 43.808 0.22 7.44 5.72 12.01
11/9/2021 10:15:00 PM 6.55 43.79 0.22 7.44 5.79 12.01
11/9/2021 10:30:00 PM 6.53 43.754 0.22 7.45 6.06 12.01
11/9/2021 10:45:00 PM 6.52 43.736 0.219 7.44 5.73 12
11/9/2021 11:00:00 PM 6.5 43.7 0.219 7.44 5.77 12
11/9/2021 11:15:00 PM 6.5 43.7 0.219 7.45 6.26 12
11/9/2021 11:30:00 PM 6.48 43.664 0.219 7.45 5.59 11.99
11/9/2021 11:45:00 PM 6.45 43.61 0.218 7.45 5.79 11.99
11/10/2021 12:00:00 AM 6.44 43.592 0.218 7.45 5.93 11.98
11/10/2021 12:15:00 AM 6.41 43.538 0.218 7.46 6.22 11.98
11/10/2021 12:30:00 AM 6.4 43.52 0.218 7.45 6.32 11.98
11/10/2021 12:45:00 AM 6.41 43.538 0.218 7.44 6.1 11.97
11/10/2021 1:00:00 AM 6.41 43.538 0.218 7.45 6.15 11.97
11/10/2021 1:15:00 AM 6.42 43.556 0.218 7.45 6.02 11.96
11/10/2021 1:30:00 AM 6.42 43.556 0.219 7.45 6.1 11.96
11/10/2021 1:45:00 AM 6.44 43.592 0.218 7.45 6.11 11.95
11/10/2021 2:00:00 AM 6.45 43.61 0.219 7.44 5.95 11.94
11/10/2021 2:15:00 AM 6.48 43.664 0.219 7.44 5.94 11.94
11/10/2021 2:30:00 AM 6.49 43.682 0.219 7.44 5.93 11.93
11/10/2021 2:45:00 AM 6.49 43.682 0.219 7.45 5.97 11.92
11/10/2021 3:00:00 AM 6.48 43.664 0.22 7.44 6.22 11.92
11/10/2021 3:15:00 AM 6.47 43.646 0.22 7.44 5.93 11.91
11/10/2021 3:30:00 AM 6.46 43.628 0.22 7.45 6.25 11.91
11/10/2021 3:45:00 AM 6.45 43.61 0.22 7.45 5.92 11.9
11/10/2021 4:00:00 AM 6.43 43.574 0.22 7.45 5.97 11.9
11/10/2021 4:15:00 AM 6.43 43.574 0.22 7.45 6.09 11.9
11/10/2021 4:30:00 AM 6.43 43.574 0.22 7.44 5.93 11.89
11/10/2021 4:45:00 AM 6.43 43.574 0.22 7.45 6.4 11.89
11/10/2021 5:00:00 AM 6.44 43.592 0.22 7.44 6.1 11.88
11/10/2021 5:15:00 AM 6.45 43.61 0.22 7.44 6.21 11.89
11/10/2021 5:30:00 AM 6.48 43.664 0.22 7.46 6.14 11.88
11/10/2021 5:45:00 AM 6.51 43.718 0.221 7.44 6.07 11.88
11/10/2021 6:00:00 AM 6.55 43.79 0.22 7.43 6.02 11.87
11/10/2021 6:15:00 AM 6.57 43.826 0.221 7.44 6.16 11.87
11/10/2021 6:30:00 AM 6.57 43.826 0.221 7.44 6.14 11.86
11/10/2021 6:45:00 AM 6.6 43.88 0.221 7.44 6.13 11.86
11/10/2021 7:00:00 AM 6.62 43.916 0.221 7.44 5.88 11.86
11/10/2021 7:15:00 AM 6.64 43.952 0.222 7.44 6 11.86
11/10/2021 7:30:00 AM 6.66 43.988 0.222 7.44 5.77 11.87
11/10/2021 7:45:00 AM 6.69 44.042 0.221 7.44 5.78 11.88
11/10/2021 8:00:00 AM 6.72 44.096 0.221 7.45 5.92 11.91
11/10/2021 8:15:00 AM 6.75 44.15 0.222 7.45 5.71 11.95
11/10/2021 8:30:00 AM 6.79 44.222 0.222 7.47 5.75 11.99
11/10/2021 8:45:00 AM 6.84 44.312 0.221 7.48 5.75 12.05
11/10/2021 9:00:00 AM 6.9 44.42 0.221 7.46 5.82 12.11
11/10/2021 9:15:00 AM 7.06 44.708 0.221 7.47 5.87 12.2
11/10/2021 9:30:00 AM 7.12 44.816 0.221 7.48 5.74 12.26
11/10/2021 9:45:00 AM 7.24 45.032 0.221 7.49 5.54 12.31
11/10/2021 10:00:00 AM 7.34 45.212 0.221 7.5 5.75 12.34
11/10/2021 10:15:00 AM 7.47 45.446 0.222 7.5 5.7 12.36
11/10/2021 10:30:00 AM 7.62 45.716 0.221 7.52 6.2 12.39
11/10/2021 10:45:00 AM 7.78 46.004 0.222 7.51 5.91 12.4
11/10/2021 11:00:00 AM 7.95 46.31 0.222 7.52 5.66 12.4
11/10/2021 11:15:00 AM 8.12 46.616 0.222 7.52 5.74 12.42
11/10/2021 11:30:00 AM 8.28 46.904 0.222 7.52 5.62 12.42
11/10/2021 11:45:00 AM 8.43 47.174 0.222 7.53 5.66 12.42
11/10/2021 12:00:00 PM 8.57 47.426 0.222 7.53 6.05 12.43
11/10/2021 12:15:00 PM 8.68 47.624 0.222 7.55 5.8 12.43
11/10/2021 12:30:00 PM 8.79 47.822 0.222 7.54 5.63 12.41
11/10/2021 12:45:00 PM 8.88 47.984 0.222 7.55 5.63 12.41
11/10/2021 1:00:00 PM 8.95 48.11 0.222 7.55 5.53 12.4
11/10/2021 1:15:00 PM 9.01 48.218 0.223 7.55 6.12 12.4
11/10/2021 1:30:00 PM 9.05 48.29 0.222 7.56 5.57 12.38
11/10/2021 1:45:00 PM 9.07 48.326 0.222 7.57 5.72 12.36
11/10/2021 2:00:00 PM 9.08 48.344 0.222 7.55 5.64 12.34
11/10/2021 2:15:00 PM 9.06 48.308 0.223 7.56 5.8 12.33
11/10/2021 2:30:00 PM 9.02 48.236 0.223 7.55 5.95 12.31
11/10/2021 2:45:00 PM 8.96 48.128 0.222 7.55 5.71 12.3
11/10/2021 3:00:00 PM 8.87 47.966 0.223 7.55 5.71 12.28
11/10/2021 3:15:00 PM 8.77 47.786 0.223 7.55 5.6 12.26
11/10/2021 3:30:00 PM 8.64 47.552 0.222 7.54 5.65 12.22
11/10/2021 3:45:00 PM 8.47 47.246 0.223 7.54 5.82 12.17
11/10/2021 4:00:00 PM 8.31 46.958 0.223 7.55 5.8 12.13
11/10/2021 4:15:00 PM 8.17 46.706 0.223 7.54 5.69 12.08
11/10/2021 4:30:00 PM 8.08 46.544 0.223 7.52 5.82 12.02
11/10/2021 4:45:00 PM 8.02 46.436 0.223 7.52 5.66 11.97
11/10/2021 5:00:00 PM 7.96 46.328 0.223 7.52 5.7 11.92
11/10/2021 5:15:00 PM 7.91 46.238 0.223 7.51 5.74 11.88
11/10/2021 5:30:00 PM 7.87 46.166 0.224 7.49 5.91 11.84
11/10/2021 5:45:00 PM 7.83 46.094 0.223 7.48 6.07 11.81
11/10/2021 6:00:00 PM 7.8 46.04 0.223 7.48 6.13 11.77
11/10/2021 6:15:00 PM 7.77 45.986 0.223 7.47 6.12 11.75
11/10/2021 6:30:00 PM 7.73 45.914 0.223 7.47 6.41 11.72
11/10/2021 6:45:00 PM 7.69 45.842 0.224 7.46 6.27 11.71
11/10/2021 7:00:00 PM 7.64 45.752 0.224 7.47 6.78 11.7
11/10/2021 7:15:00 PM 7.59 45.662 0.224 7.47 6.22 11.69
11/10/2021 7:30:00 PM 7.54 45.572 0.224 7.48 6.86 11.69
11/10/2021 7:45:00 PM 7.49 45.482 0.224 7.47 6.74 11.7
11/10/2021 8:00:00 PM 7.43 45.374 0.224 7.46 6.55 11.7
11/10/2021 8:15:00 PM 7.37 45.266 0.224 7.46 6.18 11.71
11/10/2021 8:30:00 PM 7.32 45.176 0.223 7.46 6.36 11.71
11/10/2021 8:45:00 PM 7.27 45.086 0.224 7.46 6.17 11.71
11/10/2021 9:00:00 PM 7.24 45.032 0.224 7.46 6.48 11.72
11/10/2021 9:15:00 PM 7.2 44.96 0.224 7.46 6.61 11.71
11/10/2021 9:30:00 PM 7.18 44.924 0.224 7.47 5.98 11.71
11/10/2021 9:45:00 PM 7.15 44.87 0.224 7.45 6.23 11.71
11/10/2021 10:00:00 PM 7.13 44.834 0.224 7.45 6.02 11.71
11/10/2021 10:15:00 PM 7.11 44.798 0.224 7.46 6.32 11.71
11/10/2021 10:30:00 PM 7.09 44.762 0.225 7.47 6.62 11.71
11/10/2021 10:45:00 PM 7.07 44.726 0.224 7.48 6.38 11.71
11/10/2021 11:00:00 PM 7.05 44.69 0.224 7.47 6.03 11.71
11/10/2021 11:15:00 PM 7.03 44.654 0.225 7.46 6.45 11.72
11/10/2021 11:30:00 PM 7.01 44.618 0.224 7.46 6.28 11.72
11/10/2021 11:45:00 PM 6.98 44.564 0.224 7.46 6.17 11.72
11/11/2021 12:00:00 AM 6.96 44.528 0.224 7.46 6.22 11.72
11/11/2021 12:15:00 AM 6.93 44.474 0.225 7.46 6.15 11.73
11/11/2021 12:30:00 AM 6.9 44.42 0.225 7.46 5.96 11.73
11/11/2021 12:45:00 AM 6.87 44.366 0.225 7.46 6.07 11.74
11/11/2021 1:00:00 AM 6.84 44.312 0.224 7.46 6.26 11.74
11/11/2021 1:15:00 AM 6.81 44.258 0.224 7.45 6.56 11.74
11/11/2021 1:30:00 AM 6.79 44.222 0.225 7.45 6.3 11.74
11/11/2021 1:45:00 AM 6.76 44.168 0.224 7.46 6.29 11.74
11/11/2021 2:00:00 AM 6.74 44.132 0.225 7.45 6.23 11.74
11/11/2021 2:15:00 AM 6.72 44.096 0.225 7.46 6.29 11.74
11/11/2021 2:30:00 AM 6.69 44.042 0.225 7.45 6.15 11.74
11/11/2021 2:45:00 AM 6.66 43.988 0.225 7.46 6.26 11.75
11/11/2021 3:00:00 AM 6.63 43.934 0.225 7.45 6.02 11.75
11/11/2021 3:15:00 AM 6.61 43.898 0.226 7.45 6.78 11.75
11/11/2021 3:30:00 AM 6.59 43.862 0.225 7.45 6.3 11.76
11/11/2021 3:45:00 AM 6.57 43.826 0.225 7.44 6.25 11.76
11/11/2021 4:00:00 AM 6.56 43.808 0.226 7.46 6.07 11.76
11/11/2021 4:15:00 AM 6.56 43.808 0.225 7.45 6.12 11.76
11/11/2021 4:30:00 AM 6.56 43.808 0.226 7.45 6.43 11.77
11/11/2021 4:45:00 AM 6.56 43.808 0.226 7.45 6.03 11.76
11/11/2021 5:00:00 AM 6.56 43.808 0.226 7.45 137.78 11.76
11/11/2021 5:15:00 AM 6.55 43.79 0.226 7.46 6.41 11.77
11/11/2021 5:30:00 AM 6.54 43.772 0.226 7.47 6.28 11.77
11/11/2021 5:45:00 AM 6.54 43.772 0.226 7.45 6.26 11.77
11/11/2021 6:00:00 AM 6.53 43.754 0.226 7.45 6.28 11.77
11/11/2021 6:15:00 AM 6.51 43.718 0.226 7.46 6.19 11.77
11/11/2021 6:30:00 AM 6.5 43.7 0.226 7.45 6.33 11.77
11/11/2021 6:45:00 AM 6.49 43.682 0.227 7.45 6.39 11.78
11/11/2021 7:00:00 AM 6.48 43.664 0.226 7.45 6.28 11.78
11/11/2021 7:15:00 AM 6.48 43.664 0.227 7.46 6.15 11.8
11/11/2021 7:30:00 AM 6.49 43.682 0.226 7.46 6.01 11.83
11/11/2021 7:45:00 AM 6.51 43.718 0.227 7.45 5.99 11.88
11/11/2021 8:00:00 AM 6.52 43.736 0.225 7.47 5.81 11.92
11/11/2021 8:15:00 AM 6.54 43.772 0.226 7.46 5.83 11.97
11/11/2021 8:30:00 AM 6.59 43.862 0.227 7.47 5.84 12.03
11/11/2021 8:45:00 AM 6.61 43.898 0.226 7.49 5.74 12.07
11/11/2021 9:00:00 AM 6.66 43.988 0.227 7.47 5.82 12.12
11/11/2021 9:15:00 AM 6.76 44.168 0.226 7.48 5.78 12.19
11/11/2021 9:30:00 AM 6.87 44.366 0.227 7.48 5.75 12.26
11/11/2021 9:45:00 AM 6.96 44.528 0.226 7.5 5.73 12.31
11/11/2021 10:00:00 AM 7.04 44.672 0.227 7.51 5.85 12.35
11/11/2021 10:15:00 AM 7.19 44.942 0.227 7.52 5.78 12.37
11/11/2021 10:30:00 AM 7.32 45.176 0.225 7.52 5.64 12.41
11/11/2021 10:45:00 AM 7.41 45.338 0.227 7.53 5.75 12.44
11/11/2021 11:00:00 AM 7.52 45.536 0.227 7.52 5.74 12.46
11/11/2021 11:15:00 AM 7.66 45.788 0.227 7.54 5.63 12.46
11/11/2021 11:30:00 AM 7.84 46.112 0.226 7.53 5.73 12.48
11/11/2021 11:45:00 AM 7.87 46.166 0.227 7.53 5.68 12.47
11/11/2021 12:00:00 PM 7.94 46.292 0.226 7.54 5.86 12.45
11/11/2021 12:15:00 PM 8.06 46.508 0.227 7.53 5.86 12.45
11/11/2021 12:30:00 PM 8.1 46.58 0.227 7.54 5.87 12.45
11/11/2021 12:45:00 PM 8.19 46.742 0.227 7.55 5.7 12.45
11/11/2021 1:00:00 PM 8.26 46.868 0.227 7.53 6 12.45
11/11/2021 1:15:00 PM 8.32 46.976 0.227 7.57 5.81 12.45
11/11/2021 1:30:00 PM 8.36 47.048 0.226 7.54 5.76 12.44
11/11/2021 1:45:00 PM 8.44 47.192 0.227 7.55 5.81 12.43
11/11/2021 2:00:00 PM 8.6 47.48 0.227 7.56 5.81 12.43
11/11/2021 2:15:00 PM 8.67 47.606 0.227 7.58 5.76 12.43
11/11/2021 2:30:00 PM 8.73 47.714 0.227 7.56 7.09 12.41
11/11/2021 2:45:00 PM 8.72 47.696 0.227 7.56 5.86 12.36
11/11/2021 3:00:00 PM 8.74 47.732 0.228 7.56 5.88 12.34
11/11/2021 3:15:00 PM 8.71 47.678 0.227 7.58 6.03 12.33
11/11/2021 3:30:00 PM 8.64 47.552 0.229 7.56 5.89 12.28
11/11/2021 3:45:00 PM 8.56 47.408 0.228 7.55 6.3 12.21
11/11/2021 4:00:00 PM 8.5 47.3 0.228 7.56 5.92 12.15
11/11/2021 4:15:00 PM 8.44 47.192 0.227 7.55 6 12.09
11/11/2021 4:30:00 PM 8.39 47.102 0.228 7.53 5.61 12.03
11/11/2021 4:45:00 PM 8.35 47.03 0.228 7.53 5.65 11.96
11/11/2021 5:00:00 PM 8.32 46.976 0.228 7.51 5.89 11.88
11/11/2021 5:15:00 PM 8.29 46.922 0.228 7.5 6.06 11.8
11/11/2021 5:30:00 PM 8.29 46.922 0.228 7.49 6.03 11.74
11/11/2021 5:45:00 PM 8.28 46.904 0.229 7.48 6.19 11.68
11/11/2021 6:00:00 PM 8.27 46.886 0.228 7.48 6.13 11.63
11/11/2021 6:15:00 PM 8.27 46.886 0.228 7.47 6.39 11.59
11/11/2021 6:30:00 PM 8.28 46.904 0.229 7.48 5.99 11.55
11/11/2021 6:45:00 PM 8.29 46.922 0.227 7.46 6.13 11.52
11/11/2021 7:00:00 PM 8.3 46.94 0.229 7.47 6.2 11.49
11/11/2021 7:15:00 PM 8.29 46.922 0.229 7.45 5.95 11.47
11/11/2021 7:30:00 PM 8.31 46.958 0.229 7.46 6.03 11.45
11/11/2021 7:45:00 PM 8.32 46.976 0.228 7.45 6.42 11.44
11/11/2021 8:00:00 PM 8.34 47.012 0.229 7.45 6.29 11.42
11/11/2021 8:15:00 PM 8.36 47.048 0.229 7.47 6.13 11.41
11/11/2021 8:30:00 PM 8.39 47.102 0.229 7.45 6.13 11.39
11/11/2021 8:45:00 PM 8.4 47.12 0.229 7.46 6.78 11.38
11/11/2021 9:00:00 PM 8.43 47.174 0.229 7.44 6.42 11.37
11/11/2021 9:15:00 PM 8.46 47.228 0.228 7.46 6.17 11.36
11/11/2021 9:30:00 PM 8.48 47.264 0.229 7.46 6.32 11.34
11/11/2021 9:45:00 PM 8.51 47.318 0.229 7.46 6.36 11.33
11/11/2021 10:00:00 PM 8.53 47.354 0.229 7.46 6.74 11.32
11/11/2021 10:15:00 PM 8.54 47.372 0.229 7.46 6.41 11.31
11/11/2021 10:30:00 PM 8.57 47.426 0.229 7.47 6.18 11.3
11/11/2021 10:45:00 PM 8.58 47.444 0.229 7.45 6.33 11.29
11/11/2021 11:00:00 PM 8.59 47.462 0.23 7.45 6.45 11.27
11/11/2021 11:15:00 PM 8.61 47.498 0.231 7.45 6.25 11.25
11/11/2021 11:30:00 PM 8.63 47.534 0.229 7.44 6.61 11.23
11/11/2021 11:45:00 PM 8.65 47.57 0.229 7.45 6.4 11.22
11/12/2021 12:00:00 AM 8.67 47.606 0.229 7.43 6.47 11.2
11/12/2021 12:15:00 AM 8.67 47.606 0.23 7.36 6.19 11.19
11/12/2021 12:30:00 AM 8.69 47.642 0.229 7.44 6.49 11.18
11/12/2021 12:45:00 AM 8.7 47.66 0.23 7.45 6.54 11.17
11/12/2021 1:00:00 AM 8.72 47.696 0.229 7.44 6.68 11.16
11/12/2021 1:15:00 AM 8.73 47.714 0.229 7.44 6.67 11.15
11/12/2021 1:30:00 AM 8.73 47.714 0.229 7.45 6.61 11.14
11/12/2021 1:45:00 AM 8.74 47.732 0.23 7.45 7.07 11.12
11/12/2021 2:00:00 AM 8.76 47.768 0.229 7.46 7.38 11.11
11/12/2021 2:15:00 AM 8.77 47.786 0.229 7.44 6.66 11.11
11/12/2021 2:30:00 AM 8.85 47.93 0.225 7.45 11.59 11.06
11/12/2021 2:45:00 AM 8.83 47.894 0.226 7.44 7.88 11.06
11/12/2021 3:00:00 AM 8.82 47.876 0.231 7.44 7.25 11.04
11/12/2021 3:15:00 AM 8.83 47.894 0.233 7.43 7.79 11.02
11/12/2021 3:30:00 AM 8.84 47.912 0.23 7.43 8.09 11
11/12/2021 3:45:00 AM 8.85 47.93 0.227 7.44 7.97 10.99
11/12/2021 4:00:00 AM 8.84 47.912 0.227 7.43 8.1 10.99
11/12/2021 4:15:00 AM 8.83 47.894 0.228 7.43 8.03 10.98
11/12/2021 4:30:00 AM 8.83 47.894 0.227 7.43 8.17 10.97
11/12/2021 4:45:00 AM 8.83 47.894 0.226 7.43 7.77 10.97
11/12/2021 5:00:00 AM 8.82 47.876 0.225 7.44 7.87 10.98
11/12/2021 5:15:00 AM 8.78 47.804 0.224 7.44 7.93 10.98
11/12/2021 5:30:00 AM 8.75 47.75 0.225 7.43 7.89 10.98
11/12/2021 5:45:00 AM 8.72 47.696 0.225 7.42 8.01 10.98
11/12/2021 6:00:00 AM 8.68 47.624 0.226 7.44 8.15 10.99
11/12/2021 6:15:00 AM 8.64 47.552 0.226 7.43 8.2 10.99
11/12/2021 6:30:00 AM 8.61 47.498 0.226 7.43 7.91 11
11/12/2021 6:45:00 AM 8.56 47.408 0.225 7.44 7.91 11.01
11/12/2021 7:00:00 AM 8.52 47.336 0.226 7.44 7.66 11.02
11/12/2021 7:15:00 AM 8.49 47.282 0.226 7.44 7.62 11.04
11/12/2021 7:30:00 AM 8.45 47.21 0.226 7.44 7.24 11.05
11/12/2021 7:45:00 AM 8.41 47.138 0.227 7.45 7.71 11.08
11/12/2021 8:00:00 AM 8.37 47.066 0.227 7.45 7.17 11.14
11/12/2021 8:15:00 AM 8.36 47.048 0.227 7.45 7.11 11.21
11/12/2021 8:30:00 AM 8.34 47.012 0.228 7.47 7.12 11.27
11/12/2021 8:45:00 AM 8.37 47.066 0.228 7.48 6.75 11.36
11/12/2021 9:00:00 AM 8.38 47.084 0.227 7.47 6.77 11.43
11/12/2021 9:15:00 AM 8.46 47.228 0.228 7.49 6.85 11.52
11/12/2021 9:30:00 AM 8.54 47.372 0.228 7.5 6.93 11.6
11/12/2021 9:45:00 AM 8.64 47.552 0.228 7.5 8.58 11.67
11/12/2021 10:00:00 AM 8.77 47.786 0.228 7.51 6.42 11.72
11/12/2021 10:15:00 AM 8.89 48.002 0.228 7.52 6.31 11.77
11/12/2021 10:30:00 AM 9.02 48.236 0.228 7.52 6.47 11.81
11/12/2021 10:45:00 AM 9.17 48.506 0.228 7.53 6.44 11.84
11/12/2021 11:00:00 AM 9.31 48.758 0.228 7.55 6.39 11.85
11/12/2021 11:15:00 AM 9.44 48.992 0.23 7.56 6.64 11.87
11/12/2021 11:30:00 AM 9.56 49.208 0.231 7.57 6.78 11.9
11/12/2021 11:45:00 AM 9.67 49.406 0.231 7.57 6.69 11.91
11/12/2021 12:00:00 PM 9.75 49.55 0.23 7.58 6.47 11.91
11/12/2021 12:15:00 PM 9.83 49.694 0.229 7.58 6.54 11.92
11/12/2021 12:30:00 PM 9.91 49.838 0.229 7.6 6.67 11.93
11/12/2021 12:45:00 PM 9.92 49.856 0.228 7.6 6.62 11.92
11/12/2021 1:00:00 PM 9.99 49.982 0.227 7.6 7.23 11.93
11/12/2021 1:15:00 PM 10.02 50.036 0.226 7.61 6.76 11.92
11/12/2021 1:30:00 PM 9.93 49.874 0.225 7.61 6.76 11.87
11/12/2021 1:45:00 PM 9.91 49.838 0.224 7.61 6.83 11.86
11/12/2021 2:00:00 PM 9.86 49.748 0.223 7.61 6.55 11.86
11/12/2021 2:15:00 PM 9.8 49.64 0.223 7.61 6.49 11.86
11/12/2021 2:30:00 PM 9.76 49.568 0.222 7.61 6.63 11.85
11/12/2021 2:45:00 PM 9.71 49.478 0.221 7.61 6.4 11.83
11/12/2021 3:00:00 PM 9.61 49.298 0.221 7.6 6.58 11.8
11/12/2021 3:15:00 PM 9.5 49.1 0.22 7.61 7.19 11.78
11/12/2021 3:30:00 PM 9.37 48.866 0.219 7.6 6.99 11.73
11/12/2021 3:45:00 PM 9.2 48.56 0.22 7.6 8.33 11.65
11/12/2021 4:00:00 PM 9.09 48.362 0.22 7.59 6.67 11.59
11/12/2021 4:15:00 PM 9 48.2 0.219 7.58 6.95 11.54
11/12/2021 4:30:00 PM 8.93 48.074 0.219 7.57 6.83 11.49
11/12/2021 4:45:00 PM 8.89 48.002 0.219 7.57 6.78 11.45
11/12/2021 5:00:00 PM 8.86 47.948 0.219 7.56 7.49 11.4
11/12/2021 5:15:00 PM 8.83 47.894 0.219 7.56 7.01 11.35
11/12/2021 5:30:00 PM 8.8 47.84 0.218 7.55 6.93 11.31
11/12/2021 5:45:00 PM 8.76 47.768 0.219 7.55 6.82 11.28
11/12/2021 6:00:00 PM 8.72 47.696 0.218 7.54 7.17 11.25
11/12/2021 6:15:00 PM 8.67 47.606 0.218 7.53 7.13 11.24
11/12/2021 6:30:00 PM 8.62 47.516 0.218 7.52 7.05 11.23
11/12/2021 6:45:00 PM 8.57 47.426 0.218 7.52 7.27 11.23
11/12/2021 7:00:00 PM 8.54 47.372 0.217 7.52 7.32 11.23
11/12/2021 7:15:00 PM 8.51 47.318 0.217 7.53 7.24 11.23
11/12/2021 7:30:00 PM 8.48 47.264 0.216 7.52 10.28 11.22
11/12/2021 7:45:00 PM 8.43 47.174 0.216 7.52 8.1 11.22
11/12/2021 8:00:00 PM 8.4 47.12 0.217 7.51 7.24 11.22
11/12/2021 8:15:00 PM 8.36 47.048 0.217 7.51 6.94 11.22
11/12/2021 8:30:00 PM 8.33 46.994 0.216 7.51 7.6 11.22
11/12/2021 8:45:00 PM 8.31 46.958 0.216 7.51 7.4 11.21
11/12/2021 9:00:00 PM 8.28 46.904 0.216 7.5 7.99 11.21
11/12/2021 9:15:00 PM 8.25 46.85 0.216 7.5 7.5 11.2
11/12/2021 9:30:00 PM 8.22 46.796 0.215 7.5 8.12 11.2
11/12/2021 9:45:00 PM 8.18 46.724 0.216 7.5 7.6 11.2
11/12/2021 10:00:00 PM 8.15 46.67 0.215 7.5 7.46 11.21
11/12/2021 10:15:00 PM 8.12 46.616 0.215 7.5 7.38 11.2
11/12/2021 10:30:00 PM 8.1 46.58 0.215 7.5 9.51 11.2
11/12/2021 10:45:00 PM 8.07 46.526 0.215 7.51 7.62 11.21
11/12/2021 11:00:00 PM 8.06 46.508 0.215 7.49 7.64 11.21
11/12/2021 11:15:00 PM 8.03 46.454 0.215 7.49 8.14 11.21
11/12/2021 11:30:00 PM 8 46.4 0.215 7.5 8.86 11.21
11/12/2021 11:45:00 PM 7.96 46.328 0.215 7.5 8.93 11.21
11/13/2021 12:00:00 AM 7.92 46.256 0.216 7.49 7.49 11.21
11/13/2021 12:15:00 AM 7.91 46.238 0.216 7.51 9.61 11.21
11/13/2021 12:30:00 AM 7.88 46.184 0.215 7.5 8.08 11.22
11/13/2021 12:45:00 AM 7.87 46.166 0.215 7.5 7.23 11.22
11/13/2021 1:00:00 AM 7.86 46.148 0.216 7.49 10.98 11.21
11/13/2021 1:15:00 AM 7.86 46.148 0.216 7.5 9.58 11.21
11/13/2021 1:30:00 AM 7.85 46.13 0.216 7.5 5.95 11.21
11/13/2021 1:45:00 AM 7.84 46.112 0.216 7.49 126.74 11.22
11/13/2021 2:00:00 AM 7.83 46.094 0.216 7.49 8.36 11.21
11/13/2021 2:15:00 AM 7.8 46.04 0.216 7.5 7.72 11.21
11/13/2021 2:30:00 AM 7.78 46.004 0.217 7.49 7.33 11.22
11/13/2021 2:45:00 AM 7.75 45.95 0.217 7.49 7.29 11.22
11/13/2021 3:00:00 AM 7.73 45.914 0.216 7.51 7.33 11.23
11/13/2021 3:15:00 AM 7.71 45.878 0.217 7.5 7.03 11.23
11/13/2021 3:30:00 AM 7.69 45.842 0.217 7.5 7.33 11.24
11/13/2021 3:45:00 AM 7.67 45.806 0.217 7.5 7.68 11.24
11/13/2021 4:00:00 AM 7.65 45.77 0.217 7.5 7.42 11.25
11/13/2021 4:15:00 AM 7.63 45.734 0.218 7.5 7.43 11.25
11/13/2021 4:30:00 AM 7.6 45.68 0.218 7.5 9.62 11.26
11/13/2021 4:45:00 AM 7.57 45.626 0.218 7.49 7.53 11.26
11/13/2021 5:00:00 AM 7.53 45.554 0.218 7.5 7.36 11.27
11/13/2021 5:15:00 AM 7.49 45.482 0.219 7.5 6.98 11.27
11/13/2021 5:30:00 AM 7.46 45.428 0.218 7.49 7.52 11.27
11/13/2021 5:45:00 AM 7.45 45.41 0.219 7.5 6.75 11.27
11/13/2021 6:00:00 AM 7.44 45.392 0.219 7.49 7.05 11.27
11/13/2021 6:15:00 AM 7.43 45.374 0.219 7.5 7.09 11.27
11/13/2021 6:30:00 AM 7.42 45.356 0.219 7.5 6.95 11.28
11/13/2021 6:45:00 AM 7.4 45.32 0.219 7.49 6.84 11.28
11/13/2021 7:00:00 AM 7.39 45.302 0.219 7.49 6.95 11.28
11/13/2021 7:15:00 AM 7.38 45.284 0.22 7.5 6.67 11.28
11/13/2021 7:30:00 AM 7.37 45.266 0.219 7.49 7.22 11.29
11/13/2021 7:45:00 AM 7.36 45.248 0.22 7.51 6.67 11.3
11/13/2021 8:00:00 AM 7.35 45.23 0.22 7.49 6.66 11.32
11/13/2021 8:15:00 AM 7.33 45.194 0.22 7.49 6.76 11.34
11/13/2021 8:30:00 AM 7.32 45.176 0.22 7.5 6.61 11.38
11/13/2021 8:45:00 AM 7.32 45.176 0.22 7.5 6.52 11.42
11/13/2021 9:00:00 AM 7.31 45.158 0.22 7.51 6.51 11.46
11/13/2021 9:15:00 AM 7.32 45.176 0.22 7.51 6.73 11.54
11/13/2021 9:30:00 AM 7.31 45.158 0.22 7.52 6.45 11.62
11/13/2021 9:45:00 AM 7.28 45.104 0.22 7.53 6.56 11.68
11/13/2021 10:00:00 AM 7.24 45.032 0.221 7.53 6.44 11.73
11/13/2021 10:15:00 AM 7.26 45.068 0.221 7.54 6.58 11.82
11/13/2021 10:30:00 AM 7.29 45.122 0.221 7.55 6.51 11.9
11/13/2021 10:45:00 AM 7.32 45.176 0.221 7.56 6.53 11.97
11/13/2021 11:00:00 AM 7.32 45.176 0.221 7.57 6.41 12.01
11/13/2021 11:15:00 AM 7.33 45.194 0.22 7.57 6.41 12.03
11/13/2021 11:30:00 AM 7.24 45.032 0.22 7.59 6.64 12.06
11/13/2021 11:45:00 AM 7.29 45.122 0.22 7.58 6.41 12.11
11/13/2021 12:00:00 PM 7.34 45.212 0.221 7.61 6.69 12.16
11/13/2021 12:15:00 PM 7.4 45.32 0.221 7.59 6.61 12.21
11/13/2021 12:30:00 PM 7.42 45.356 0.221 7.6 6.51 12.25
11/13/2021 12:45:00 PM 7.53 45.554 0.22 7.6 6.47 12.28
11/13/2021 1:00:00 PM 7.59 45.662 0.221 7.61 6.5 12.3
11/13/2021 1:15:00 PM 7.6 45.68 0.221 7.6 6.25 12.31
11/13/2021 1:30:00 PM 7.67 45.806 0.221 7.6 6.48 12.33
11/13/2021 1:45:00 PM 7.65 45.77 0.221 7.61 6.27 12.33
11/13/2021 2:00:00 PM 7.56 45.608 0.222 7.6 6.23 12.32
11/13/2021 2:15:00 PM 7.51 45.518 0.221 7.6 6.33 12.3
11/13/2021 2:30:00 PM 7.45 45.41 0.222 7.6 6.38 12.27
11/13/2021 2:45:00 PM 7.39 45.302 0.221 7.61 6.18 12.22
11/13/2021 3:00:00 PM 7.33 45.194 0.222 7.59 6.34 12.17
11/13/2021 3:15:00 PM 7.25 45.05 0.222 7.58 6.21 12.13
11/13/2021 3:30:00 PM 7.18 44.924 0.222 7.57 6.4 12.09
11/13/2021 3:45:00 PM 7.12 44.816 0.222 7.58 6.24 12.06
11/13/2021 4:00:00 PM 7.05 44.69 0.221 7.57 6.19 12.01
11/13/2021 4:15:00 PM 6.99 44.582 0.223 7.56 6 11.97
11/13/2021 4:30:00 PM 6.93 44.474 0.224 7.55 6.19 11.93
11/13/2021 4:45:00 PM 6.89 44.402 0.223 7.56 6 11.89
11/13/2021 5:00:00 PM 6.84 44.312 0.224 7.54 6.1 11.86
11/13/2021 5:15:00 PM 6.79 44.222 0.224 7.54 6.18 11.82
11/13/2021 5:30:00 PM 6.73 44.114 0.224 7.53 6.2 11.8
11/13/2021 5:45:00 PM 6.67 44.006 0.224 7.53 6.87 11.78
11/13/2021 6:00:00 PM 6.62 43.916 0.224 7.53 6.29 11.77
11/13/2021 6:15:00 PM 6.57 43.826 0.224 7.52 6.76 11.77
11/13/2021 6:30:00 PM 6.53 43.754 0.224 7.52 6.39 11.76
11/13/2021 6:45:00 PM 6.49 43.682 0.225 7.52 6.51 11.76
11/13/2021 7:00:00 PM 6.45 43.61 0.225 7.51 6.63 11.76
11/13/2021 7:15:00 PM 6.42 43.556 0.225 7.51 7.87 11.76
11/13/2021 7:30:00 PM 6.38 43.484 0.225 7.51 6.86 11.77
11/13/2021 7:45:00 PM 6.35 43.43 0.225 7.51 6.5 11.77
11/13/2021 8:00:00 PM 6.32 43.376 0.226 7.5 6.91 11.78
11/13/2021 8:15:00 PM 6.3 43.34 0.225 7.5 6.48 11.78
11/13/2021 8:30:00 PM 6.27 43.286 0.226 7.5 7.02 11.79
11/13/2021 8:45:00 PM 6.25 43.25 0.227 7.51 6.6 11.8
11/13/2021 9:00:00 PM 6.23 43.214 0.226 7.51 6.6 11.81
11/13/2021 9:15:00 PM 6.21 43.178 0.226 7.51 6.35 11.82
11/13/2021 9:30:00 PM 6.19 43.142 0.226 7.51 6.52 11.82
11/13/2021 9:45:00 PM 6.17 43.106 0.226 7.51 6.43 11.83
11/13/2021 10:00:00 PM 6.15 43.07 0.226 7.51 6.61 11.84
11/13/2021 10:15:00 PM 6.13 43.034 0.226 7.51 6.64 11.84
11/13/2021 10:30:00 PM 6.12 43.016 0.226 7.5 6.66 11.85
11/13/2021 10:45:00 PM 6.1 42.98 0.226 7.51 6.19 11.85
11/13/2021 11:00:00 PM 6.08 42.944 0.226 7.5 6.58 11.85
11/13/2021 11:15:00 PM 6.07 42.926 0.226 7.52 6.44 11.85
11/13/2021 11:30:00 PM 6.02 42.836 0.226 7.5 6.79 11.85
11/13/2021 11:45:00 PM 6 42.8 0.226 7.5 5.34 11.85
11/14/2021 12:00:00 AM 5.98 42.764 0.227 7.52 6.46 11.85
11/14/2021 12:15:00 AM 5.95 42.71 0.227 7.5 6.66 11.85
11/14/2021 12:30:00 AM 5.92 42.656 0.226 7.51 6.15 11.86
11/14/2021 12:45:00 AM 5.88 42.584 0.229 7.5 6.17 11.86
11/14/2021 1:00:00 AM 5.84 42.512 0.227 7.5 6.4 11.86
11/14/2021 1:15:00 AM 5.8 42.44 0.226 7.49 6.79 11.87
11/14/2021 1:30:00 AM 5.78 42.404 0.227 7.49 6.28 11.87
11/14/2021 1:45:00 AM 5.75 42.35 0.227 7.48 6.38 11.87
11/14/2021 2:00:00 AM 5.74 42.332 0.227 7.5 6.37 11.88
11/14/2021 2:15:00 AM 5.73 42.314 0.227 7.49 6.06 11.89
11/14/2021 2:30:00 AM 5.71 42.278 0.225 7.48 6.13 11.9
11/14/2021 2:45:00 AM 5.7 42.26 0.226 7.5 6.44 11.9
11/14/2021 3:00:00 AM 5.69 42.242 0.227 7.48 6.32 11.91
11/14/2021 3:15:00 AM 5.66 42.188 0.227 7.5 6.38 11.92
11/14/2021 3:30:00 AM 5.62 42.116 0.227 7.49 6.29 11.92
11/14/2021 3:45:00 AM 5.59 42.062 0.227 7.49 6.28 11.93
11/14/2021 4:00:00 AM 5.55 41.99 0.226 7.5 6.96 11.93
11/14/2021 4:15:00 AM 5.52 41.936 0.226 7.51 6.63 11.94
11/14/2021 4:30:00 AM 5.5 41.9 0.226 7.49 6.5 11.94
11/14/2021 4:45:00 AM 5.49 41.882 0.226 7.49 6.5 11.95
11/14/2021 5:00:00 AM 5.49 41.882 0.226 7.49 6.5 11.95
11/14/2021 5:15:00 AM 5.5 41.9 0.226 7.51 6.39 11.95
11/14/2021 5:30:00 AM 5.49 41.882 0.227 7.48 6.28 11.96
11/14/2021 5:45:00 AM 5.47 41.846 0.227 7.51 6.44 11.96
11/14/2021 6:00:00 AM 5.46 41.828 0.226 7.48 6.34 11.96
11/14/2021 6:15:00 AM 5.45 41.81 0.226 7.48 6.44 11.97
11/14/2021 6:30:00 AM 5.45 41.81 0.227 7.47 6.36 11.97
11/14/2021 6:45:00 AM 5.44 41.792 0.226 7.48 6.02 11.97
11/14/2021 7:00:00 AM 5.42 41.756 0.226 7.5 6.29 11.98
11/14/2021 7:15:00 AM 5.41 41.738 0.226 7.49 6.02 11.99
11/14/2021 7:30:00 AM 5.4 41.72 0.226 7.49 6.16 12.01
11/14/2021 7:45:00 AM 5.4 41.72 0.227 7.5 6 12.04
11/14/2021 8:00:00 AM 5.39 41.702 0.227 7.49 6.12 12.05
11/14/2021 8:15:00 AM 5.39 41.702 0.227 7.49 6.03 12.09
11/14/2021 8:30:00 AM 5.4 41.72 0.226 7.49 6.18 12.15
11/14/2021 8:45:00 AM 5.4 41.72 0.226 7.5 5.91 12.2
11/14/2021 9:00:00 AM 5.4 41.72 0.226 7.51 6.01 12.24
11/14/2021 9:15:00 AM 5.41 41.738 0.227 7.51 5.96 12.3
11/14/2021 9:30:00 AM 5.41 41.738 0.226 7.51 5.89 12.34
11/14/2021 9:45:00 AM 5.43 41.774 0.226 7.52 5.95 12.41
11/14/2021 10:00:00 AM 5.45 41.81 0.226 7.53 5.91 12.44
11/14/2021 10:15:00 AM 5.46 41.828 0.227 7.53 5.86 12.46
11/14/2021 10:30:00 AM 5.47 41.846 0.227 7.54 5.76 12.49
11/14/2021 10:45:00 AM 5.49 41.882 0.227 7.54 6 12.53
11/14/2021 11:00:00 AM 5.51 41.918 0.227 7.55 5.82 12.57
11/14/2021 11:15:00 AM 5.51 41.918 0.227 7.56 5.88 12.58
11/14/2021 11:30:00 AM 5.55 41.99 0.227 7.55 6.07 12.61
11/14/2021 11:45:00 AM 5.56 42.008 0.227 7.57 6.17 12.65
11/14/2021 12:00:00 PM 5.54 41.972 0.227 7.56 5.97 12.63
11/14/2021 12:15:00 PM 5.54 41.972 0.227 7.55 5.85 12.61
11/14/2021 12:30:00 PM 5.54 41.972 0.227 7.55 5.87 12.6
11/14/2021 12:45:00 PM 5.52 41.936 0.227 7.56 6.03 12.62
11/14/2021 1:00:00 PM 5.54 41.972 0.227 7.56 5.92 12.66
11/14/2021 1:15:00 PM 5.55 41.99 0.227 7.56 5.83 12.69
11/14/2021 1:30:00 PM 5.54 41.972 0.227 7.56 5.76 12.68
11/14/2021 1:45:00 PM 5.56 42.008 0.227 7.56 5.93 12.69
11/14/2021 2:00:00 PM 5.56 42.008 0.227 7.56 6.05 12.71
11/14/2021 2:15:00 PM 5.55 41.99 0.227 7.56 5.97 12.71
11/14/2021 2:30:00 PM 5.55 41.99 0.227 7.57 5.83 12.69
11/14/2021 2:45:00 PM 5.54 41.972 0.227 7.56 5.83 12.65
11/14/2021 3:00:00 PM 5.53 41.954 0.228 7.55 5.9 12.64
11/14/2021 3:15:00 PM 5.52 41.936 0.227 7.57 6.11 12.64
11/14/2021 3:30:00 PM 5.5 41.9 0.228 7.56 6.06 12.62
11/14/2021 3:45:00 PM 5.45 41.81 0.227 7.55 5.73 12.57
11/14/2021 4:00:00 PM 5.41 41.738 0.228 7.55 6.13 12.53
11/14/2021 4:15:00 PM 5.33 41.594 0.227 7.55 6 12.49
11/14/2021 4:30:00 PM 5.22 41.396 0.227 7.55 5.78 12.45
11/14/2021 4:45:00 PM 5.14 41.252 0.227 7.55 5.93 12.43
11/14/2021 5:00:00 PM 5.09 41.162 0.228 7.53 6.35 12.4
11/14/2021 5:15:00 PM 5.02 41.036 0.232 7.53 6.4 12.37
11/14/2021 5:30:00 PM 4.96 40.928 0.234 7.52 6.5 12.34
11/14/2021 5:45:00 PM 4.91 40.838 0.235 7.52 6.32 12.32
11/14/2021 6:00:00 PM 4.88 40.784 0.235 7.52 6.41 12.3
11/14/2021 6:15:00 PM 4.84 40.712 0.241 7.51 6.62 12.28
11/14/2021 6:30:00 PM 4.8 40.64 0.239 7.51 6.61 12.27
11/14/2021 6:45:00 PM 4.78 40.604 0.238 7.5 6.5 12.27
11/14/2021 7:00:00 PM 4.77 40.586 0.238 7.5 6.94 12.26
11/14/2021 7:15:00 PM 4.76 40.568 0.238 7.49 6.71 12.26
11/14/2021 7:30:00 PM 4.75 40.55 0.236 7.5 6.46 12.26
11/14/2021 7:45:00 PM 4.75 40.55 0.233 7.49 6.37 12.26
11/14/2021 8:00:00 PM 4.75 40.55 0.232 7.49 6.46 12.26
11/14/2021 8:15:00 PM 4.75 40.55 0.231 7.5 6.32 12.26
11/14/2021 8:30:00 PM 4.76 40.568 0.229 7.49 6.36 12.26
11/14/2021 8:45:00 PM 4.77 40.586 0.229 7.5 6.51 12.26
11/14/2021 9:00:00 PM 4.75 40.55 0.229 7.49 6.34 12.25
11/14/2021 9:15:00 PM 4.76 40.568 0.229 7.48 6.45 12.25
11/14/2021 9:30:00 PM 4.76 40.568 0.228 7.48 6.73 12.26
11/14/2021 9:45:00 PM 4.76 40.568 0.229 7.48 6.16 12.26
11/14/2021 10:00:00 PM 4.76 40.568 0.229 7.48 6.3 12.26
11/14/2021 10:15:00 PM 4.76 40.568 0.228 7.49 6.32 12.27
11/14/2021 10:30:00 PM 4.76 40.568 0.229 7.49 6.29 12.27
11/14/2021 10:45:00 PM 4.76 40.568 0.229 7.49 6.28 12.26
11/14/2021 11:00:00 PM 4.74 40.532 0.228 7.48 6.31 12.27
11/14/2021 11:15:00 PM 4.75 40.55 0.228 7.48 6.28 12.27
11/14/2021 11:30:00 PM 4.75 40.55 0.229 7.48 6.12 12.27
11/14/2021 11:45:00 PM 4.73 40.514 0.229 7.49 6.37 12.27
11/15/2021 12:00:00 AM 4.7 40.46 0.229 7.48 5.96 12.27
11/15/2021 12:15:00 AM 4.62 40.316 0.23 7.47 8.59 12.27
11/15/2021 12:30:00 AM 4.58 40.244 0.229 7.48 6.63 12.28
11/15/2021 12:45:00 AM 4.56 40.208 0.229 7.48 6.27 12.28
11/15/2021 1:00:00 AM 4.43 39.974 0.231 7.49 6.68 12.28
11/15/2021 1:15:00 AM 4.4 39.92 0.232 7.48 6.31 12.29
11/15/2021 1:30:00 AM 4.38 39.884 0.229 7.49 6.47 12.29
11/15/2021 1:45:00 AM 4.33 39.794 0.228 7.48 6.33 12.3
11/15/2021 2:00:00 AM 4.31 39.758 0.231 7.48 6.78 12.31
11/15/2021 2:15:00 AM 4.31 39.758 0.233 7.49 6.4 12.32
11/15/2021 2:30:00 AM 4.29 39.722 0.237 7.47 6.45 12.33
11/15/2021 2:45:00 AM 4.29 39.722 0.24 7.48 6.22 12.33
11/15/2021 3:00:00 AM 4.28 39.704 0.239 7.47 6.17 12.34
11/15/2021 3:15:00 AM 4.26 39.668 0.236 7.48 6.44 12.34
11/15/2021 3:30:00 AM 4.25 39.65 0.234 7.48 6.34 12.35
11/15/2021 3:45:00 AM 4.22 39.596 0.234 7.48 6.34 12.36
11/15/2021 4:00:00 AM 4.19 39.542 0.232 7.48 6.19 12.37
11/15/2021 4:15:00 AM 4.16 39.488 0.231 7.49 6.24 12.38
11/15/2021 4:30:00 AM 4.14 39.452 0.23 7.49 6.23 12.39
11/15/2021 4:45:00 AM 4.12 39.416 0.23 7.51 6.34 12.4
11/15/2021 5:00:00 AM 4.1 39.38 0.229 7.5 6.12 12.41
11/15/2021 5:15:00 AM 4.1 39.38 0.229 7.49 6.05 12.42
11/15/2021 5:30:00 AM 4.08 39.344 0.23 7.49 6.25 12.43
11/15/2021 5:45:00 AM 4.07 39.326 0.23 7.51 6.15 12.44
11/15/2021 6:00:00 AM 4.05 39.29 0.23 7.49 6.27 12.44
11/15/2021 6:15:00 AM 4.03 39.254 0.228 7.49 6.28 12.46
11/15/2021 6:30:00 AM 4.02 39.236 0.229 7.49 6.11 12.46
11/15/2021 6:45:00 AM 4 39.2 0.228 7.5 6.55 12.48
11/15/2021 7:00:00 AM 3.96 39.128 0.229 7.49 6.23 12.49
11/15/2021 7:15:00 AM 3.94 39.092 0.229 7.49 6.01 12.5
11/15/2021 7:30:00 AM 3.93 39.074 0.228 7.49 6.2 12.52
11/15/2021 7:45:00 AM 3.92 39.056 0.229 7.5 5.94 12.57
11/15/2021 8:00:00 AM 3.9 39.02 0.229 7.5 6.13 12.6
11/15/2021 8:15:00 AM 3.9 39.02 0.229 7.5 6.1 12.65
11/15/2021 8:30:00 AM 3.89 39.002 0.229 7.5 6.02 12.71
11/15/2021 8:45:00 AM 3.91 39.038 0.23 7.51 6.11 12.77
11/1